<?xml version="1.0" encoding="UTF-8" standalone="no" ?>
<gpx xmlns="http://www.topografix.com/GPX/1/1" xmlns:xsi="http://www.w3.org/2001/XMLSchema-instance" xsi:schemaLocation="http://www.topografix.com/GPX/1/1 http://www.topografix.com/GPX/1/1/gpx.xsd" version="1.1" creator="VisuGPX - https://www.visugpx.com">
  <metadata>
    <name>Séguret : Cheval long - Vallon de Prébayon - Notre-Dame d'Aubusson</name>
    <desc><![CDATA[Boucle de niveau moyen effectuée le 28 septembre 2019]]></desc>
  </metadata>
  <trk>
    <name><![CDATA[2019-09-28 10:11:47 nettoyé]]></name>
    <trkseg>
      <trkpt lat="44.20796" lon="5.02428">
        <ele>240</ele>
        <time>2019-09-28T05:50:03Z</time>
      </trkpt>
      <trkpt lat="44.20789" lon="5.02428">
        <ele>238</ele>
        <time>2019-09-28T05:50:27Z</time>
      </trkpt>
      <trkpt lat="44.20778" lon="5.02415">
        <ele>233</ele>
        <time>2019-09-28T05:51:03Z</time>
      </trkpt>
      <trkpt lat="44.20766" lon="5.02395">
        <ele>235</ele>
        <time>2019-09-28T05:51:16Z</time>
      </trkpt>
      <trkpt lat="44.20753" lon="5.02371">
        <ele>233</ele>
        <time>2019-09-28T05:51:29Z</time>
      </trkpt>
      <trkpt lat="44.20736" lon="5.02354">
        <ele>236</ele>
        <time>2019-09-28T05:51:42Z</time>
      </trkpt>
      <trkpt lat="44.20722" lon="5.02336">
        <ele>236</ele>
        <time>2019-09-28T05:51:55Z</time>
      </trkpt>
      <trkpt lat="44.20704" lon="5.02318">
        <ele>239</ele>
        <time>2019-09-28T05:52:07Z</time>
      </trkpt>
      <trkpt lat="44.20693" lon="5.02304">
        <ele>239</ele>
        <time>2019-09-28T05:52:17Z</time>
      </trkpt>
      <trkpt lat="44.2068" lon="5.02291">
        <ele>240</ele>
        <time>2019-09-28T05:52:27Z</time>
      </trkpt>
      <trkpt lat="44.20675" lon="5.02284">
        <ele>240</ele>
        <time>2019-09-28T05:52:31Z</time>
      </trkpt>
      <trkpt lat="44.20674" lon="5.02283">
        <ele>240</ele>
        <time>2019-09-28T05:52:32Z</time>
      </trkpt>
      <trkpt lat="44.20661" lon="5.02272">
        <ele>240</ele>
        <time>2019-09-28T05:52:42Z</time>
      </trkpt>
      <trkpt lat="44.20642" lon="5.02264">
        <ele>241</ele>
        <time>2019-09-28T05:52:53Z</time>
      </trkpt>
      <trkpt lat="44.20619" lon="5.02268">
        <ele>242</ele>
        <time>2019-09-28T05:53:04Z</time>
      </trkpt>
      <trkpt lat="44.206" lon="5.02274">
        <ele>242</ele>
        <time>2019-09-28T05:53:15Z</time>
      </trkpt>
      <trkpt lat="44.20575" lon="5.02284">
        <ele>243</ele>
        <time>2019-09-28T05:53:27Z</time>
      </trkpt>
      <trkpt lat="44.20555" lon="5.02286">
        <ele>241</ele>
        <time>2019-09-28T05:53:37Z</time>
      </trkpt>
      <trkpt lat="44.20546" lon="5.02286">
        <ele>241</ele>
        <time>2019-09-28T05:53:41Z</time>
      </trkpt>
      <trkpt lat="44.20525" lon="5.02288">
        <ele>240</ele>
        <time>2019-09-28T05:53:52Z</time>
      </trkpt>
      <trkpt lat="44.20503" lon="5.02295">
        <ele>243</ele>
        <time>2019-09-28T05:54:03Z</time>
      </trkpt>
      <trkpt lat="44.20478" lon="5.023">
        <ele>243</ele>
        <time>2019-09-28T05:54:15Z</time>
      </trkpt>
      <trkpt lat="44.20453" lon="5.02299">
        <ele>240</ele>
        <time>2019-09-28T05:54:27Z</time>
      </trkpt>
      <trkpt lat="44.20432" lon="5.02302">
        <ele>238</ele>
        <time>2019-09-28T05:54:37Z</time>
      </trkpt>
      <trkpt lat="44.20409" lon="5.02317">
        <ele>234</ele>
        <time>2019-09-28T05:54:49Z</time>
      </trkpt>
      <trkpt lat="44.20401" lon="5.02338">
        <ele>235</ele>
        <time>2019-09-28T05:54:58Z</time>
      </trkpt>
      <trkpt lat="44.20394" lon="5.0237">
        <ele>236</ele>
        <time>2019-09-28T05:55:09Z</time>
      </trkpt>
      <trkpt lat="44.20387" lon="5.02395">
        <ele>235</ele>
        <time>2019-09-28T05:55:19Z</time>
      </trkpt>
      <trkpt lat="44.20385" lon="5.02406">
        <ele>235</ele>
        <time>2019-09-28T05:55:23Z</time>
      </trkpt>
      <trkpt lat="44.20384" lon="5.02407">
        <ele>235</ele>
        <time>2019-09-28T05:55:24Z</time>
      </trkpt>
      <trkpt lat="44.20382" lon="5.02408">
        <ele>235</ele>
        <time>2019-09-28T05:55:25Z</time>
      </trkpt>
      <trkpt lat="44.20381" lon="5.02408">
        <ele>234</ele>
        <time>2019-09-28T05:55:26Z</time>
      </trkpt>
      <trkpt lat="44.20379" lon="5.02408">
        <ele>233</ele>
        <time>2019-09-28T05:55:27Z</time>
      </trkpt>
      <trkpt lat="44.20377" lon="5.02408">
        <ele>233</ele>
        <time>2019-09-28T05:55:28Z</time>
      </trkpt>
      <trkpt lat="44.20358" lon="5.02406">
        <ele>228</ele>
        <time>2019-09-28T05:55:37Z</time>
      </trkpt>
      <trkpt lat="44.20335" lon="5.02403">
        <ele>222</ele>
        <time>2019-09-28T05:55:48Z</time>
      </trkpt>
      <trkpt lat="44.20312" lon="5.02398">
        <ele>218</ele>
        <time>2019-09-28T05:55:58Z</time>
      </trkpt>
      <trkpt lat="44.20287" lon="5.02406">
        <ele>216</ele>
        <time>2019-09-28T05:56:09Z</time>
      </trkpt>
      <trkpt lat="44.20279" lon="5.02408">
        <ele>216</ele>
        <time>2019-09-28T05:56:14Z</time>
      </trkpt>
      <trkpt lat="44.20274" lon="5.02402">
        <ele>216</ele>
        <time>2019-09-28T05:56:18Z</time>
      </trkpt>
      <trkpt lat="44.20273" lon="5.024">
        <ele>216</ele>
        <time>2019-09-28T05:56:19Z</time>
      </trkpt>
      <trkpt lat="44.20272" lon="5.02398">
        <ele>216</ele>
        <time>2019-09-28T05:56:20Z</time>
      </trkpt>
      <trkpt lat="44.20271" lon="5.02395">
        <ele>216</ele>
        <time>2019-09-28T05:56:21Z</time>
      </trkpt>
      <trkpt lat="44.20269" lon="5.02393">
        <ele>216</ele>
        <time>2019-09-28T05:56:22Z</time>
      </trkpt>
      <trkpt lat="44.20268" lon="5.0239">
        <ele>216</ele>
        <time>2019-09-28T05:56:23Z</time>
      </trkpt>
      <trkpt lat="44.20267" lon="5.02387">
        <ele>216</ele>
        <time>2019-09-28T05:56:24Z</time>
      </trkpt>
      <trkpt lat="44.20265" lon="5.02385">
        <ele>216</ele>
        <time>2019-09-28T05:56:25Z</time>
      </trkpt>
      <trkpt lat="44.20264" lon="5.02382">
        <ele>216</ele>
        <time>2019-09-28T05:56:26Z</time>
      </trkpt>
      <trkpt lat="44.20263" lon="5.02379">
        <ele>216</ele>
        <time>2019-09-28T05:56:27Z</time>
      </trkpt>
      <trkpt lat="44.20246" lon="5.02352">
        <ele>215</ele>
        <time>2019-09-28T05:56:39Z</time>
      </trkpt>
      <trkpt lat="44.20235" lon="5.02348">
        <ele>217</ele>
        <time>2019-09-28T05:56:44Z</time>
      </trkpt>
      <trkpt lat="44.20217" lon="5.02355">
        <ele>222</ele>
        <time>2019-09-28T05:56:55Z</time>
      </trkpt>
      <trkpt lat="44.20197" lon="5.02366">
        <ele>227</ele>
        <time>2019-09-28T05:57:09Z</time>
      </trkpt>
      <trkpt lat="44.20189" lon="5.02367">
        <ele>228</ele>
        <time>2019-09-28T05:57:15Z</time>
      </trkpt>
      <trkpt lat="44.20169" lon="5.0237">
        <ele>229</ele>
        <time>2019-09-28T05:57:27Z</time>
      </trkpt>
      <trkpt lat="44.2015" lon="5.02372">
        <ele>231</ele>
        <time>2019-09-28T05:57:41Z</time>
      </trkpt>
      <trkpt lat="44.20131" lon="5.02371">
        <ele>231</ele>
        <time>2019-09-28T05:57:52Z</time>
      </trkpt>
      <trkpt lat="44.20117" lon="5.02369">
        <ele>231</ele>
        <time>2019-09-28T05:58:00Z</time>
      </trkpt>
      <trkpt lat="44.20115" lon="5.02368">
        <ele>231</ele>
        <time>2019-09-28T05:58:01Z</time>
      </trkpt>
      <trkpt lat="44.20114" lon="5.02367">
        <ele>231</ele>
        <time>2019-09-28T05:58:02Z</time>
      </trkpt>
      <trkpt lat="44.20112" lon="5.02366">
        <ele>231</ele>
        <time>2019-09-28T05:58:03Z</time>
      </trkpt>
      <trkpt lat="44.2011" lon="5.02365">
        <ele>231</ele>
        <time>2019-09-28T05:58:04Z</time>
      </trkpt>
      <trkpt lat="44.20093" lon="5.02358">
        <ele>230</ele>
        <time>2019-09-28T05:58:15Z</time>
      </trkpt>
      <trkpt lat="44.20091" lon="5.02359">
        <ele>231</ele>
        <time>2019-09-28T05:58:29Z</time>
      </trkpt>
      <trkpt lat="44.20089" lon="5.0236">
        <ele>231</ele>
        <time>2019-09-28T05:58:48Z</time>
      </trkpt>
      <trkpt lat="44.20087" lon="5.02358">
        <ele>231</ele>
        <time>2019-09-28T05:59:02Z</time>
      </trkpt>
      <trkpt lat="44.20086" lon="5.02356">
        <ele>230</ele>
        <time>2019-09-28T05:59:15Z</time>
      </trkpt>
      <trkpt lat="44.20085" lon="5.02355">
        <ele>230</ele>
        <time>2019-09-28T05:59:16Z</time>
      </trkpt>
      <trkpt lat="44.2008" lon="5.02352">
        <ele>230</ele>
        <time>2019-09-28T05:59:19Z</time>
      </trkpt>
      <trkpt lat="44.20079" lon="5.02351">
        <ele>230</ele>
        <time>2019-09-28T05:59:20Z</time>
      </trkpt>
      <trkpt lat="44.20077" lon="5.02351">
        <ele>230</ele>
        <time>2019-09-28T05:59:21Z</time>
      </trkpt>
      <trkpt lat="44.20075" lon="5.0235">
        <ele>230</ele>
        <time>2019-09-28T05:59:22Z</time>
      </trkpt>
      <trkpt lat="44.20069" lon="5.02347">
        <ele>231</ele>
        <time>2019-09-28T05:59:25Z</time>
      </trkpt>
      <trkpt lat="44.20064" lon="5.02345">
        <ele>231</ele>
        <time>2019-09-28T05:59:27Z</time>
      </trkpt>
      <trkpt lat="44.20062" lon="5.02344">
        <ele>231</ele>
        <time>2019-09-28T05:59:28Z</time>
      </trkpt>
      <trkpt lat="44.20055" lon="5.02341">
        <ele>230</ele>
        <time>2019-09-28T05:59:31Z</time>
      </trkpt>
      <trkpt lat="44.20051" lon="5.02339">
        <ele>230</ele>
        <time>2019-09-28T05:59:33Z</time>
      </trkpt>
      <trkpt lat="44.2005" lon="5.02338">
        <ele>230</ele>
        <time>2019-09-28T05:59:34Z</time>
      </trkpt>
      <trkpt lat="44.20048" lon="5.02337">
        <ele>230</ele>
        <time>2019-09-28T05:59:35Z</time>
      </trkpt>
      <trkpt lat="44.20021" lon="5.02322">
        <ele>229</ele>
        <time>2019-09-28T05:59:47Z</time>
      </trkpt>
      <trkpt lat="44.19995" lon="5.02312">
        <ele>229</ele>
        <time>2019-09-28T05:59:57Z</time>
      </trkpt>
      <trkpt lat="44.19972" lon="5.02302">
        <ele>229</ele>
        <time>2019-09-28T06:00:07Z</time>
      </trkpt>
      <trkpt lat="44.19947" lon="5.02297">
        <ele>230</ele>
        <time>2019-09-28T06:00:18Z</time>
      </trkpt>
      <trkpt lat="44.19925" lon="5.02301">
        <ele>231</ele>
        <time>2019-09-28T06:00:27Z</time>
      </trkpt>
      <trkpt lat="44.19898" lon="5.02304">
        <ele>232</ele>
        <time>2019-09-28T06:00:39Z</time>
      </trkpt>
      <trkpt lat="44.1988" lon="5.02311">
        <ele>234</ele>
        <time>2019-09-28T06:00:48Z</time>
      </trkpt>
      <trkpt lat="44.19861" lon="5.02318">
        <ele>235</ele>
        <time>2019-09-28T06:00:58Z</time>
      </trkpt>
      <trkpt lat="44.1984" lon="5.02318">
        <ele>234</ele>
        <time>2019-09-28T06:01:08Z</time>
      </trkpt>
      <trkpt lat="44.19817" lon="5.02322">
        <ele>235</ele>
        <time>2019-09-28T06:01:18Z</time>
      </trkpt>
      <trkpt lat="44.19792" lon="5.02322">
        <ele>234</ele>
        <time>2019-09-28T06:01:28Z</time>
      </trkpt>
      <trkpt lat="44.19764" lon="5.02331">
        <ele>235</ele>
        <time>2019-09-28T06:01:40Z</time>
      </trkpt>
      <trkpt lat="44.19744" lon="5.02338">
        <ele>234</ele>
        <time>2019-09-28T06:01:49Z</time>
      </trkpt>
      <trkpt lat="44.19719" lon="5.02343">
        <ele>233</ele>
        <time>2019-09-28T06:02:00Z</time>
      </trkpt>
      <trkpt lat="44.19699" lon="5.02339">
        <ele>230</ele>
        <time>2019-09-28T06:02:09Z</time>
      </trkpt>
      <trkpt lat="44.19668" lon="5.02338">
        <ele>229</ele>
        <time>2019-09-28T06:02:21Z</time>
      </trkpt>
      <trkpt lat="44.19644" lon="5.02343">
        <ele>228</ele>
        <time>2019-09-28T06:02:30Z</time>
      </trkpt>
      <trkpt lat="44.19622" lon="5.02347">
        <ele>227</ele>
        <time>2019-09-28T06:02:39Z</time>
      </trkpt>
      <trkpt lat="44.19595" lon="5.0235">
        <ele>227</ele>
        <time>2019-09-28T06:02:49Z</time>
      </trkpt>
      <trkpt lat="44.19571" lon="5.02352">
        <ele>226</ele>
        <time>2019-09-28T06:02:59Z</time>
      </trkpt>
      <trkpt lat="44.19539" lon="5.02351">
        <ele>226</ele>
        <time>2019-09-28T06:03:12Z</time>
      </trkpt>
      <trkpt lat="44.19511" lon="5.02345">
        <ele>226</ele>
        <time>2019-09-28T06:03:23Z</time>
      </trkpt>
      <trkpt lat="44.19475" lon="5.02339">
        <ele>229</ele>
        <time>2019-09-28T06:03:39Z</time>
      </trkpt>
      <trkpt lat="44.19456" lon="5.02336">
        <ele>232</ele>
        <time>2019-09-28T06:03:48Z</time>
      </trkpt>
      <trkpt lat="44.1943" lon="5.02323">
        <ele>235</ele>
        <time>2019-09-28T06:03:59Z</time>
      </trkpt>
      <trkpt lat="44.19402" lon="5.02306">
        <ele>238</ele>
        <time>2019-09-28T06:04:11Z</time>
      </trkpt>
      <trkpt lat="44.19382" lon="5.02294">
        <ele>239</ele>
        <time>2019-09-28T06:04:21Z</time>
      </trkpt>
      <trkpt lat="44.19361" lon="5.02285">
        <ele>239</ele>
        <time>2019-09-28T06:04:33Z</time>
      </trkpt>
      <trkpt lat="44.19337" lon="5.02279">
        <ele>239</ele>
        <time>2019-09-28T06:04:44Z</time>
      </trkpt>
      <trkpt lat="44.19318" lon="5.02276">
        <ele>240</ele>
        <time>2019-09-28T06:04:53Z</time>
      </trkpt>
      <trkpt lat="44.19295" lon="5.02268">
        <ele>239</ele>
        <time>2019-09-28T06:05:03Z</time>
      </trkpt>
      <trkpt lat="44.19272" lon="5.02261">
        <ele>239</ele>
        <time>2019-09-28T06:05:13Z</time>
      </trkpt>
      <trkpt lat="44.19272" lon="5.02263">
        <ele>240</ele>
        <time>2019-09-28T06:05:14Z</time>
      </trkpt>
      <trkpt lat="44.19273" lon="5.02283">
        <ele>243</ele>
        <time>2019-09-28T06:05:23Z</time>
      </trkpt>
      <trkpt lat="44.19274" lon="5.02294">
        <ele>245</ele>
        <time>2019-09-28T06:05:29Z</time>
      </trkpt>
      <trkpt lat="44.19273" lon="5.02298">
        <ele>246</ele>
        <time>2019-09-28T06:05:32Z</time>
      </trkpt>
      <trkpt lat="44.19273" lon="5.023">
        <ele>246</ele>
        <time>2019-09-28T06:05:33Z</time>
      </trkpt>
      <trkpt lat="44.1927" lon="5.0231">
        <ele>249</ele>
        <time>2019-09-28T06:05:39Z</time>
      </trkpt>
      <trkpt lat="44.19258" lon="5.02325">
        <ele>254</ele>
        <time>2019-09-28T06:05:49Z</time>
      </trkpt>
      <trkpt lat="44.19247" lon="5.02329">
        <ele>255</ele>
        <time>2019-09-28T06:05:59Z</time>
      </trkpt>
      <trkpt lat="44.19235" lon="5.02331">
        <ele>256</ele>
        <time>2019-09-28T06:06:10Z</time>
      </trkpt>
      <trkpt lat="44.19222" lon="5.02336">
        <ele>258</ele>
        <time>2019-09-28T06:06:20Z</time>
      </trkpt>
      <trkpt lat="44.1921" lon="5.02348">
        <ele>264</ele>
        <time>2019-09-28T06:06:29Z</time>
      </trkpt>
      <trkpt lat="44.19207" lon="5.02351">
        <ele>266</ele>
        <time>2019-09-28T06:06:32Z</time>
      </trkpt>
      <trkpt lat="44.192" lon="5.02357">
        <ele>268</ele>
        <time>2019-09-28T06:06:42Z</time>
      </trkpt>
      <trkpt lat="44.192" lon="5.02359">
        <ele>269</ele>
        <time>2019-09-28T06:06:43Z</time>
      </trkpt>
      <trkpt lat="44.19199" lon="5.02365">
        <ele>271</ele>
        <time>2019-09-28T06:06:50Z</time>
      </trkpt>
      <trkpt lat="44.192" lon="5.02366">
        <ele>271</ele>
        <time>2019-09-28T06:06:51Z</time>
      </trkpt>
      <trkpt lat="44.19203" lon="5.02369">
        <ele>272</ele>
        <time>2019-09-28T06:06:54Z</time>
      </trkpt>
      <trkpt lat="44.19208" lon="5.02375">
        <ele>274</ele>
        <time>2019-09-28T06:07:03Z</time>
      </trkpt>
      <trkpt lat="44.19217" lon="5.02384">
        <ele>277</ele>
        <time>2019-09-28T06:07:15Z</time>
      </trkpt>
      <trkpt lat="44.19219" lon="5.02385">
        <ele>278</ele>
        <time>2019-09-28T06:07:16Z</time>
      </trkpt>
      <trkpt lat="44.1922" lon="5.02386">
        <ele>278</ele>
        <time>2019-09-28T06:07:17Z</time>
      </trkpt>
      <trkpt lat="44.19226" lon="5.02394">
        <ele>280</ele>
        <time>2019-09-28T06:07:26Z</time>
      </trkpt>
      <trkpt lat="44.19226" lon="5.02395">
        <ele>281</ele>
        <time>2019-09-28T06:07:27Z</time>
      </trkpt>
      <trkpt lat="44.19228" lon="5.02401">
        <ele>282</ele>
        <time>2019-09-28T06:07:52Z</time>
      </trkpt>
      <trkpt lat="44.19229" lon="5.02405">
        <ele>283</ele>
        <time>2019-09-28T06:07:59Z</time>
      </trkpt>
      <trkpt lat="44.19225" lon="5.02412">
        <ele>285</ele>
        <time>2019-09-28T06:08:06Z</time>
      </trkpt>
      <trkpt lat="44.19224" lon="5.02422">
        <ele>288</ele>
        <time>2019-09-28T06:08:16Z</time>
      </trkpt>
      <trkpt lat="44.19226" lon="5.02424">
        <ele>288</ele>
        <time>2019-09-28T06:08:18Z</time>
      </trkpt>
      <trkpt lat="44.1923" lon="5.02425">
        <ele>289</ele>
        <time>2019-09-28T06:08:21Z</time>
      </trkpt>
      <trkpt lat="44.19233" lon="5.02428">
        <ele>289</ele>
        <time>2019-09-28T06:08:24Z</time>
      </trkpt>
      <trkpt lat="44.19253" lon="5.02443">
        <ele>293</ele>
        <time>2019-09-28T06:08:38Z</time>
      </trkpt>
      <trkpt lat="44.19255" lon="5.02442">
        <ele>293</ele>
        <time>2019-09-28T06:08:51Z</time>
      </trkpt>
      <trkpt lat="44.19257" lon="5.02443">
        <ele>293</ele>
        <time>2019-09-28T06:09:10Z</time>
      </trkpt>
      <trkpt lat="44.19267" lon="5.02448">
        <ele>293</ele>
        <time>2019-09-28T06:09:20Z</time>
      </trkpt>
      <trkpt lat="44.19285" lon="5.0245">
        <ele>292</ele>
        <time>2019-09-28T06:09:30Z</time>
      </trkpt>
      <trkpt lat="44.19291" lon="5.02458">
        <ele>293</ele>
        <time>2019-09-28T06:09:34Z</time>
      </trkpt>
      <trkpt lat="44.19298" lon="5.02481">
        <ele>296</ele>
        <time>2019-09-28T06:09:46Z</time>
      </trkpt>
      <trkpt lat="44.19305" lon="5.02499">
        <ele>299</ele>
        <time>2019-09-28T06:09:54Z</time>
      </trkpt>
      <trkpt lat="44.19315" lon="5.0251">
        <ele>300</ele>
        <time>2019-09-28T06:10:04Z</time>
      </trkpt>
      <trkpt lat="44.19316" lon="5.0251">
        <ele>300</ele>
        <time>2019-09-28T06:10:05Z</time>
      </trkpt>
      <trkpt lat="44.19326" lon="5.02522">
        <ele>302</ele>
        <time>2019-09-28T06:10:15Z</time>
      </trkpt>
      <trkpt lat="44.19334" lon="5.02531">
        <ele>304</ele>
        <time>2019-09-28T06:10:24Z</time>
      </trkpt>
      <trkpt lat="44.19347" lon="5.02539">
        <ele>304</ele>
        <time>2019-09-28T06:10:34Z</time>
      </trkpt>
      <trkpt lat="44.19353" lon="5.02551">
        <ele>307</ele>
        <time>2019-09-28T06:10:44Z</time>
      </trkpt>
      <trkpt lat="44.19347" lon="5.02555">
        <ele>309</ele>
        <time>2019-09-28T06:10:49Z</time>
      </trkpt>
      <trkpt lat="44.19333" lon="5.02571">
        <ele>313</ele>
        <time>2019-09-28T06:11:01Z</time>
      </trkpt>
      <trkpt lat="44.19313" lon="5.02583">
        <ele>317</ele>
        <time>2019-09-28T06:11:13Z</time>
      </trkpt>
      <trkpt lat="44.19299" lon="5.02584">
        <ele>318</ele>
        <time>2019-09-28T06:11:23Z</time>
      </trkpt>
      <trkpt lat="44.19276" lon="5.02579">
        <ele>319</ele>
        <time>2019-09-28T06:11:36Z</time>
      </trkpt>
      <trkpt lat="44.19258" lon="5.02577">
        <ele>320</ele>
        <time>2019-09-28T06:11:47Z</time>
      </trkpt>
      <trkpt lat="44.19239" lon="5.02563">
        <ele>320</ele>
        <time>2019-09-28T06:12:01Z</time>
      </trkpt>
      <trkpt lat="44.19227" lon="5.02551">
        <ele>320</ele>
        <time>2019-09-28T06:12:09Z</time>
      </trkpt>
      <trkpt lat="44.19211" lon="5.02538">
        <ele>321</ele>
        <time>2019-09-28T06:12:19Z</time>
      </trkpt>
      <trkpt lat="44.19192" lon="5.02537">
        <ele>325</ele>
        <time>2019-09-28T06:12:31Z</time>
      </trkpt>
      <trkpt lat="44.1919" lon="5.02544">
        <ele>327</ele>
        <time>2019-09-28T06:12:34Z</time>
      </trkpt>
      <trkpt lat="44.19182" lon="5.02562">
        <ele>333</ele>
        <time>2019-09-28T06:12:44Z</time>
      </trkpt>
      <trkpt lat="44.19181" lon="5.02565">
        <ele>334</ele>
        <time>2019-09-28T06:12:46Z</time>
      </trkpt>
      <trkpt lat="44.1919" lon="5.0258">
        <ele>335</ele>
        <time>2019-09-28T06:12:59Z</time>
      </trkpt>
      <trkpt lat="44.19203" lon="5.02595">
        <ele>335</ele>
        <time>2019-09-28T06:13:11Z</time>
      </trkpt>
      <trkpt lat="44.19208" lon="5.02602">
        <ele>336</ele>
        <time>2019-09-28T06:13:16Z</time>
      </trkpt>
      <trkpt lat="44.19218" lon="5.02617">
        <ele>338</ele>
        <time>2019-09-28T06:13:26Z</time>
      </trkpt>
      <trkpt lat="44.19218" lon="5.02629">
        <ele>342</ele>
        <time>2019-09-28T06:13:37Z</time>
      </trkpt>
      <trkpt lat="44.1921" lon="5.02635">
        <ele>346</ele>
        <time>2019-09-28T06:13:48Z</time>
      </trkpt>
      <trkpt lat="44.19193" lon="5.02636">
        <ele>350</ele>
        <time>2019-09-28T06:14:30Z</time>
      </trkpt>
      <trkpt lat="44.1919" lon="5.02636">
        <ele>351</ele>
        <time>2019-09-28T06:14:33Z</time>
      </trkpt>
      <trkpt lat="44.19178" lon="5.02646">
        <ele>358</ele>
        <time>2019-09-28T06:14:43Z</time>
      </trkpt>
      <trkpt lat="44.19176" lon="5.02646">
        <ele>358</ele>
        <time>2019-09-28T06:14:44Z</time>
      </trkpt>
      <trkpt lat="44.19161" lon="5.02649">
        <ele>363</ele>
        <time>2019-09-28T06:14:54Z</time>
      </trkpt>
      <trkpt lat="44.19151" lon="5.02649">
        <ele>365</ele>
        <time>2019-09-28T06:15:03Z</time>
      </trkpt>
      <trkpt lat="44.1915" lon="5.0265">
        <ele>365</ele>
        <time>2019-09-28T06:15:04Z</time>
      </trkpt>
      <trkpt lat="44.19135" lon="5.02661">
        <ele>372</ele>
        <time>2019-09-28T06:15:16Z</time>
      </trkpt>
      <trkpt lat="44.19132" lon="5.02662">
        <ele>373</ele>
        <time>2019-09-28T06:15:20Z</time>
      </trkpt>
      <trkpt lat="44.19121" lon="5.02665">
        <ele>375</ele>
        <time>2019-09-28T06:15:32Z</time>
      </trkpt>
      <trkpt lat="44.19112" lon="5.02665">
        <ele>376</ele>
        <time>2019-09-28T06:15:40Z</time>
      </trkpt>
      <trkpt lat="44.19107" lon="5.02665">
        <ele>377</ele>
        <time>2019-09-28T06:15:44Z</time>
      </trkpt>
      <trkpt lat="44.19095" lon="5.02671">
        <ele>380</ele>
        <time>2019-09-28T06:15:56Z</time>
      </trkpt>
      <trkpt lat="44.19094" lon="5.02672">
        <ele>380</ele>
        <time>2019-09-28T06:15:57Z</time>
      </trkpt>
      <trkpt lat="44.19087" lon="5.02677">
        <ele>382</ele>
        <time>2019-09-28T06:16:03Z</time>
      </trkpt>
      <trkpt lat="44.19084" lon="5.02678">
        <ele>383</ele>
        <time>2019-09-28T06:16:05Z</time>
      </trkpt>
      <trkpt lat="44.19068" lon="5.0269">
        <ele>387</ele>
        <time>2019-09-28T06:16:20Z</time>
      </trkpt>
      <trkpt lat="44.19057" lon="5.02698">
        <ele>389</ele>
        <time>2019-09-28T06:16:30Z</time>
      </trkpt>
      <trkpt lat="44.19041" lon="5.02716">
        <ele>392</ele>
        <time>2019-09-28T06:16:46Z</time>
      </trkpt>
      <trkpt lat="44.1904" lon="5.02717">
        <ele>392</ele>
        <time>2019-09-28T06:16:48Z</time>
      </trkpt>
      <trkpt lat="44.19034" lon="5.02727">
        <ele>395</ele>
        <time>2019-09-28T06:16:58Z</time>
      </trkpt>
      <trkpt lat="44.19029" lon="5.02732">
        <ele>396</ele>
        <time>2019-09-28T06:17:11Z</time>
      </trkpt>
      <trkpt lat="44.19027" lon="5.02733">
        <ele>396</ele>
        <time>2019-09-28T06:17:29Z</time>
      </trkpt>
      <trkpt lat="44.19022" lon="5.02743">
        <ele>399</ele>
        <time>2019-09-28T06:17:38Z</time>
      </trkpt>
      <trkpt lat="44.19016" lon="5.02752">
        <ele>401</ele>
        <time>2019-09-28T06:17:47Z</time>
      </trkpt>
      <trkpt lat="44.19009" lon="5.02758">
        <ele>401</ele>
        <time>2019-09-28T06:17:52Z</time>
      </trkpt>
      <trkpt lat="44.19007" lon="5.0276">
        <ele>401</ele>
        <time>2019-09-28T06:17:53Z</time>
      </trkpt>
      <trkpt lat="44.19006" lon="5.02761">
        <ele>401</ele>
        <time>2019-09-28T06:17:54Z</time>
      </trkpt>
      <trkpt lat="44.19003" lon="5.02772">
        <ele>403</ele>
        <time>2019-09-28T06:18:00Z</time>
      </trkpt>
      <trkpt lat="44.19002" lon="5.02775">
        <ele>403</ele>
        <time>2019-09-28T06:18:02Z</time>
      </trkpt>
      <trkpt lat="44.18999" lon="5.02783">
        <ele>403</ele>
        <time>2019-09-28T06:18:09Z</time>
      </trkpt>
      <trkpt lat="44.18997" lon="5.02783">
        <ele>403</ele>
        <time>2019-09-28T06:18:10Z</time>
      </trkpt>
      <trkpt lat="44.18996" lon="5.02783">
        <ele>403</ele>
        <time>2019-09-28T06:18:11Z</time>
      </trkpt>
      <trkpt lat="44.18994" lon="5.02783">
        <ele>403</ele>
        <time>2019-09-28T06:18:12Z</time>
      </trkpt>
      <trkpt lat="44.18993" lon="5.02783">
        <ele>403</ele>
        <time>2019-09-28T06:18:13Z</time>
      </trkpt>
      <trkpt lat="44.18991" lon="5.02783">
        <ele>403</ele>
        <time>2019-09-28T06:18:14Z</time>
      </trkpt>
      <trkpt lat="44.18979" lon="5.02781">
        <ele>402</ele>
        <time>2019-09-28T06:18:20Z</time>
      </trkpt>
      <trkpt lat="44.18957" lon="5.02785">
        <ele>400</ele>
        <time>2019-09-28T06:18:30Z</time>
      </trkpt>
      <trkpt lat="44.18939" lon="5.02796">
        <ele>397</ele>
        <time>2019-09-28T06:18:39Z</time>
      </trkpt>
      <trkpt lat="44.18938" lon="5.02796">
        <ele>396</ele>
        <time>2019-09-28T06:18:40Z</time>
      </trkpt>
      <trkpt lat="44.18936" lon="5.02794">
        <ele>396</ele>
        <time>2019-09-28T06:18:41Z</time>
      </trkpt>
      <trkpt lat="44.18928" lon="5.02778">
        <ele>394</ele>
        <time>2019-09-28T06:18:48Z</time>
      </trkpt>
      <trkpt lat="44.18918" lon="5.02763">
        <ele>391</ele>
        <time>2019-09-28T06:18:55Z</time>
      </trkpt>
      <trkpt lat="44.18894" lon="5.02755">
        <ele>385</ele>
        <time>2019-09-28T06:19:06Z</time>
      </trkpt>
      <trkpt lat="44.18872" lon="5.0275">
        <ele>385</ele>
        <time>2019-09-28T06:19:16Z</time>
      </trkpt>
      <trkpt lat="44.18849" lon="5.02753">
        <ele>387</ele>
        <time>2019-09-28T06:19:27Z</time>
      </trkpt>
      <trkpt lat="44.18827" lon="5.0276">
        <ele>386</ele>
        <time>2019-09-28T06:19:38Z</time>
      </trkpt>
      <trkpt lat="44.18806" lon="5.02763">
        <ele>384</ele>
        <time>2019-09-28T06:19:48Z</time>
      </trkpt>
      <trkpt lat="44.18781" lon="5.0276">
        <ele>382</ele>
        <time>2019-09-28T06:20:00Z</time>
      </trkpt>
      <trkpt lat="44.18767" lon="5.02755">
        <ele>381</ele>
        <time>2019-09-28T06:20:08Z</time>
      </trkpt>
      <trkpt lat="44.18755" lon="5.0274">
        <ele>380</ele>
        <time>2019-09-28T06:20:16Z</time>
      </trkpt>
      <trkpt lat="44.1874" lon="5.02728">
        <ele>378</ele>
        <time>2019-09-28T06:20:22Z</time>
      </trkpt>
      <trkpt lat="44.18714" lon="5.02711">
        <ele>373</ele>
        <time>2019-09-28T06:20:32Z</time>
      </trkpt>
      <trkpt lat="44.18693" lon="5.02676">
        <ele>370</ele>
        <time>2019-09-28T06:20:43Z</time>
      </trkpt>
      <trkpt lat="44.1867" lon="5.02653">
        <ele>369</ele>
        <time>2019-09-28T06:20:53Z</time>
      </trkpt>
      <trkpt lat="44.18645" lon="5.02641">
        <ele>367</ele>
        <time>2019-09-28T06:21:03Z</time>
      </trkpt>
      <trkpt lat="44.18623" lon="5.02643">
        <ele>364</ele>
        <time>2019-09-28T06:21:11Z</time>
      </trkpt>
      <trkpt lat="44.18622" lon="5.02651">
        <ele>363</ele>
        <time>2019-09-28T06:21:14Z</time>
      </trkpt>
      <trkpt lat="44.18622" lon="5.02654">
        <ele>363</ele>
        <time>2019-09-28T06:21:15Z</time>
      </trkpt>
      <trkpt lat="44.18633" lon="5.02675">
        <ele>364</ele>
        <time>2019-09-28T06:21:23Z</time>
      </trkpt>
      <trkpt lat="44.18655" lon="5.02703">
        <ele>363</ele>
        <time>2019-09-28T06:21:34Z</time>
      </trkpt>
      <trkpt lat="44.18666" lon="5.02732">
        <ele>359</ele>
        <time>2019-09-28T06:21:43Z</time>
      </trkpt>
      <trkpt lat="44.18681" lon="5.02762">
        <ele>355</ele>
        <time>2019-09-28T06:21:52Z</time>
      </trkpt>
      <trkpt lat="44.1869" lon="5.02771">
        <ele>357</ele>
        <time>2019-09-28T06:21:56Z</time>
      </trkpt>
      <trkpt lat="44.187" lon="5.02795">
        <ele>355</ele>
        <time>2019-09-28T06:22:04Z</time>
      </trkpt>
      <trkpt lat="44.187" lon="5.02827">
        <ele>349</ele>
        <time>2019-09-28T06:22:12Z</time>
      </trkpt>
      <trkpt lat="44.18703" lon="5.02859">
        <ele>343</ele>
        <time>2019-09-28T06:22:20Z</time>
      </trkpt>
      <trkpt lat="44.18719" lon="5.02881">
        <ele>340</ele>
        <time>2019-09-28T06:22:28Z</time>
      </trkpt>
      <trkpt lat="44.18738" lon="5.02898">
        <ele>339</ele>
        <time>2019-09-28T06:22:36Z</time>
      </trkpt>
      <trkpt lat="44.18761" lon="5.02916">
        <ele>336</ele>
        <time>2019-09-28T06:22:47Z</time>
      </trkpt>
      <trkpt lat="44.18802" lon="5.02927">
        <ele>334</ele>
        <time>2019-09-28T06:23:01Z</time>
      </trkpt>
      <trkpt lat="44.18841" lon="5.02938">
        <ele>332</ele>
        <time>2019-09-28T06:23:15Z</time>
      </trkpt>
      <trkpt lat="44.18854" lon="5.02953">
        <ele>331</ele>
        <time>2019-09-28T06:23:20Z</time>
      </trkpt>
      <trkpt lat="44.18855" lon="5.02955">
        <ele>330</ele>
        <time>2019-09-28T06:23:21Z</time>
      </trkpt>
      <trkpt lat="44.18857" lon="5.02958">
        <ele>330</ele>
        <time>2019-09-28T06:23:22Z</time>
      </trkpt>
      <trkpt lat="44.18859" lon="5.02961">
        <ele>329</ele>
        <time>2019-09-28T06:23:23Z</time>
      </trkpt>
      <trkpt lat="44.1886" lon="5.02964">
        <ele>329</ele>
        <time>2019-09-28T06:23:24Z</time>
      </trkpt>
      <trkpt lat="44.18875" lon="5.0299">
        <ele>326</ele>
        <time>2019-09-28T06:23:34Z</time>
      </trkpt>
      <trkpt lat="44.189" lon="5.03001">
        <ele>326</ele>
        <time>2019-09-28T06:23:45Z</time>
      </trkpt>
      <trkpt lat="44.18931" lon="5.03013">
        <ele>326</ele>
        <time>2019-09-28T06:23:55Z</time>
      </trkpt>
      <trkpt lat="44.18952" lon="5.03037">
        <ele>325</ele>
        <time>2019-09-28T06:24:04Z</time>
      </trkpt>
      <trkpt lat="44.18976" lon="5.03054">
        <ele>327</ele>
        <time>2019-09-28T06:24:16Z</time>
      </trkpt>
      <trkpt lat="44.18994" lon="5.03064">
        <ele>328</ele>
        <time>2019-09-28T06:24:25Z</time>
      </trkpt>
      <trkpt lat="44.19016" lon="5.03072">
        <ele>329</ele>
        <time>2019-09-28T06:24:36Z</time>
      </trkpt>
      <trkpt lat="44.19043" lon="5.03066">
        <ele>331</ele>
        <time>2019-09-28T06:24:50Z</time>
      </trkpt>
      <trkpt lat="44.19061" lon="5.03054">
        <ele>332</ele>
        <time>2019-09-28T06:24:59Z</time>
      </trkpt>
      <trkpt lat="44.19063" lon="5.03054">
        <ele>332</ele>
        <time>2019-09-28T06:25:00Z</time>
      </trkpt>
      <trkpt lat="44.19065" lon="5.03055">
        <ele>333</ele>
        <time>2019-09-28T06:25:01Z</time>
      </trkpt>
      <trkpt lat="44.19066" lon="5.03057">
        <ele>333</ele>
        <time>2019-09-28T06:25:02Z</time>
      </trkpt>
      <trkpt lat="44.19067" lon="5.03059">
        <ele>334</ele>
        <time>2019-09-28T06:25:03Z</time>
      </trkpt>
      <trkpt lat="44.19067" lon="5.03062">
        <ele>335</ele>
        <time>2019-09-28T06:25:04Z</time>
      </trkpt>
      <trkpt lat="44.19066" lon="5.03064">
        <ele>335</ele>
        <time>2019-09-28T06:25:05Z</time>
      </trkpt>
      <trkpt lat="44.19065" lon="5.03066">
        <ele>335</ele>
        <time>2019-09-28T06:25:06Z</time>
      </trkpt>
      <trkpt lat="44.19063" lon="5.03068">
        <ele>334</ele>
        <time>2019-09-28T06:25:07Z</time>
      </trkpt>
      <trkpt lat="44.19062" lon="5.03069">
        <ele>334</ele>
        <time>2019-09-28T06:25:08Z</time>
      </trkpt>
      <trkpt lat="44.19041" lon="5.03083">
        <ele>331</ele>
        <time>2019-09-28T06:25:18Z</time>
      </trkpt>
      <trkpt lat="44.19017" lon="5.03097">
        <ele>329</ele>
        <time>2019-09-28T06:25:28Z</time>
      </trkpt>
      <trkpt lat="44.18991" lon="5.03099">
        <ele>325</ele>
        <time>2019-09-28T06:25:38Z</time>
      </trkpt>
      <trkpt lat="44.1897" lon="5.03092">
        <ele>322</ele>
        <time>2019-09-28T06:25:46Z</time>
      </trkpt>
      <trkpt lat="44.18948" lon="5.0308">
        <ele>318</ele>
        <time>2019-09-28T06:25:55Z</time>
      </trkpt>
      <trkpt lat="44.18928" lon="5.03065">
        <ele>314</ele>
        <time>2019-09-28T06:26:03Z</time>
      </trkpt>
      <trkpt lat="44.18924" lon="5.03067">
        <ele>313</ele>
        <time>2019-09-28T06:26:05Z</time>
      </trkpt>
      <trkpt lat="44.18924" lon="5.0307">
        <ele>313</ele>
        <time>2019-09-28T06:26:06Z</time>
      </trkpt>
      <trkpt lat="44.18925" lon="5.03075">
        <ele>312</ele>
        <time>2019-09-28T06:26:08Z</time>
      </trkpt>
      <trkpt lat="44.18927" lon="5.03076">
        <ele>313</ele>
        <time>2019-09-28T06:26:09Z</time>
      </trkpt>
      <trkpt lat="44.18929" lon="5.03078">
        <ele>313</ele>
        <time>2019-09-28T06:26:10Z</time>
      </trkpt>
      <trkpt lat="44.18933" lon="5.03079">
        <ele>314</ele>
        <time>2019-09-28T06:26:11Z</time>
      </trkpt>
      <trkpt lat="44.18935" lon="5.0308">
        <ele>315</ele>
        <time>2019-09-28T06:26:12Z</time>
      </trkpt>
      <trkpt lat="44.18937" lon="5.03082">
        <ele>315</ele>
        <time>2019-09-28T06:26:13Z</time>
      </trkpt>
      <trkpt lat="44.1896" lon="5.03103">
        <ele>318</ele>
        <time>2019-09-28T06:26:23Z</time>
      </trkpt>
      <trkpt lat="44.18975" lon="5.03134">
        <ele>319</ele>
        <time>2019-09-28T06:26:32Z</time>
      </trkpt>
      <trkpt lat="44.18975" lon="5.03137">
        <ele>319</ele>
        <time>2019-09-28T06:26:33Z</time>
      </trkpt>
      <trkpt lat="44.18974" lon="5.03144">
        <ele>319</ele>
        <time>2019-09-28T06:26:35Z</time>
      </trkpt>
      <trkpt lat="44.18972" lon="5.03146">
        <ele>318</ele>
        <time>2019-09-28T06:26:36Z</time>
      </trkpt>
      <trkpt lat="44.1897" lon="5.03147">
        <ele>318</ele>
        <time>2019-09-28T06:26:37Z</time>
      </trkpt>
      <trkpt lat="44.18968" lon="5.03149">
        <ele>317</ele>
        <time>2019-09-28T06:26:38Z</time>
      </trkpt>
      <trkpt lat="44.18966" lon="5.0315">
        <ele>316</ele>
        <time>2019-09-28T06:26:39Z</time>
      </trkpt>
      <trkpt lat="44.18952" lon="5.03155">
        <ele>312</ele>
        <time>2019-09-28T06:26:46Z</time>
      </trkpt>
      <trkpt lat="44.18935" lon="5.03169">
        <ele>304</ele>
        <time>2019-09-28T06:26:54Z</time>
      </trkpt>
      <trkpt lat="44.1892" lon="5.0318">
        <ele>297</ele>
        <time>2019-09-28T06:27:01Z</time>
      </trkpt>
      <trkpt lat="44.18911" lon="5.03183">
        <ele>293</ele>
        <time>2019-09-28T06:27:05Z</time>
      </trkpt>
      <trkpt lat="44.18909" lon="5.03185">
        <ele>292</ele>
        <time>2019-09-28T06:27:06Z</time>
      </trkpt>
      <trkpt lat="44.18908" lon="5.03186">
        <ele>292</ele>
        <time>2019-09-28T06:27:07Z</time>
      </trkpt>
      <trkpt lat="44.18907" lon="5.0319">
        <ele>290</ele>
        <time>2019-09-28T06:27:11Z</time>
      </trkpt>
      <trkpt lat="44.18917" lon="5.03219">
        <ele>289</ele>
        <time>2019-09-28T06:27:19Z</time>
      </trkpt>
      <trkpt lat="44.18931" lon="5.03255">
        <ele>288</ele>
        <time>2019-09-28T06:27:29Z</time>
      </trkpt>
      <trkpt lat="44.18946" lon="5.03281">
        <ele>288</ele>
        <time>2019-09-28T06:27:39Z</time>
      </trkpt>
      <trkpt lat="44.18961" lon="5.03307">
        <ele>288</ele>
        <time>2019-09-28T06:27:49Z</time>
      </trkpt>
      <trkpt lat="44.18965" lon="5.03343">
        <ele>285</ele>
        <time>2019-09-28T06:28:00Z</time>
      </trkpt>
      <trkpt lat="44.18969" lon="5.03388">
        <ele>281</ele>
        <time>2019-09-28T06:28:12Z</time>
      </trkpt>
      <trkpt lat="44.18977" lon="5.03431">
        <ele>278</ele>
        <time>2019-09-28T06:28:24Z</time>
      </trkpt>
      <trkpt lat="44.1899" lon="5.03469">
        <ele>279</ele>
        <time>2019-09-28T06:28:35Z</time>
      </trkpt>
      <trkpt lat="44.19001" lon="5.03502">
        <ele>279</ele>
        <time>2019-09-28T06:28:44Z</time>
      </trkpt>
      <trkpt lat="44.19014" lon="5.03538">
        <ele>280</ele>
        <time>2019-09-28T06:28:55Z</time>
      </trkpt>
      <trkpt lat="44.19017" lon="5.03566">
        <ele>280</ele>
        <time>2019-09-28T06:29:04Z</time>
      </trkpt>
      <trkpt lat="44.19019" lon="5.03588">
        <ele>281</ele>
        <time>2019-09-28T06:29:14Z</time>
      </trkpt>
      <trkpt lat="44.19028" lon="5.03609">
        <ele>282</ele>
        <time>2019-09-28T06:29:24Z</time>
      </trkpt>
      <trkpt lat="44.19032" lon="5.03626">
        <ele>283</ele>
        <time>2019-09-28T06:29:32Z</time>
      </trkpt>
      <trkpt lat="44.19035" lon="5.03644">
        <ele>284</ele>
        <time>2019-09-28T06:29:39Z</time>
      </trkpt>
      <trkpt lat="44.19035" lon="5.03652">
        <ele>285</ele>
        <time>2019-09-28T06:29:44Z</time>
      </trkpt>
      <trkpt lat="44.19044" lon="5.03675">
        <ele>286</ele>
        <time>2019-09-28T06:29:54Z</time>
      </trkpt>
      <trkpt lat="44.19047" lon="5.03699">
        <ele>289</ele>
        <time>2019-09-28T06:30:04Z</time>
      </trkpt>
      <trkpt lat="44.19045" lon="5.03716">
        <ele>292</ele>
        <time>2019-09-28T06:30:12Z</time>
      </trkpt>
      <trkpt lat="44.19044" lon="5.03736">
        <ele>295</ele>
        <time>2019-09-28T06:30:21Z</time>
      </trkpt>
      <trkpt lat="44.19044" lon="5.03756">
        <ele>298</ele>
        <time>2019-09-28T06:30:30Z</time>
      </trkpt>
      <trkpt lat="44.19046" lon="5.03777">
        <ele>300</ele>
        <time>2019-09-28T06:30:40Z</time>
      </trkpt>
      <trkpt lat="44.19046" lon="5.03792">
        <ele>300</ele>
        <time>2019-09-28T06:30:49Z</time>
      </trkpt>
      <trkpt lat="44.19049" lon="5.03815">
        <ele>300</ele>
        <time>2019-09-28T06:30:59Z</time>
      </trkpt>
      <trkpt lat="44.19051" lon="5.0383">
        <ele>300</ele>
        <time>2019-09-28T06:31:06Z</time>
      </trkpt>
      <trkpt lat="44.19046" lon="5.03856">
        <ele>301</ele>
        <time>2019-09-28T06:31:14Z</time>
      </trkpt>
      <trkpt lat="44.19036" lon="5.03882">
        <ele>304</ele>
        <time>2019-09-28T06:31:24Z</time>
      </trkpt>
      <trkpt lat="44.19032" lon="5.03892">
        <ele>305</ele>
        <time>2019-09-28T06:31:28Z</time>
      </trkpt>
      <trkpt lat="44.19022" lon="5.03914">
        <ele>307</ele>
        <time>2019-09-28T06:31:38Z</time>
      </trkpt>
      <trkpt lat="44.19012" lon="5.03919">
        <ele>308</ele>
        <time>2019-09-28T06:31:45Z</time>
      </trkpt>
      <trkpt lat="44.18999" lon="5.03923">
        <ele>308</ele>
        <time>2019-09-28T06:31:53Z</time>
      </trkpt>
      <trkpt lat="44.18988" lon="5.03935">
        <ele>309</ele>
        <time>2019-09-28T06:32:01Z</time>
      </trkpt>
      <trkpt lat="44.18987" lon="5.03938">
        <ele>309</ele>
        <time>2019-09-28T06:32:02Z</time>
      </trkpt>
      <trkpt lat="44.18987" lon="5.03939">
        <ele>309</ele>
        <time>2019-09-28T06:32:03Z</time>
      </trkpt>
      <trkpt lat="44.1898" lon="5.03965">
        <ele>310</ele>
        <time>2019-09-28T06:32:13Z</time>
      </trkpt>
      <trkpt lat="44.18979" lon="5.03988">
        <ele>309</ele>
        <time>2019-09-28T06:32:23Z</time>
      </trkpt>
      <trkpt lat="44.18988" lon="5.04002">
        <ele>310</ele>
        <time>2019-09-28T06:32:32Z</time>
      </trkpt>
      <trkpt lat="44.1899" lon="5.04002">
        <ele>310</ele>
        <time>2019-09-28T06:32:33Z</time>
      </trkpt>
      <trkpt lat="44.18992" lon="5.04003">
        <ele>310</ele>
        <time>2019-09-28T06:32:34Z</time>
      </trkpt>
      <trkpt lat="44.18994" lon="5.04004">
        <ele>310</ele>
        <time>2019-09-28T06:32:35Z</time>
      </trkpt>
      <trkpt lat="44.18996" lon="5.04005">
        <ele>310</ele>
        <time>2019-09-28T06:32:36Z</time>
      </trkpt>
      <trkpt lat="44.19013" lon="5.04013">
        <ele>311</ele>
        <time>2019-09-28T06:32:47Z</time>
      </trkpt>
      <trkpt lat="44.19028" lon="5.04015">
        <ele>312</ele>
        <time>2019-09-28T06:32:56Z</time>
      </trkpt>
      <trkpt lat="44.19029" lon="5.04016">
        <ele>312</ele>
        <time>2019-09-28T06:32:57Z</time>
      </trkpt>
      <trkpt lat="44.19031" lon="5.04018">
        <ele>313</ele>
        <time>2019-09-28T06:32:58Z</time>
      </trkpt>
      <trkpt lat="44.19032" lon="5.0402">
        <ele>313</ele>
        <time>2019-09-28T06:32:59Z</time>
      </trkpt>
      <trkpt lat="44.19033" lon="5.04021">
        <ele>313</ele>
        <time>2019-09-28T06:33:00Z</time>
      </trkpt>
      <trkpt lat="44.19035" lon="5.04023">
        <ele>313</ele>
        <time>2019-09-28T06:33:01Z</time>
      </trkpt>
      <trkpt lat="44.19036" lon="5.04024">
        <ele>314</ele>
        <time>2019-09-28T06:33:02Z</time>
      </trkpt>
      <trkpt lat="44.19051" lon="5.04038">
        <ele>316</ele>
        <time>2019-09-28T06:33:14Z</time>
      </trkpt>
      <trkpt lat="44.19062" lon="5.04049">
        <ele>318</ele>
        <time>2019-09-28T06:33:24Z</time>
      </trkpt>
      <trkpt lat="44.19077" lon="5.04064">
        <ele>320</ele>
        <time>2019-09-28T06:33:35Z</time>
      </trkpt>
      <trkpt lat="44.19092" lon="5.0408">
        <ele>320</ele>
        <time>2019-09-28T06:33:46Z</time>
      </trkpt>
      <trkpt lat="44.19103" lon="5.041">
        <ele>320</ele>
        <time>2019-09-28T06:33:56Z</time>
      </trkpt>
      <trkpt lat="44.19113" lon="5.0412">
        <ele>320</ele>
        <time>2019-09-28T06:34:05Z</time>
      </trkpt>
      <trkpt lat="44.19125" lon="5.04141">
        <ele>323</ele>
        <time>2019-09-28T06:34:14Z</time>
      </trkpt>
      <trkpt lat="44.19136" lon="5.04164">
        <ele>326</ele>
        <time>2019-09-28T06:34:24Z</time>
      </trkpt>
      <trkpt lat="44.19141" lon="5.04197">
        <ele>329</ele>
        <time>2019-09-28T06:34:35Z</time>
      </trkpt>
      <trkpt lat="44.19138" lon="5.04222">
        <ele>330</ele>
        <time>2019-09-28T06:34:44Z</time>
      </trkpt>
      <trkpt lat="44.19137" lon="5.0425">
        <ele>331</ele>
        <time>2019-09-28T06:34:53Z</time>
      </trkpt>
      <trkpt lat="44.19137" lon="5.04253">
        <ele>331</ele>
        <time>2019-09-28T06:34:54Z</time>
      </trkpt>
      <trkpt lat="44.19136" lon="5.04257">
        <ele>331</ele>
        <time>2019-09-28T06:34:55Z</time>
      </trkpt>
      <trkpt lat="44.19127" lon="5.04288">
        <ele>331</ele>
        <time>2019-09-28T06:35:06Z</time>
      </trkpt>
      <trkpt lat="44.19119" lon="5.04318">
        <ele>331</ele>
        <time>2019-09-28T06:35:16Z</time>
      </trkpt>
      <trkpt lat="44.19108" lon="5.04341">
        <ele>330</ele>
        <time>2019-09-28T06:35:26Z</time>
      </trkpt>
      <trkpt lat="44.19105" lon="5.04354">
        <ele>331</ele>
        <time>2019-09-28T06:35:31Z</time>
      </trkpt>
      <trkpt lat="44.19096" lon="5.04381">
        <ele>330</ele>
        <time>2019-09-28T06:35:42Z</time>
      </trkpt>
      <trkpt lat="44.19086" lon="5.04415">
        <ele>328</ele>
        <time>2019-09-28T06:35:56Z</time>
      </trkpt>
      <trkpt lat="44.19085" lon="5.04441">
        <ele>328</ele>
        <time>2019-09-28T06:36:07Z</time>
      </trkpt>
      <trkpt lat="44.19088" lon="5.04467">
        <ele>331</ele>
        <time>2019-09-28T06:36:17Z</time>
      </trkpt>
      <trkpt lat="44.19091" lon="5.04499">
        <ele>335</ele>
        <time>2019-09-28T06:36:29Z</time>
      </trkpt>
      <trkpt lat="44.19096" lon="5.04528">
        <ele>338</ele>
        <time>2019-09-28T06:36:40Z</time>
      </trkpt>
      <trkpt lat="44.19099" lon="5.04562">
        <ele>341</ele>
        <time>2019-09-28T06:36:52Z</time>
      </trkpt>
      <trkpt lat="44.19098" lon="5.04595">
        <ele>340</ele>
        <time>2019-09-28T06:37:05Z</time>
      </trkpt>
      <trkpt lat="44.19094" lon="5.0463">
        <ele>339</ele>
        <time>2019-09-28T06:37:17Z</time>
      </trkpt>
      <trkpt lat="44.19091" lon="5.04658">
        <ele>341</ele>
        <time>2019-09-28T06:37:28Z</time>
      </trkpt>
      <trkpt lat="44.19079" lon="5.04684">
        <ele>340</ele>
        <time>2019-09-28T06:37:39Z</time>
      </trkpt>
      <trkpt lat="44.19062" lon="5.04713">
        <ele>339</ele>
        <time>2019-09-28T06:37:51Z</time>
      </trkpt>
      <trkpt lat="44.1905" lon="5.04732">
        <ele>339</ele>
        <time>2019-09-28T06:38:01Z</time>
      </trkpt>
      <trkpt lat="44.19047" lon="5.0474">
        <ele>339</ele>
        <time>2019-09-28T06:38:05Z</time>
      </trkpt>
      <trkpt lat="44.19046" lon="5.04742">
        <ele>340</ele>
        <time>2019-09-28T06:38:06Z</time>
      </trkpt>
      <trkpt lat="44.19046" lon="5.04745">
        <ele>340</ele>
        <time>2019-09-28T06:38:07Z</time>
      </trkpt>
      <trkpt lat="44.19039" lon="5.04774">
        <ele>341</ele>
        <time>2019-09-28T06:38:19Z</time>
      </trkpt>
      <trkpt lat="44.19045" lon="5.04792">
        <ele>344</ele>
        <time>2019-09-28T06:38:29Z</time>
      </trkpt>
      <trkpt lat="44.19056" lon="5.04811">
        <ele>347</ele>
        <time>2019-09-28T06:38:40Z</time>
      </trkpt>
      <trkpt lat="44.1907" lon="5.04825">
        <ele>349</ele>
        <time>2019-09-28T06:38:50Z</time>
      </trkpt>
      <trkpt lat="44.19085" lon="5.04839">
        <ele>351</ele>
        <time>2019-09-28T06:39:01Z</time>
      </trkpt>
      <trkpt lat="44.19098" lon="5.04848">
        <ele>352</ele>
        <time>2019-09-28T06:39:12Z</time>
      </trkpt>
      <trkpt lat="44.19113" lon="5.0486">
        <ele>352</ele>
        <time>2019-09-28T06:39:21Z</time>
      </trkpt>
      <trkpt lat="44.19129" lon="5.04873">
        <ele>356</ele>
        <time>2019-09-28T06:39:32Z</time>
      </trkpt>
      <trkpt lat="44.19136" lon="5.04879">
        <ele>356</ele>
        <time>2019-09-28T06:39:37Z</time>
      </trkpt>
      <trkpt lat="44.19144" lon="5.04886">
        <ele>357</ele>
        <time>2019-09-28T06:39:43Z</time>
      </trkpt>
      <trkpt lat="44.19157" lon="5.04895">
        <ele>360</ele>
        <time>2019-09-28T06:39:52Z</time>
      </trkpt>
      <trkpt lat="44.19177" lon="5.0491">
        <ele>362</ele>
        <time>2019-09-28T06:40:05Z</time>
      </trkpt>
      <trkpt lat="44.19189" lon="5.04919">
        <ele>362</ele>
        <time>2019-09-28T06:40:14Z</time>
      </trkpt>
      <trkpt lat="44.19202" lon="5.04929">
        <ele>364</ele>
        <time>2019-09-28T06:40:24Z</time>
      </trkpt>
      <trkpt lat="44.19203" lon="5.0493">
        <ele>364</ele>
        <time>2019-09-28T06:40:25Z</time>
      </trkpt>
      <trkpt lat="44.19205" lon="5.04932">
        <ele>364</ele>
        <time>2019-09-28T06:40:26Z</time>
      </trkpt>
      <trkpt lat="44.19219" lon="5.04945">
        <ele>364</ele>
        <time>2019-09-28T06:40:36Z</time>
      </trkpt>
      <trkpt lat="44.1924" lon="5.04963">
        <ele>368</ele>
        <time>2019-09-28T06:40:50Z</time>
      </trkpt>
      <trkpt lat="44.19254" lon="5.04978">
        <ele>369</ele>
        <time>2019-09-28T06:41:02Z</time>
      </trkpt>
      <trkpt lat="44.1927" lon="5.04989">
        <ele>376</ele>
        <time>2019-09-28T06:41:13Z</time>
      </trkpt>
      <trkpt lat="44.19282" lon="5.05004">
        <ele>378</ele>
        <time>2019-09-28T06:41:23Z</time>
      </trkpt>
      <trkpt lat="44.19294" lon="5.05021">
        <ele>381</ele>
        <time>2019-09-28T06:41:34Z</time>
      </trkpt>
      <trkpt lat="44.19295" lon="5.05022">
        <ele>382</ele>
        <time>2019-09-28T06:41:35Z</time>
      </trkpt>
      <trkpt lat="44.19307" lon="5.05042">
        <ele>385</ele>
        <time>2019-09-28T06:41:47Z</time>
      </trkpt>
      <trkpt lat="44.19317" lon="5.05069">
        <ele>387</ele>
        <time>2019-09-28T06:41:59Z</time>
      </trkpt>
      <trkpt lat="44.19323" lon="5.05106">
        <ele>387</ele>
        <time>2019-09-28T06:42:12Z</time>
      </trkpt>
      <trkpt lat="44.19325" lon="5.05141">
        <ele>386</ele>
        <time>2019-09-28T06:42:24Z</time>
      </trkpt>
      <trkpt lat="44.19325" lon="5.05172">
        <ele>385</ele>
        <time>2019-09-28T06:42:36Z</time>
      </trkpt>
      <trkpt lat="44.19326" lon="5.05203">
        <ele>385</ele>
        <time>2019-09-28T06:42:49Z</time>
      </trkpt>
      <trkpt lat="44.19332" lon="5.05233">
        <ele>388</ele>
        <time>2019-09-28T06:43:04Z</time>
      </trkpt>
      <trkpt lat="44.19335" lon="5.05258">
        <ele>391</ele>
        <time>2019-09-28T06:43:16Z</time>
      </trkpt>
      <trkpt lat="44.19337" lon="5.05287">
        <ele>393</ele>
        <time>2019-09-28T06:43:29Z</time>
      </trkpt>
      <trkpt lat="44.19333" lon="5.05313">
        <ele>390</ele>
        <time>2019-09-28T06:43:40Z</time>
      </trkpt>
      <trkpt lat="44.19332" lon="5.05345">
        <ele>389</ele>
        <time>2019-09-28T06:43:51Z</time>
      </trkpt>
      <trkpt lat="44.19333" lon="5.05353">
        <ele>390</ele>
        <time>2019-09-28T06:43:54Z</time>
      </trkpt>
      <trkpt lat="44.19338" lon="5.05374">
        <ele>396</ele>
        <time>2019-09-28T06:44:04Z</time>
      </trkpt>
      <trkpt lat="44.19335" lon="5.05375">
        <ele>394</ele>
        <time>2019-09-28T06:44:09Z</time>
      </trkpt>
      <trkpt lat="44.19333" lon="5.05375">
        <ele>393</ele>
        <time>2019-09-28T06:44:10Z</time>
      </trkpt>
      <trkpt lat="44.19331" lon="5.05375">
        <ele>393</ele>
        <time>2019-09-28T06:44:11Z</time>
      </trkpt>
      <trkpt lat="44.1933" lon="5.05375">
        <ele>392</ele>
        <time>2019-09-28T06:44:12Z</time>
      </trkpt>
      <trkpt lat="44.19329" lon="5.05376">
        <ele>392</ele>
        <time>2019-09-28T06:44:13Z</time>
      </trkpt>
      <trkpt lat="44.19327" lon="5.05377">
        <ele>391</ele>
        <time>2019-09-28T06:44:15Z</time>
      </trkpt>
      <trkpt lat="44.1932" lon="5.05383">
        <ele>389</ele>
        <time>2019-09-28T06:44:21Z</time>
      </trkpt>
      <trkpt lat="44.1932" lon="5.05385">
        <ele>389</ele>
        <time>2019-09-28T06:44:22Z</time>
      </trkpt>
      <trkpt lat="44.19319" lon="5.05387">
        <ele>389</ele>
        <time>2019-09-28T06:44:23Z</time>
      </trkpt>
      <trkpt lat="44.19318" lon="5.0539">
        <ele>390</ele>
        <time>2019-09-28T06:44:24Z</time>
      </trkpt>
      <trkpt lat="44.19317" lon="5.05392">
        <ele>390</ele>
        <time>2019-09-28T06:44:25Z</time>
      </trkpt>
      <trkpt lat="44.19316" lon="5.05394">
        <ele>390</ele>
        <time>2019-09-28T06:44:26Z</time>
      </trkpt>
      <trkpt lat="44.19316" lon="5.05395">
        <ele>390</ele>
        <time>2019-09-28T06:44:27Z</time>
      </trkpt>
      <trkpt lat="44.19312" lon="5.05408">
        <ele>392</ele>
        <time>2019-09-28T06:44:35Z</time>
      </trkpt>
      <trkpt lat="44.193" lon="5.05434">
        <ele>394</ele>
        <time>2019-09-28T06:44:49Z</time>
      </trkpt>
      <trkpt lat="44.19287" lon="5.05457">
        <ele>393</ele>
        <time>2019-09-28T06:45:02Z</time>
      </trkpt>
      <trkpt lat="44.19276" lon="5.05472">
        <ele>391</ele>
        <time>2019-09-28T06:45:12Z</time>
      </trkpt>
      <trkpt lat="44.19263" lon="5.05483">
        <ele>389</ele>
        <time>2019-09-28T06:45:18Z</time>
      </trkpt>
      <trkpt lat="44.19251" lon="5.05506">
        <ele>388</ele>
        <time>2019-09-28T06:45:28Z</time>
      </trkpt>
      <trkpt lat="44.19242" lon="5.05519">
        <ele>390</ele>
        <time>2019-09-28T06:45:34Z</time>
      </trkpt>
      <trkpt lat="44.19241" lon="5.05529">
        <ele>391</ele>
        <time>2019-09-28T06:45:39Z</time>
      </trkpt>
      <trkpt lat="44.1924" lon="5.05532">
        <ele>391</ele>
        <time>2019-09-28T06:45:40Z</time>
      </trkpt>
      <trkpt lat="44.19239" lon="5.05534">
        <ele>391</ele>
        <time>2019-09-28T06:45:41Z</time>
      </trkpt>
      <trkpt lat="44.19232" lon="5.05543">
        <ele>391</ele>
        <time>2019-09-28T06:45:46Z</time>
      </trkpt>
      <trkpt lat="44.19231" lon="5.05544">
        <ele>391</ele>
        <time>2019-09-28T06:45:47Z</time>
      </trkpt>
      <trkpt lat="44.19226" lon="5.05547">
        <ele>390</ele>
        <time>2019-09-28T06:45:50Z</time>
      </trkpt>
      <trkpt lat="44.19224" lon="5.05549">
        <ele>390</ele>
        <time>2019-09-28T06:45:52Z</time>
      </trkpt>
      <trkpt lat="44.19223" lon="5.05551">
        <ele>390</ele>
        <time>2019-09-28T06:45:53Z</time>
      </trkpt>
      <trkpt lat="44.19223" lon="5.05557">
        <ele>390</ele>
        <time>2019-09-28T06:45:56Z</time>
      </trkpt>
      <trkpt lat="44.19223" lon="5.05574">
        <ele>391</ele>
        <time>2019-09-28T06:46:04Z</time>
      </trkpt>
      <trkpt lat="44.19223" lon="5.05576">
        <ele>391</ele>
        <time>2019-09-28T06:46:05Z</time>
      </trkpt>
      <trkpt lat="44.19224" lon="5.05578">
        <ele>391</ele>
        <time>2019-09-28T06:46:06Z</time>
      </trkpt>
      <trkpt lat="44.19233" lon="5.05587">
        <ele>393</ele>
        <time>2019-09-28T06:46:15Z</time>
      </trkpt>
      <trkpt lat="44.19237" lon="5.05591">
        <ele>393</ele>
        <time>2019-09-28T06:46:18Z</time>
      </trkpt>
      <trkpt lat="44.19238" lon="5.05593">
        <ele>394</ele>
        <time>2019-09-28T06:46:19Z</time>
      </trkpt>
      <trkpt lat="44.1924" lon="5.05594">
        <ele>394</ele>
        <time>2019-09-28T06:46:20Z</time>
      </trkpt>
      <trkpt lat="44.1925" lon="5.05605">
        <ele>396</ele>
        <time>2019-09-28T06:46:31Z</time>
      </trkpt>
      <trkpt lat="44.19262" lon="5.05612">
        <ele>398</ele>
        <time>2019-09-28T06:46:43Z</time>
      </trkpt>
      <trkpt lat="44.19269" lon="5.05614">
        <ele>400</ele>
        <time>2019-09-28T06:46:53Z</time>
      </trkpt>
      <trkpt lat="44.19275" lon="5.05618">
        <ele>401</ele>
        <time>2019-09-28T06:47:01Z</time>
      </trkpt>
      <trkpt lat="44.19279" lon="5.05637">
        <ele>405</ele>
        <time>2019-09-28T06:47:14Z</time>
      </trkpt>
      <trkpt lat="44.1928" lon="5.05643">
        <ele>407</ele>
        <time>2019-09-28T06:47:17Z</time>
      </trkpt>
      <trkpt lat="44.19282" lon="5.05658">
        <ele>412</ele>
        <time>2019-09-28T06:47:26Z</time>
      </trkpt>
      <trkpt lat="44.19283" lon="5.0566">
        <ele>413</ele>
        <time>2019-09-28T06:47:27Z</time>
      </trkpt>
      <trkpt lat="44.19285" lon="5.05661">
        <ele>413</ele>
        <time>2019-09-28T06:47:28Z</time>
      </trkpt>
      <trkpt lat="44.19286" lon="5.05662">
        <ele>414</ele>
        <time>2019-09-28T06:47:29Z</time>
      </trkpt>
      <trkpt lat="44.19288" lon="5.05663">
        <ele>415</ele>
        <time>2019-09-28T06:47:30Z</time>
      </trkpt>
      <trkpt lat="44.19289" lon="5.05665">
        <ele>416</ele>
        <time>2019-09-28T06:47:31Z</time>
      </trkpt>
      <trkpt lat="44.1929" lon="5.05666">
        <ele>417</ele>
        <time>2019-09-28T06:47:32Z</time>
      </trkpt>
      <trkpt lat="44.19291" lon="5.05668">
        <ele>418</ele>
        <time>2019-09-28T06:47:33Z</time>
      </trkpt>
      <trkpt lat="44.19296" lon="5.05675">
        <ele>421</ele>
        <time>2019-09-28T06:47:43Z</time>
      </trkpt>
      <trkpt lat="44.19301" lon="5.05666">
        <ele>421</ele>
        <time>2019-09-28T06:47:55Z</time>
      </trkpt>
      <trkpt lat="44.19303" lon="5.05664">
        <ele>422</ele>
        <time>2019-09-28T06:47:58Z</time>
      </trkpt>
      <trkpt lat="44.19304" lon="5.05663">
        <ele>422</ele>
        <time>2019-09-28T06:47:59Z</time>
      </trkpt>
      <trkpt lat="44.19306" lon="5.05662">
        <ele>423</ele>
        <time>2019-09-28T06:48:00Z</time>
      </trkpt>
      <trkpt lat="44.19307" lon="5.0566">
        <ele>423</ele>
        <time>2019-09-28T06:48:01Z</time>
      </trkpt>
      <trkpt lat="44.19309" lon="5.05659">
        <ele>423</ele>
        <time>2019-09-28T06:48:02Z</time>
      </trkpt>
      <trkpt lat="44.19315" lon="5.0566">
        <ele>426</ele>
        <time>2019-09-28T06:48:10Z</time>
      </trkpt>
      <trkpt lat="44.1932" lon="5.05662">
        <ele>428</ele>
        <time>2019-09-28T06:48:20Z</time>
      </trkpt>
      <trkpt lat="44.19325" lon="5.05662">
        <ele>430</ele>
        <time>2019-09-28T06:48:28Z</time>
      </trkpt>
      <trkpt lat="44.19329" lon="5.05661">
        <ele>431</ele>
        <time>2019-09-28T06:48:32Z</time>
      </trkpt>
      <trkpt lat="44.19331" lon="5.0566">
        <ele>432</ele>
        <time>2019-09-28T06:48:33Z</time>
      </trkpt>
      <trkpt lat="44.19343" lon="5.05654">
        <ele>436</ele>
        <time>2019-09-28T06:48:42Z</time>
      </trkpt>
      <trkpt lat="44.19352" lon="5.05648">
        <ele>438</ele>
        <time>2019-09-28T06:48:51Z</time>
      </trkpt>
      <trkpt lat="44.19356" lon="5.05647">
        <ele>439</ele>
        <time>2019-09-28T06:48:54Z</time>
      </trkpt>
      <trkpt lat="44.19357" lon="5.05647">
        <ele>440</ele>
        <time>2019-09-28T06:48:55Z</time>
      </trkpt>
      <trkpt lat="44.19366" lon="5.0564">
        <ele>442</ele>
        <time>2019-09-28T06:49:02Z</time>
      </trkpt>
      <trkpt lat="44.19369" lon="5.05639">
        <ele>443</ele>
        <time>2019-09-28T06:49:05Z</time>
      </trkpt>
      <trkpt lat="44.1937" lon="5.05639">
        <ele>443</ele>
        <time>2019-09-28T06:49:06Z</time>
      </trkpt>
      <trkpt lat="44.19373" lon="5.05638">
        <ele>445</ele>
        <time>2019-09-28T06:49:09Z</time>
      </trkpt>
      <trkpt lat="44.19374" lon="5.05636">
        <ele>445</ele>
        <time>2019-09-28T06:49:10Z</time>
      </trkpt>
      <trkpt lat="44.19375" lon="5.05635">
        <ele>446</ele>
        <time>2019-09-28T06:49:11Z</time>
      </trkpt>
      <trkpt lat="44.19376" lon="5.05634">
        <ele>447</ele>
        <time>2019-09-28T06:49:12Z</time>
      </trkpt>
      <trkpt lat="44.19377" lon="5.05633">
        <ele>447</ele>
        <time>2019-09-28T06:49:13Z</time>
      </trkpt>
      <trkpt lat="44.19379" lon="5.05631">
        <ele>448</ele>
        <time>2019-09-28T06:49:14Z</time>
      </trkpt>
      <trkpt lat="44.1938" lon="5.0563">
        <ele>448</ele>
        <time>2019-09-28T06:49:15Z</time>
      </trkpt>
      <trkpt lat="44.19381" lon="5.0563">
        <ele>449</ele>
        <time>2019-09-28T06:49:16Z</time>
      </trkpt>
      <trkpt lat="44.19387" lon="5.05625">
        <ele>452</ele>
        <time>2019-09-28T06:49:20Z</time>
      </trkpt>
      <trkpt lat="44.19393" lon="5.0563">
        <ele>453</ele>
        <time>2019-09-28T06:49:28Z</time>
      </trkpt>
      <trkpt lat="44.19402" lon="5.05639">
        <ele>454</ele>
        <time>2019-09-28T06:49:39Z</time>
      </trkpt>
      <trkpt lat="44.19411" lon="5.05648">
        <ele>457</ele>
        <time>2019-09-28T06:49:49Z</time>
      </trkpt>
      <trkpt lat="44.19413" lon="5.05649">
        <ele>458</ele>
        <time>2019-09-28T06:49:50Z</time>
      </trkpt>
      <trkpt lat="44.19427" lon="5.0565">
        <ele>460</ele>
        <time>2019-09-28T06:50:01Z</time>
      </trkpt>
      <trkpt lat="44.19434" lon="5.05656">
        <ele>462</ele>
        <time>2019-09-28T06:50:10Z</time>
      </trkpt>
      <trkpt lat="44.19439" lon="5.05665">
        <ele>464</ele>
        <time>2019-09-28T06:50:17Z</time>
      </trkpt>
      <trkpt lat="44.19453" lon="5.05679">
        <ele>465</ele>
        <time>2019-09-28T06:50:30Z</time>
      </trkpt>
      <trkpt lat="44.19473" lon="5.0569">
        <ele>465</ele>
        <time>2019-09-28T06:50:42Z</time>
      </trkpt>
      <trkpt lat="44.19477" lon="5.05693">
        <ele>465</ele>
        <time>2019-09-28T06:50:45Z</time>
      </trkpt>
      <trkpt lat="44.19479" lon="5.05695">
        <ele>465</ele>
        <time>2019-09-28T06:50:46Z</time>
      </trkpt>
      <trkpt lat="44.1948" lon="5.05697">
        <ele>465</ele>
        <time>2019-09-28T06:50:47Z</time>
      </trkpt>
      <trkpt lat="44.19482" lon="5.05698">
        <ele>465</ele>
        <time>2019-09-28T06:50:48Z</time>
      </trkpt>
      <trkpt lat="44.19483" lon="5.057">
        <ele>465</ele>
        <time>2019-09-28T06:50:49Z</time>
      </trkpt>
      <trkpt lat="44.19485" lon="5.05702">
        <ele>465</ele>
        <time>2019-09-28T06:50:50Z</time>
      </trkpt>
      <trkpt lat="44.19486" lon="5.05704">
        <ele>465</ele>
        <time>2019-09-28T06:50:51Z</time>
      </trkpt>
      <trkpt lat="44.19502" lon="5.05727">
        <ele>467</ele>
        <time>2019-09-28T06:51:04Z</time>
      </trkpt>
      <trkpt lat="44.19518" lon="5.05748">
        <ele>471</ele>
        <time>2019-09-28T06:51:16Z</time>
      </trkpt>
      <trkpt lat="44.19536" lon="5.05758">
        <ele>472</ele>
        <time>2019-09-28T06:51:26Z</time>
      </trkpt>
      <trkpt lat="44.19549" lon="5.05769">
        <ele>474</ele>
        <time>2019-09-28T06:51:35Z</time>
      </trkpt>
      <trkpt lat="44.19554" lon="5.0577">
        <ele>474</ele>
        <time>2019-09-28T06:51:40Z</time>
      </trkpt>
      <trkpt lat="44.19556" lon="5.05768">
        <ele>474</ele>
        <time>2019-09-28T06:51:41Z</time>
      </trkpt>
      <trkpt lat="44.19558" lon="5.05767">
        <ele>474</ele>
        <time>2019-09-28T06:51:42Z</time>
      </trkpt>
      <trkpt lat="44.19559" lon="5.05767">
        <ele>475</ele>
        <time>2019-09-28T06:51:43Z</time>
      </trkpt>
      <trkpt lat="44.1957" lon="5.0577">
        <ele>477</ele>
        <time>2019-09-28T06:51:51Z</time>
      </trkpt>
      <trkpt lat="44.19579" lon="5.0578">
        <ele>478</ele>
        <time>2019-09-28T06:51:58Z</time>
      </trkpt>
      <trkpt lat="44.1958" lon="5.05781">
        <ele>479</ele>
        <time>2019-09-28T06:51:59Z</time>
      </trkpt>
      <trkpt lat="44.19582" lon="5.05782">
        <ele>479</ele>
        <time>2019-09-28T06:52:00Z</time>
      </trkpt>
      <trkpt lat="44.19589" lon="5.05793">
        <ele>480</ele>
        <time>2019-09-28T06:52:08Z</time>
      </trkpt>
      <trkpt lat="44.1959" lon="5.05795">
        <ele>481</ele>
        <time>2019-09-28T06:52:09Z</time>
      </trkpt>
      <trkpt lat="44.19592" lon="5.05796">
        <ele>481</ele>
        <time>2019-09-28T06:52:10Z</time>
      </trkpt>
      <trkpt lat="44.19597" lon="5.05811">
        <ele>482</ele>
        <time>2019-09-28T06:52:19Z</time>
      </trkpt>
      <trkpt lat="44.19597" lon="5.05816">
        <ele>483</ele>
        <time>2019-09-28T06:52:22Z</time>
      </trkpt>
      <trkpt lat="44.19598" lon="5.05819">
        <ele>483</ele>
        <time>2019-09-28T06:52:23Z</time>
      </trkpt>
      <trkpt lat="44.19599" lon="5.05821">
        <ele>484</ele>
        <time>2019-09-28T06:52:24Z</time>
      </trkpt>
      <trkpt lat="44.19601" lon="5.05822">
        <ele>484</ele>
        <time>2019-09-28T06:52:25Z</time>
      </trkpt>
      <trkpt lat="44.19602" lon="5.05822">
        <ele>484</ele>
        <time>2019-09-28T06:52:26Z</time>
      </trkpt>
      <trkpt lat="44.19609" lon="5.05823">
        <ele>485</ele>
        <time>2019-09-28T06:52:32Z</time>
      </trkpt>
      <trkpt lat="44.19611" lon="5.05823">
        <ele>485</ele>
        <time>2019-09-28T06:52:33Z</time>
      </trkpt>
      <trkpt lat="44.19619" lon="5.05824">
        <ele>486</ele>
        <time>2019-09-28T06:52:38Z</time>
      </trkpt>
      <trkpt lat="44.19628" lon="5.05822">
        <ele>488</ele>
        <time>2019-09-28T06:52:46Z</time>
      </trkpt>
      <trkpt lat="44.19629" lon="5.05822">
        <ele>488</ele>
        <time>2019-09-28T06:52:47Z</time>
      </trkpt>
      <trkpt lat="44.19631" lon="5.05822">
        <ele>488</ele>
        <time>2019-09-28T06:52:48Z</time>
      </trkpt>
      <trkpt lat="44.19645" lon="5.05825">
        <ele>491</ele>
        <time>2019-09-28T06:52:58Z</time>
      </trkpt>
      <trkpt lat="44.19654" lon="5.05827">
        <ele>494</ele>
        <time>2019-09-28T06:53:08Z</time>
      </trkpt>
      <trkpt lat="44.19665" lon="5.05827">
        <ele>497</ele>
        <time>2019-09-28T06:53:18Z</time>
      </trkpt>
      <trkpt lat="44.19675" lon="5.05827">
        <ele>500</ele>
        <time>2019-09-28T06:53:28Z</time>
      </trkpt>
      <trkpt lat="44.19681" lon="5.05821">
        <ele>502</ele>
        <time>2019-09-28T06:53:36Z</time>
      </trkpt>
      <trkpt lat="44.19683" lon="5.05822">
        <ele>503</ele>
        <time>2019-09-28T06:53:47Z</time>
      </trkpt>
      <trkpt lat="44.19682" lon="5.05823">
        <ele>503</ele>
        <time>2019-09-28T06:53:55Z</time>
      </trkpt>
      <trkpt lat="44.19682" lon="5.05837">
        <ele>503</ele>
        <time>2019-09-28T06:54:05Z</time>
      </trkpt>
      <trkpt lat="44.19678" lon="5.05854">
        <ele>503</ele>
        <time>2019-09-28T07:02:28Z</time>
      </trkpt>
      <trkpt lat="44.19696" lon="5.05853">
        <ele>508</ele>
        <time>2019-09-28T07:02:39Z</time>
      </trkpt>
      <trkpt lat="44.19712" lon="5.05858">
        <ele>509</ele>
        <time>2019-09-28T07:02:49Z</time>
      </trkpt>
      <trkpt lat="44.19724" lon="5.05865">
        <ele>509</ele>
        <time>2019-09-28T07:02:58Z</time>
      </trkpt>
      <trkpt lat="44.19738" lon="5.05874">
        <ele>507</ele>
        <time>2019-09-28T07:03:07Z</time>
      </trkpt>
      <trkpt lat="44.1975" lon="5.05884">
        <ele>503</ele>
        <time>2019-09-28T07:03:15Z</time>
      </trkpt>
      <trkpt lat="44.19761" lon="5.05893">
        <ele>501</ele>
        <time>2019-09-28T07:03:22Z</time>
      </trkpt>
      <trkpt lat="44.19774" lon="5.05903">
        <ele>497</ele>
        <time>2019-09-28T07:03:31Z</time>
      </trkpt>
      <trkpt lat="44.19782" lon="5.05912">
        <ele>494</ele>
        <time>2019-09-28T07:03:39Z</time>
      </trkpt>
      <trkpt lat="44.19786" lon="5.05914">
        <ele>493</ele>
        <time>2019-09-28T07:03:42Z</time>
      </trkpt>
      <trkpt lat="44.19789" lon="5.05915">
        <ele>492</ele>
        <time>2019-09-28T07:03:44Z</time>
      </trkpt>
      <trkpt lat="44.19793" lon="5.05915">
        <ele>491</ele>
        <time>2019-09-28T07:03:47Z</time>
      </trkpt>
      <trkpt lat="44.19797" lon="5.05921">
        <ele>490</ele>
        <time>2019-09-28T07:03:51Z</time>
      </trkpt>
      <trkpt lat="44.19808" lon="5.05931">
        <ele>486</ele>
        <time>2019-09-28T07:04:00Z</time>
      </trkpt>
      <trkpt lat="44.19809" lon="5.05932">
        <ele>486</ele>
        <time>2019-09-28T07:04:01Z</time>
      </trkpt>
      <trkpt lat="44.19817" lon="5.05936">
        <ele>484</ele>
        <time>2019-09-28T07:04:07Z</time>
      </trkpt>
      <trkpt lat="44.19831" lon="5.05945">
        <ele>480</ele>
        <time>2019-09-28T07:04:17Z</time>
      </trkpt>
      <trkpt lat="44.19842" lon="5.05953">
        <ele>479</ele>
        <time>2019-09-28T07:04:26Z</time>
      </trkpt>
      <trkpt lat="44.19847" lon="5.05957">
        <ele>478</ele>
        <time>2019-09-28T07:04:29Z</time>
      </trkpt>
      <trkpt lat="44.19858" lon="5.05968">
        <ele>476</ele>
        <time>2019-09-28T07:04:39Z</time>
      </trkpt>
      <trkpt lat="44.1987" lon="5.05971">
        <ele>473</ele>
        <time>2019-09-28T07:04:50Z</time>
      </trkpt>
      <trkpt lat="44.19873" lon="5.05972">
        <ele>472</ele>
        <time>2019-09-28T07:04:55Z</time>
      </trkpt>
      <trkpt lat="44.19884" lon="5.05975">
        <ele>468</ele>
        <time>2019-09-28T07:05:04Z</time>
      </trkpt>
      <trkpt lat="44.19896" lon="5.05981">
        <ele>465</ele>
        <time>2019-09-28T07:05:13Z</time>
      </trkpt>
      <trkpt lat="44.19917" lon="5.05984">
        <ele>461</ele>
        <time>2019-09-28T07:05:22Z</time>
      </trkpt>
      <trkpt lat="44.19945" lon="5.05981">
        <ele>457</ele>
        <time>2019-09-28T07:05:34Z</time>
      </trkpt>
      <trkpt lat="44.19947" lon="5.05981">
        <ele>457</ele>
        <time>2019-09-28T07:05:35Z</time>
      </trkpt>
      <trkpt lat="44.19949" lon="5.05981">
        <ele>457</ele>
        <time>2019-09-28T07:05:36Z</time>
      </trkpt>
      <trkpt lat="44.19966" lon="5.05982">
        <ele>455</ele>
        <time>2019-09-28T07:05:44Z</time>
      </trkpt>
      <trkpt lat="44.19968" lon="5.05982">
        <ele>455</ele>
        <time>2019-09-28T07:05:45Z</time>
      </trkpt>
      <trkpt lat="44.19977" lon="5.05975">
        <ele>456</ele>
        <time>2019-09-28T07:05:53Z</time>
      </trkpt>
      <trkpt lat="44.19991" lon="5.05965">
        <ele>458</ele>
        <time>2019-09-28T07:06:02Z</time>
      </trkpt>
      <trkpt lat="44.19995" lon="5.05964">
        <ele>458</ele>
        <time>2019-09-28T07:06:04Z</time>
      </trkpt>
      <trkpt lat="44.20014" lon="5.05963">
        <ele>457</ele>
        <time>2019-09-28T07:06:15Z</time>
      </trkpt>
      <trkpt lat="44.20031" lon="5.0596">
        <ele>457</ele>
        <time>2019-09-28T07:06:26Z</time>
      </trkpt>
      <trkpt lat="44.20047" lon="5.05946">
        <ele>458</ele>
        <time>2019-09-28T07:06:37Z</time>
      </trkpt>
      <trkpt lat="44.20062" lon="5.05926">
        <ele>460</ele>
        <time>2019-09-28T07:06:49Z</time>
      </trkpt>
      <trkpt lat="44.20071" lon="5.05912">
        <ele>462</ele>
        <time>2019-09-28T07:06:58Z</time>
      </trkpt>
      <trkpt lat="44.20081" lon="5.05896">
        <ele>463</ele>
        <time>2019-09-28T07:07:08Z</time>
      </trkpt>
      <trkpt lat="44.20088" lon="5.05881">
        <ele>465</ele>
        <time>2019-09-28T07:07:16Z</time>
      </trkpt>
      <trkpt lat="44.20094" lon="5.05869">
        <ele>467</ele>
        <time>2019-09-28T07:07:24Z</time>
      </trkpt>
      <trkpt lat="44.20105" lon="5.0585">
        <ele>469</ele>
        <time>2019-09-28T07:07:33Z</time>
      </trkpt>
      <trkpt lat="44.20115" lon="5.05834">
        <ele>470</ele>
        <time>2019-09-28T07:07:42Z</time>
      </trkpt>
      <trkpt lat="44.20124" lon="5.05818">
        <ele>470</ele>
        <time>2019-09-28T07:07:51Z</time>
      </trkpt>
      <trkpt lat="44.20131" lon="5.05804">
        <ele>472</ele>
        <time>2019-09-28T07:07:59Z</time>
      </trkpt>
      <trkpt lat="44.20137" lon="5.0579">
        <ele>473</ele>
        <time>2019-09-28T07:08:07Z</time>
      </trkpt>
      <trkpt lat="44.20145" lon="5.05772">
        <ele>474</ele>
        <time>2019-09-28T07:08:17Z</time>
      </trkpt>
      <trkpt lat="44.20156" lon="5.05743">
        <ele>476</ele>
        <time>2019-09-28T07:08:30Z</time>
      </trkpt>
      <trkpt lat="44.20163" lon="5.05717">
        <ele>479</ele>
        <time>2019-09-28T07:08:43Z</time>
      </trkpt>
      <trkpt lat="44.20165" lon="5.05699">
        <ele>481</ele>
        <time>2019-09-28T07:08:52Z</time>
      </trkpt>
      <trkpt lat="44.20167" lon="5.05677">
        <ele>482</ele>
        <time>2019-09-28T07:09:01Z</time>
      </trkpt>
      <trkpt lat="44.20168" lon="5.05671">
        <ele>482</ele>
        <time>2019-09-28T07:09:05Z</time>
      </trkpt>
      <trkpt lat="44.20168" lon="5.05668">
        <ele>482</ele>
        <time>2019-09-28T07:09:06Z</time>
      </trkpt>
      <trkpt lat="44.20163" lon="5.05644">
        <ele>485</ele>
        <time>2019-09-28T07:09:17Z</time>
      </trkpt>
      <trkpt lat="44.20152" lon="5.05624">
        <ele>488</ele>
        <time>2019-09-28T07:09:28Z</time>
      </trkpt>
      <trkpt lat="44.20151" lon="5.05621">
        <ele>488</ele>
        <time>2019-09-28T07:09:36Z</time>
      </trkpt>
      <trkpt lat="44.20152" lon="5.05622">
        <ele>488</ele>
        <time>2019-09-28T07:09:46Z</time>
      </trkpt>
      <trkpt lat="44.20147" lon="5.05615">
        <ele>489</ele>
        <time>2019-09-28T07:10:09Z</time>
      </trkpt>
      <trkpt lat="44.20132" lon="5.05606">
        <ele>490</ele>
        <time>2019-09-28T07:10:17Z</time>
      </trkpt>
      <trkpt lat="44.20108" lon="5.05602">
        <ele>490</ele>
        <time>2019-09-28T07:10:27Z</time>
      </trkpt>
      <trkpt lat="44.20087" lon="5.05605">
        <ele>490</ele>
        <time>2019-09-28T07:10:36Z</time>
      </trkpt>
      <trkpt lat="44.20075" lon="5.05599">
        <ele>490</ele>
        <time>2019-09-28T07:10:42Z</time>
      </trkpt>
      <trkpt lat="44.20074" lon="5.05597">
        <ele>490</ele>
        <time>2019-09-28T07:10:43Z</time>
      </trkpt>
      <trkpt lat="44.20073" lon="5.05595">
        <ele>490</ele>
        <time>2019-09-28T07:10:44Z</time>
      </trkpt>
      <trkpt lat="44.20072" lon="5.05592">
        <ele>490</ele>
        <time>2019-09-28T07:10:45Z</time>
      </trkpt>
      <trkpt lat="44.20071" lon="5.0559">
        <ele>490</ele>
        <time>2019-09-28T07:10:46Z</time>
      </trkpt>
      <trkpt lat="44.20071" lon="5.05588">
        <ele>490</ele>
        <time>2019-09-28T07:10:47Z</time>
      </trkpt>
      <trkpt lat="44.2007" lon="5.05586">
        <ele>490</ele>
        <time>2019-09-28T07:10:48Z</time>
      </trkpt>
      <trkpt lat="44.20066" lon="5.0557">
        <ele>489</ele>
        <time>2019-09-28T07:10:54Z</time>
      </trkpt>
      <trkpt lat="44.20065" lon="5.05568">
        <ele>489</ele>
        <time>2019-09-28T07:10:55Z</time>
      </trkpt>
      <trkpt lat="44.20063" lon="5.0556">
        <ele>489</ele>
        <time>2019-09-28T07:10:58Z</time>
      </trkpt>
      <trkpt lat="44.20062" lon="5.05558">
        <ele>488</ele>
        <time>2019-09-28T07:10:59Z</time>
      </trkpt>
      <trkpt lat="44.20061" lon="5.05555">
        <ele>488</ele>
        <time>2019-09-28T07:11:00Z</time>
      </trkpt>
      <trkpt lat="44.20057" lon="5.05526">
        <ele>489</ele>
        <time>2019-09-28T07:11:11Z</time>
      </trkpt>
      <trkpt lat="44.20054" lon="5.05497">
        <ele>489</ele>
        <time>2019-09-28T07:11:21Z</time>
      </trkpt>
      <trkpt lat="44.20051" lon="5.0547">
        <ele>490</ele>
        <time>2019-09-28T07:11:30Z</time>
      </trkpt>
      <trkpt lat="44.20041" lon="5.05441">
        <ele>489</ele>
        <time>2019-09-28T07:11:40Z</time>
      </trkpt>
      <trkpt lat="44.20024" lon="5.05433">
        <ele>489</ele>
        <time>2019-09-28T07:11:48Z</time>
      </trkpt>
      <trkpt lat="44.20002" lon="5.05434">
        <ele>489</ele>
        <time>2019-09-28T07:11:57Z</time>
      </trkpt>
      <trkpt lat="44.19977" lon="5.05437">
        <ele>489</ele>
        <time>2019-09-28T07:12:08Z</time>
      </trkpt>
      <trkpt lat="44.19954" lon="5.05443">
        <ele>489</ele>
        <time>2019-09-28T07:12:17Z</time>
      </trkpt>
      <trkpt lat="44.19931" lon="5.05461">
        <ele>487</ele>
        <time>2019-09-28T07:12:28Z</time>
      </trkpt>
      <trkpt lat="44.19914" lon="5.05481">
        <ele>486</ele>
        <time>2019-09-28T07:12:37Z</time>
      </trkpt>
      <trkpt lat="44.19906" lon="5.05503">
        <ele>487</ele>
        <time>2019-09-28T07:12:45Z</time>
      </trkpt>
      <trkpt lat="44.19897" lon="5.05528">
        <ele>487</ele>
        <time>2019-09-28T07:12:53Z</time>
      </trkpt>
      <trkpt lat="44.1988" lon="5.05551">
        <ele>488</ele>
        <time>2019-09-28T07:13:03Z</time>
      </trkpt>
      <trkpt lat="44.19873" lon="5.05551">
        <ele>487</ele>
        <time>2019-09-28T07:13:10Z</time>
      </trkpt>
      <trkpt lat="44.19872" lon="5.05549">
        <ele>487</ele>
        <time>2019-09-28T07:13:11Z</time>
      </trkpt>
      <trkpt lat="44.19871" lon="5.05547">
        <ele>486</ele>
        <time>2019-09-28T07:13:12Z</time>
      </trkpt>
      <trkpt lat="44.1987" lon="5.05544">
        <ele>486</ele>
        <time>2019-09-28T07:13:13Z</time>
      </trkpt>
      <trkpt lat="44.19869" lon="5.05542">
        <ele>486</ele>
        <time>2019-09-28T07:13:14Z</time>
      </trkpt>
      <trkpt lat="44.19868" lon="5.05539">
        <ele>485</ele>
        <time>2019-09-28T07:13:15Z</time>
      </trkpt>
      <trkpt lat="44.19867" lon="5.05526">
        <ele>484</ele>
        <time>2019-09-28T07:13:19Z</time>
      </trkpt>
      <trkpt lat="44.19867" lon="5.05523">
        <ele>484</ele>
        <time>2019-09-28T07:13:20Z</time>
      </trkpt>
      <trkpt lat="44.19864" lon="5.05507">
        <ele>483</ele>
        <time>2019-09-28T07:13:36Z</time>
      </trkpt>
      <trkpt lat="44.19868" lon="5.05504">
        <ele>483</ele>
        <time>2019-09-28T07:13:39Z</time>
      </trkpt>
      <trkpt lat="44.19875" lon="5.05492">
        <ele>483</ele>
        <time>2019-09-28T07:13:48Z</time>
      </trkpt>
      <trkpt lat="44.19877" lon="5.05483">
        <ele>482</ele>
        <time>2019-09-28T07:13:52Z</time>
      </trkpt>
      <trkpt lat="44.19877" lon="5.0548">
        <ele>482</ele>
        <time>2019-09-28T07:13:53Z</time>
      </trkpt>
      <trkpt lat="44.19877" lon="5.05473">
        <ele>482</ele>
        <time>2019-09-28T07:13:56Z</time>
      </trkpt>
      <trkpt lat="44.19878" lon="5.05471">
        <ele>482</ele>
        <time>2019-09-28T07:13:57Z</time>
      </trkpt>
      <trkpt lat="44.19879" lon="5.05469">
        <ele>481</ele>
        <time>2019-09-28T07:13:58Z</time>
      </trkpt>
      <trkpt lat="44.1988" lon="5.05466">
        <ele>481</ele>
        <time>2019-09-28T07:13:59Z</time>
      </trkpt>
      <trkpt lat="44.1988" lon="5.05464">
        <ele>481</ele>
        <time>2019-09-28T07:14:00Z</time>
      </trkpt>
      <trkpt lat="44.19881" lon="5.05462">
        <ele>481</ele>
        <time>2019-09-28T07:14:01Z</time>
      </trkpt>
      <trkpt lat="44.19881" lon="5.05459">
        <ele>481</ele>
        <time>2019-09-28T07:14:02Z</time>
      </trkpt>
      <trkpt lat="44.19881" lon="5.05457">
        <ele>481</ele>
        <time>2019-09-28T07:14:03Z</time>
      </trkpt>
      <trkpt lat="44.19881" lon="5.05455">
        <ele>481</ele>
        <time>2019-09-28T07:14:04Z</time>
      </trkpt>
      <trkpt lat="44.19881" lon="5.05454">
        <ele>481</ele>
        <time>2019-09-28T07:14:05Z</time>
      </trkpt>
      <trkpt lat="44.19882" lon="5.05452">
        <ele>480</ele>
        <time>2019-09-28T07:14:06Z</time>
      </trkpt>
      <trkpt lat="44.19882" lon="5.0545">
        <ele>480</ele>
        <time>2019-09-28T07:14:07Z</time>
      </trkpt>
      <trkpt lat="44.19883" lon="5.05449">
        <ele>480</ele>
        <time>2019-09-28T07:14:08Z</time>
      </trkpt>
      <trkpt lat="44.19883" lon="5.05447">
        <ele>480</ele>
        <time>2019-09-28T07:14:09Z</time>
      </trkpt>
      <trkpt lat="44.19884" lon="5.05445">
        <ele>480</ele>
        <time>2019-09-28T07:14:10Z</time>
      </trkpt>
      <trkpt lat="44.19885" lon="5.05443">
        <ele>480</ele>
        <time>2019-09-28T07:14:11Z</time>
      </trkpt>
      <trkpt lat="44.19885" lon="5.05441">
        <ele>480</ele>
        <time>2019-09-28T07:14:12Z</time>
      </trkpt>
      <trkpt lat="44.19885" lon="5.05438">
        <ele>480</ele>
        <time>2019-09-28T07:14:13Z</time>
      </trkpt>
      <trkpt lat="44.19895" lon="5.05407">
        <ele>477</ele>
        <time>2019-09-28T07:14:24Z</time>
      </trkpt>
      <trkpt lat="44.19904" lon="5.05375">
        <ele>474</ele>
        <time>2019-09-28T07:14:35Z</time>
      </trkpt>
      <trkpt lat="44.19913" lon="5.05358">
        <ele>471</ele>
        <time>2019-09-28T07:14:45Z</time>
      </trkpt>
      <trkpt lat="44.19917" lon="5.05355">
        <ele>470</ele>
        <time>2019-09-28T07:14:47Z</time>
      </trkpt>
      <trkpt lat="44.19939" lon="5.05329">
        <ele>469</ele>
        <time>2019-09-28T07:14:59Z</time>
      </trkpt>
      <trkpt lat="44.19957" lon="5.05312">
        <ele>466</ele>
        <time>2019-09-28T07:15:10Z</time>
      </trkpt>
      <trkpt lat="44.19971" lon="5.05301">
        <ele>463</ele>
        <time>2019-09-28T07:15:20Z</time>
      </trkpt>
      <trkpt lat="44.19993" lon="5.05283">
        <ele>460</ele>
        <time>2019-09-28T07:15:30Z</time>
      </trkpt>
      <trkpt lat="44.20005" lon="5.05276">
        <ele>458</ele>
        <time>2019-09-28T07:15:35Z</time>
      </trkpt>
      <trkpt lat="44.20006" lon="5.05274">
        <ele>458</ele>
        <time>2019-09-28T07:15:36Z</time>
      </trkpt>
      <trkpt lat="44.20011" lon="5.05271">
        <ele>457</ele>
        <time>2019-09-28T07:15:39Z</time>
      </trkpt>
      <trkpt lat="44.20023" lon="5.05261">
        <ele>454</ele>
        <time>2019-09-28T07:15:46Z</time>
      </trkpt>
      <trkpt lat="44.20027" lon="5.05258">
        <ele>453</ele>
        <time>2019-09-28T07:15:48Z</time>
      </trkpt>
      <trkpt lat="44.2003" lon="5.05252">
        <ele>452</ele>
        <time>2019-09-28T07:15:59Z</time>
      </trkpt>
      <trkpt lat="44.2003" lon="5.05252">
        <ele>452</ele>
        <time>2019-09-28T07:16:01Z</time>
      </trkpt>
      <trkpt lat="44.20037" lon="5.05244">
        <ele>451</ele>
        <time>2019-09-28T07:16:54Z</time>
      </trkpt>
      <trkpt lat="44.20047" lon="5.05232">
        <ele>451</ele>
        <time>2019-09-28T07:17:04Z</time>
      </trkpt>
      <trkpt lat="44.20052" lon="5.05226">
        <ele>450</ele>
        <time>2019-09-28T07:17:08Z</time>
      </trkpt>
      <trkpt lat="44.20054" lon="5.05224">
        <ele>449</ele>
        <time>2019-09-28T07:17:09Z</time>
      </trkpt>
      <trkpt lat="44.20058" lon="5.05222">
        <ele>449</ele>
        <time>2019-09-28T07:17:10Z</time>
      </trkpt>
      <trkpt lat="44.20077" lon="5.05204">
        <ele>446</ele>
        <time>2019-09-28T07:17:19Z</time>
      </trkpt>
      <trkpt lat="44.20095" lon="5.05182">
        <ele>442</ele>
        <time>2019-09-28T07:17:30Z</time>
      </trkpt>
      <trkpt lat="44.20105" lon="5.05174">
        <ele>441</ele>
        <time>2019-09-28T07:17:42Z</time>
      </trkpt>
      <trkpt lat="44.20107" lon="5.05171">
        <ele>440</ele>
        <time>2019-09-28T07:17:47Z</time>
      </trkpt>
      <trkpt lat="44.20108" lon="5.0517">
        <ele>440</ele>
        <time>2019-09-28T07:17:48Z</time>
      </trkpt>
      <trkpt lat="44.2011" lon="5.05168">
        <ele>439</ele>
        <time>2019-09-28T07:17:50Z</time>
      </trkpt>
      <trkpt lat="44.20111" lon="5.05167">
        <ele>439</ele>
        <time>2019-09-28T07:17:51Z</time>
      </trkpt>
      <trkpt lat="44.20112" lon="5.05166">
        <ele>439</ele>
        <time>2019-09-28T07:17:52Z</time>
      </trkpt>
      <trkpt lat="44.20114" lon="5.05164">
        <ele>439</ele>
        <time>2019-09-28T07:17:53Z</time>
      </trkpt>
      <trkpt lat="44.20116" lon="5.05162">
        <ele>439</ele>
        <time>2019-09-28T07:17:54Z</time>
      </trkpt>
      <trkpt lat="44.20117" lon="5.05162">
        <ele>439</ele>
        <time>2019-09-28T07:17:55Z</time>
      </trkpt>
      <trkpt lat="44.20119" lon="5.05162">
        <ele>439</ele>
        <time>2019-09-28T07:17:56Z</time>
      </trkpt>
      <trkpt lat="44.20121" lon="5.0516">
        <ele>439</ele>
        <time>2019-09-28T07:17:57Z</time>
      </trkpt>
      <trkpt lat="44.20122" lon="5.05159">
        <ele>439</ele>
        <time>2019-09-28T07:17:58Z</time>
      </trkpt>
      <trkpt lat="44.20124" lon="5.05157">
        <ele>438</ele>
        <time>2019-09-28T07:17:59Z</time>
      </trkpt>
      <trkpt lat="44.20125" lon="5.05155">
        <ele>438</ele>
        <time>2019-09-28T07:18:00Z</time>
      </trkpt>
      <trkpt lat="44.20126" lon="5.05153">
        <ele>438</ele>
        <time>2019-09-28T07:18:01Z</time>
      </trkpt>
      <trkpt lat="44.20127" lon="5.05151">
        <ele>437</ele>
        <time>2019-09-28T07:18:02Z</time>
      </trkpt>
      <trkpt lat="44.20129" lon="5.05148">
        <ele>437</ele>
        <time>2019-09-28T07:18:03Z</time>
      </trkpt>
      <trkpt lat="44.20132" lon="5.05145">
        <ele>436</ele>
        <time>2019-09-28T07:18:05Z</time>
      </trkpt>
      <trkpt lat="44.20133" lon="5.05144">
        <ele>436</ele>
        <time>2019-09-28T07:18:06Z</time>
      </trkpt>
      <trkpt lat="44.20135" lon="5.05142">
        <ele>436</ele>
        <time>2019-09-28T07:18:07Z</time>
      </trkpt>
      <trkpt lat="44.20137" lon="5.05141">
        <ele>436</ele>
        <time>2019-09-28T07:18:08Z</time>
      </trkpt>
      <trkpt lat="44.20139" lon="5.0514">
        <ele>435</ele>
        <time>2019-09-28T07:18:09Z</time>
      </trkpt>
      <trkpt lat="44.20141" lon="5.0514">
        <ele>435</ele>
        <time>2019-09-28T07:18:10Z</time>
      </trkpt>
      <trkpt lat="44.20143" lon="5.05139">
        <ele>435</ele>
        <time>2019-09-28T07:18:11Z</time>
      </trkpt>
      <trkpt lat="44.20145" lon="5.05137">
        <ele>435</ele>
        <time>2019-09-28T07:18:12Z</time>
      </trkpt>
      <trkpt lat="44.20147" lon="5.05136">
        <ele>435</ele>
        <time>2019-09-28T07:18:13Z</time>
      </trkpt>
      <trkpt lat="44.2015" lon="5.05134">
        <ele>435</ele>
        <time>2019-09-28T07:18:14Z</time>
      </trkpt>
      <trkpt lat="44.20163" lon="5.05113">
        <ele>431</ele>
        <time>2019-09-28T07:18:23Z</time>
      </trkpt>
      <trkpt lat="44.20165" lon="5.05108">
        <ele>430</ele>
        <time>2019-09-28T07:18:25Z</time>
      </trkpt>
      <trkpt lat="44.20166" lon="5.05106">
        <ele>430</ele>
        <time>2019-09-28T07:18:26Z</time>
      </trkpt>
      <trkpt lat="44.20168" lon="5.05103">
        <ele>430</ele>
        <time>2019-09-28T07:18:27Z</time>
      </trkpt>
      <trkpt lat="44.2017" lon="5.05101">
        <ele>430</ele>
        <time>2019-09-28T07:18:28Z</time>
      </trkpt>
      <trkpt lat="44.20171" lon="5.05099">
        <ele>429</ele>
        <time>2019-09-28T07:18:29Z</time>
      </trkpt>
      <trkpt lat="44.20172" lon="5.05096">
        <ele>429</ele>
        <time>2019-09-28T07:18:30Z</time>
      </trkpt>
      <trkpt lat="44.20173" lon="5.05094">
        <ele>429</ele>
        <time>2019-09-28T07:18:31Z</time>
      </trkpt>
      <trkpt lat="44.20175" lon="5.0509">
        <ele>428</ele>
        <time>2019-09-28T07:18:32Z</time>
      </trkpt>
      <trkpt lat="44.20178" lon="5.05062">
        <ele>424</ele>
        <time>2019-09-28T07:18:42Z</time>
      </trkpt>
      <trkpt lat="44.20179" lon="5.05043">
        <ele>423</ele>
        <time>2019-09-28T07:18:48Z</time>
      </trkpt>
      <trkpt lat="44.20179" lon="5.0504">
        <ele>422</ele>
        <time>2019-09-28T07:18:49Z</time>
      </trkpt>
      <trkpt lat="44.20178" lon="5.05037">
        <ele>422</ele>
        <time>2019-09-28T07:18:50Z</time>
      </trkpt>
      <trkpt lat="44.20176" lon="5.05016">
        <ele>420</ele>
        <time>2019-09-28T07:18:58Z</time>
      </trkpt>
      <trkpt lat="44.20177" lon="5.05013">
        <ele>420</ele>
        <time>2019-09-28T07:18:59Z</time>
      </trkpt>
      <trkpt lat="44.20178" lon="5.05012">
        <ele>420</ele>
        <time>2019-09-28T07:19:00Z</time>
      </trkpt>
      <trkpt lat="44.20179" lon="5.0501">
        <ele>420</ele>
        <time>2019-09-28T07:19:01Z</time>
      </trkpt>
      <trkpt lat="44.20181" lon="5.05008">
        <ele>420</ele>
        <time>2019-09-28T07:19:02Z</time>
      </trkpt>
      <trkpt lat="44.20183" lon="5.05007">
        <ele>420</ele>
        <time>2019-09-28T07:19:03Z</time>
      </trkpt>
      <trkpt lat="44.20196" lon="5.04983">
        <ele>419</ele>
        <time>2019-09-28T07:19:12Z</time>
      </trkpt>
      <trkpt lat="44.20214" lon="5.04965">
        <ele>420</ele>
        <time>2019-09-28T07:19:21Z</time>
      </trkpt>
      <trkpt lat="44.20238" lon="5.04941">
        <ele>418</ele>
        <time>2019-09-28T07:19:33Z</time>
      </trkpt>
      <trkpt lat="44.20256" lon="5.04924">
        <ele>415</ele>
        <time>2019-09-28T07:19:41Z</time>
      </trkpt>
      <trkpt lat="44.2028" lon="5.04901">
        <ele>411</ele>
        <time>2019-09-28T07:19:52Z</time>
      </trkpt>
      <trkpt lat="44.203" lon="5.04884">
        <ele>409</ele>
        <time>2019-09-28T07:20:01Z</time>
      </trkpt>
      <trkpt lat="44.20318" lon="5.04867">
        <ele>408</ele>
        <time>2019-09-28T07:20:10Z</time>
      </trkpt>
      <trkpt lat="44.20335" lon="5.04845">
        <ele>409</ele>
        <time>2019-09-28T07:20:19Z</time>
      </trkpt>
      <trkpt lat="44.20344" lon="5.04819">
        <ele>409</ele>
        <time>2019-09-28T07:20:29Z</time>
      </trkpt>
      <trkpt lat="44.20343" lon="5.04812">
        <ele>410</ele>
        <time>2019-09-28T07:20:32Z</time>
      </trkpt>
      <trkpt lat="44.20339" lon="5.04803">
        <ele>410</ele>
        <time>2019-09-28T07:20:37Z</time>
      </trkpt>
      <trkpt lat="44.20338" lon="5.04801">
        <ele>410</ele>
        <time>2019-09-28T07:20:38Z</time>
      </trkpt>
      <trkpt lat="44.20331" lon="5.04782">
        <ele>410</ele>
        <time>2019-09-28T07:20:48Z</time>
      </trkpt>
      <trkpt lat="44.20329" lon="5.04778">
        <ele>411</ele>
        <time>2019-09-28T07:20:50Z</time>
      </trkpt>
      <trkpt lat="44.20324" lon="5.04761">
        <ele>412</ele>
        <time>2019-09-28T07:20:58Z</time>
      </trkpt>
      <trkpt lat="44.20323" lon="5.04758">
        <ele>413</ele>
        <time>2019-09-28T07:20:59Z</time>
      </trkpt>
      <trkpt lat="44.20322" lon="5.04757">
        <ele>413</ele>
        <time>2019-09-28T07:21:00Z</time>
      </trkpt>
      <trkpt lat="44.20322" lon="5.04755">
        <ele>413</ele>
        <time>2019-09-28T07:21:01Z</time>
      </trkpt>
      <trkpt lat="44.20321" lon="5.04753">
        <ele>413</ele>
        <time>2019-09-28T07:21:02Z</time>
      </trkpt>
      <trkpt lat="44.2032" lon="5.0475">
        <ele>413</ele>
        <time>2019-09-28T07:21:03Z</time>
      </trkpt>
      <trkpt lat="44.2032" lon="5.04748">
        <ele>414</ele>
        <time>2019-09-28T07:21:04Z</time>
      </trkpt>
      <trkpt lat="44.20319" lon="5.04744">
        <ele>414</ele>
        <time>2019-09-28T07:21:06Z</time>
      </trkpt>
      <trkpt lat="44.20318" lon="5.04741">
        <ele>414</ele>
        <time>2019-09-28T07:21:08Z</time>
      </trkpt>
      <trkpt lat="44.20318" lon="5.04739">
        <ele>414</ele>
        <time>2019-09-28T07:21:09Z</time>
      </trkpt>
      <trkpt lat="44.20317" lon="5.04736">
        <ele>414</ele>
        <time>2019-09-28T07:21:10Z</time>
      </trkpt>
      <trkpt lat="44.20317" lon="5.04734">
        <ele>415</ele>
        <time>2019-09-28T07:21:11Z</time>
      </trkpt>
      <trkpt lat="44.20316" lon="5.04732">
        <ele>415</ele>
        <time>2019-09-28T07:21:12Z</time>
      </trkpt>
      <trkpt lat="44.20316" lon="5.0473">
        <ele>415</ele>
        <time>2019-09-28T07:21:13Z</time>
      </trkpt>
      <trkpt lat="44.20315" lon="5.04727">
        <ele>415</ele>
        <time>2019-09-28T07:21:14Z</time>
      </trkpt>
      <trkpt lat="44.20314" lon="5.04725">
        <ele>415</ele>
        <time>2019-09-28T07:21:15Z</time>
      </trkpt>
      <trkpt lat="44.20312" lon="5.04707">
        <ele>416</ele>
        <time>2019-09-28T07:21:23Z</time>
      </trkpt>
      <trkpt lat="44.2031" lon="5.04699">
        <ele>417</ele>
        <time>2019-09-28T07:21:26Z</time>
      </trkpt>
      <trkpt lat="44.2031" lon="5.04697">
        <ele>417</ele>
        <time>2019-09-28T07:21:27Z</time>
      </trkpt>
      <trkpt lat="44.2031" lon="5.04675">
        <ele>417</ele>
        <time>2019-09-28T07:21:37Z</time>
      </trkpt>
      <trkpt lat="44.2031" lon="5.04657">
        <ele>417</ele>
        <time>2019-09-28T07:21:44Z</time>
      </trkpt>
      <trkpt lat="44.2031" lon="5.04654">
        <ele>417</ele>
        <time>2019-09-28T07:21:45Z</time>
      </trkpt>
      <trkpt lat="44.2031" lon="5.04651">
        <ele>417</ele>
        <time>2019-09-28T07:21:46Z</time>
      </trkpt>
      <trkpt lat="44.20309" lon="5.04623">
        <ele>417</ele>
        <time>2019-09-28T07:21:56Z</time>
      </trkpt>
      <trkpt lat="44.2032" lon="5.04602">
        <ele>417</ele>
        <time>2019-09-28T07:22:05Z</time>
      </trkpt>
      <trkpt lat="44.20329" lon="5.04593">
        <ele>416</ele>
        <time>2019-09-28T07:22:11Z</time>
      </trkpt>
      <trkpt lat="44.20327" lon="5.04563">
        <ele>415</ele>
        <time>2019-09-28T07:22:21Z</time>
      </trkpt>
      <trkpt lat="44.20327" lon="5.0456">
        <ele>415</ele>
        <time>2019-09-28T07:22:22Z</time>
      </trkpt>
      <trkpt lat="44.20327" lon="5.04557">
        <ele>415</ele>
        <time>2019-09-28T07:22:23Z</time>
      </trkpt>
      <trkpt lat="44.20325" lon="5.04545">
        <ele>415</ele>
        <time>2019-09-28T07:22:27Z</time>
      </trkpt>
      <trkpt lat="44.20319" lon="5.0452">
        <ele>415</ele>
        <time>2019-09-28T07:22:35Z</time>
      </trkpt>
      <trkpt lat="44.20317" lon="5.04515">
        <ele>415</ele>
        <time>2019-09-28T07:22:37Z</time>
      </trkpt>
      <trkpt lat="44.20317" lon="5.04512">
        <ele>415</ele>
        <time>2019-09-28T07:22:38Z</time>
      </trkpt>
      <trkpt lat="44.20316" lon="5.04509">
        <ele>415</ele>
        <time>2019-09-28T07:22:39Z</time>
      </trkpt>
      <trkpt lat="44.20315" lon="5.04506">
        <ele>415</ele>
        <time>2019-09-28T07:22:40Z</time>
      </trkpt>
      <trkpt lat="44.20315" lon="5.04503">
        <ele>415</ele>
        <time>2019-09-28T07:22:41Z</time>
      </trkpt>
      <trkpt lat="44.20314" lon="5.045">
        <ele>414</ele>
        <time>2019-09-28T07:22:42Z</time>
      </trkpt>
      <trkpt lat="44.20314" lon="5.04497">
        <ele>414</ele>
        <time>2019-09-28T07:22:43Z</time>
      </trkpt>
      <trkpt lat="44.20313" lon="5.04494">
        <ele>414</ele>
        <time>2019-09-28T07:22:44Z</time>
      </trkpt>
      <trkpt lat="44.20313" lon="5.04491">
        <ele>414</ele>
        <time>2019-09-28T07:22:45Z</time>
      </trkpt>
      <trkpt lat="44.20312" lon="5.04489">
        <ele>414</ele>
        <time>2019-09-28T07:22:46Z</time>
      </trkpt>
      <trkpt lat="44.20311" lon="5.04486">
        <ele>414</ele>
        <time>2019-09-28T07:22:47Z</time>
      </trkpt>
      <trkpt lat="44.2031" lon="5.04483">
        <ele>414</ele>
        <time>2019-09-28T07:22:48Z</time>
      </trkpt>
      <trkpt lat="44.20309" lon="5.0448">
        <ele>413</ele>
        <time>2019-09-28T07:22:49Z</time>
      </trkpt>
      <trkpt lat="44.20309" lon="5.04477">
        <ele>413</ele>
        <time>2019-09-28T07:22:50Z</time>
      </trkpt>
      <trkpt lat="44.20308" lon="5.04474">
        <ele>413</ele>
        <time>2019-09-28T07:22:51Z</time>
      </trkpt>
      <trkpt lat="44.20299" lon="5.04442">
        <ele>411</ele>
        <time>2019-09-28T07:23:01Z</time>
      </trkpt>
      <trkpt lat="44.20294" lon="5.04412">
        <ele>410</ele>
        <time>2019-09-28T07:23:10Z</time>
      </trkpt>
      <trkpt lat="44.2029" lon="5.04386">
        <ele>408</ele>
        <time>2019-09-28T07:23:18Z</time>
      </trkpt>
      <trkpt lat="44.2029" lon="5.04351">
        <ele>406</ele>
        <time>2019-09-28T07:23:27Z</time>
      </trkpt>
      <trkpt lat="44.20302" lon="5.04326">
        <ele>405</ele>
        <time>2019-09-28T07:23:36Z</time>
      </trkpt>
      <trkpt lat="44.2031" lon="5.04303">
        <ele>404</ele>
        <time>2019-09-28T07:23:44Z</time>
      </trkpt>
      <trkpt lat="44.20316" lon="5.04274">
        <ele>403</ele>
        <time>2019-09-28T07:23:53Z</time>
      </trkpt>
      <trkpt lat="44.20324" lon="5.0424">
        <ele>402</ele>
        <time>2019-09-28T07:24:03Z</time>
      </trkpt>
      <trkpt lat="44.20329" lon="5.0421">
        <ele>400</ele>
        <time>2019-09-28T07:24:12Z</time>
      </trkpt>
      <trkpt lat="44.20336" lon="5.04185">
        <ele>400</ele>
        <time>2019-09-28T07:24:21Z</time>
      </trkpt>
      <trkpt lat="44.20338" lon="5.04183">
        <ele>400</ele>
        <time>2019-09-28T07:24:22Z</time>
      </trkpt>
      <trkpt lat="44.20359" lon="5.04169">
        <ele>401</ele>
        <time>2019-09-28T07:24:33Z</time>
      </trkpt>
      <trkpt lat="44.20379" lon="5.04159">
        <ele>402</ele>
        <time>2019-09-28T07:24:44Z</time>
      </trkpt>
      <trkpt lat="44.20381" lon="5.04158">
        <ele>402</ele>
        <time>2019-09-28T07:24:45Z</time>
      </trkpt>
      <trkpt lat="44.20395" lon="5.04135">
        <ele>400</ele>
        <time>2019-09-28T07:24:54Z</time>
      </trkpt>
      <trkpt lat="44.20401" lon="5.04118">
        <ele>400</ele>
        <time>2019-09-28T07:25:04Z</time>
      </trkpt>
      <trkpt lat="44.20403" lon="5.04113">
        <ele>400</ele>
        <time>2019-09-28T07:25:07Z</time>
      </trkpt>
      <trkpt lat="44.20404" lon="5.04112">
        <ele>400</ele>
        <time>2019-09-28T07:25:08Z</time>
      </trkpt>
      <trkpt lat="44.20405" lon="5.04112">
        <ele>400</ele>
        <time>2019-09-28T07:25:09Z</time>
      </trkpt>
      <trkpt lat="44.20406" lon="5.0411">
        <ele>400</ele>
        <time>2019-09-28T07:25:10Z</time>
      </trkpt>
      <trkpt lat="44.20407" lon="5.04108">
        <ele>400</ele>
        <time>2019-09-28T07:25:11Z</time>
      </trkpt>
      <trkpt lat="44.20409" lon="5.04105">
        <ele>400</ele>
        <time>2019-09-28T07:25:12Z</time>
      </trkpt>
      <trkpt lat="44.2041" lon="5.04102">
        <ele>400</ele>
        <time>2019-09-28T07:25:13Z</time>
      </trkpt>
      <trkpt lat="44.2041" lon="5.041">
        <ele>400</ele>
        <time>2019-09-28T07:25:14Z</time>
      </trkpt>
      <trkpt lat="44.20416" lon="5.04076">
        <ele>400</ele>
        <time>2019-09-28T07:25:22Z</time>
      </trkpt>
      <trkpt lat="44.20422" lon="5.04054">
        <ele>401</ele>
        <time>2019-09-28T07:25:30Z</time>
      </trkpt>
      <trkpt lat="44.20423" lon="5.04051">
        <ele>401</ele>
        <time>2019-09-28T07:25:31Z</time>
      </trkpt>
      <trkpt lat="44.20423" lon="5.04049">
        <ele>401</ele>
        <time>2019-09-28T07:25:32Z</time>
      </trkpt>
      <trkpt lat="44.20422" lon="5.04033">
        <ele>403</ele>
        <time>2019-09-28T07:25:41Z</time>
      </trkpt>
      <trkpt lat="44.20421" lon="5.04031">
        <ele>403</ele>
        <time>2019-09-28T07:25:42Z</time>
      </trkpt>
      <trkpt lat="44.20419" lon="5.0403">
        <ele>403</ele>
        <time>2019-09-28T07:25:43Z</time>
      </trkpt>
      <trkpt lat="44.20418" lon="5.04029">
        <ele>403</ele>
        <time>2019-09-28T07:25:44Z</time>
      </trkpt>
      <trkpt lat="44.20417" lon="5.04027">
        <ele>403</ele>
        <time>2019-09-28T07:25:45Z</time>
      </trkpt>
      <trkpt lat="44.20416" lon="5.04025">
        <ele>403</ele>
        <time>2019-09-28T07:25:46Z</time>
      </trkpt>
      <trkpt lat="44.20415" lon="5.04024">
        <ele>403</ele>
        <time>2019-09-28T07:25:47Z</time>
      </trkpt>
      <trkpt lat="44.20412" lon="5.04018">
        <ele>404</ele>
        <time>2019-09-28T07:25:50Z</time>
      </trkpt>
      <trkpt lat="44.20411" lon="5.04016">
        <ele>404</ele>
        <time>2019-09-28T07:25:51Z</time>
      </trkpt>
      <trkpt lat="44.20411" lon="5.04014">
        <ele>404</ele>
        <time>2019-09-28T07:25:52Z</time>
      </trkpt>
      <trkpt lat="44.2041" lon="5.04012">
        <ele>404</ele>
        <time>2019-09-28T07:25:53Z</time>
      </trkpt>
      <trkpt lat="44.20409" lon="5.04011">
        <ele>404</ele>
        <time>2019-09-28T07:25:54Z</time>
      </trkpt>
      <trkpt lat="44.20405" lon="5.04004">
        <ele>404</ele>
        <time>2019-09-28T07:25:59Z</time>
      </trkpt>
      <trkpt lat="44.20405" lon="5.04002">
        <ele>405</ele>
        <time>2019-09-28T07:26:00Z</time>
      </trkpt>
      <trkpt lat="44.20403" lon="5.03977">
        <ele>406</ele>
        <time>2019-09-28T07:26:10Z</time>
      </trkpt>
      <trkpt lat="44.20407" lon="5.03959">
        <ele>407</ele>
        <time>2019-09-28T07:26:20Z</time>
      </trkpt>
      <trkpt lat="44.20409" lon="5.03952">
        <ele>408</ele>
        <time>2019-09-28T07:26:25Z</time>
      </trkpt>
      <trkpt lat="44.20412" lon="5.03943">
        <ele>409</ele>
        <time>2019-09-28T07:26:31Z</time>
      </trkpt>
      <trkpt lat="44.20413" lon="5.03939">
        <ele>409</ele>
        <time>2019-09-28T07:26:32Z</time>
      </trkpt>
      <trkpt lat="44.20414" lon="5.03936">
        <ele>409</ele>
        <time>2019-09-28T07:26:33Z</time>
      </trkpt>
      <trkpt lat="44.20424" lon="5.03912">
        <ele>411</ele>
        <time>2019-09-28T07:26:44Z</time>
      </trkpt>
      <trkpt lat="44.20437" lon="5.039">
        <ele>414</ele>
        <time>2019-09-28T07:26:54Z</time>
      </trkpt>
      <trkpt lat="44.20457" lon="5.03882">
        <ele>417</ele>
        <time>2019-09-28T07:27:07Z</time>
      </trkpt>
      <trkpt lat="44.2047" lon="5.03871">
        <ele>419</ele>
        <time>2019-09-28T07:27:15Z</time>
      </trkpt>
      <trkpt lat="44.20485" lon="5.03863">
        <ele>421</ele>
        <time>2019-09-28T07:27:24Z</time>
      </trkpt>
      <trkpt lat="44.20497" lon="5.03856">
        <ele>422</ele>
        <time>2019-09-28T07:27:32Z</time>
      </trkpt>
      <trkpt lat="44.20499" lon="5.03854">
        <ele>422</ele>
        <time>2019-09-28T07:27:33Z</time>
      </trkpt>
      <trkpt lat="44.20511" lon="5.03847">
        <ele>423</ele>
        <time>2019-09-28T07:27:41Z</time>
      </trkpt>
      <trkpt lat="44.20523" lon="5.03834">
        <ele>422</ele>
        <time>2019-09-28T07:27:50Z</time>
      </trkpt>
      <trkpt lat="44.20527" lon="5.03832">
        <ele>422</ele>
        <time>2019-09-28T07:27:53Z</time>
      </trkpt>
      <trkpt lat="44.20528" lon="5.03831">
        <ele>422</ele>
        <time>2019-09-28T07:27:54Z</time>
      </trkpt>
      <trkpt lat="44.2053" lon="5.03829">
        <ele>422</ele>
        <time>2019-09-28T07:27:55Z</time>
      </trkpt>
      <trkpt lat="44.20532" lon="5.03827">
        <ele>422</ele>
        <time>2019-09-28T07:27:56Z</time>
      </trkpt>
      <trkpt lat="44.20533" lon="5.03825">
        <ele>422</ele>
        <time>2019-09-28T07:27:57Z</time>
      </trkpt>
      <trkpt lat="44.20534" lon="5.03823">
        <ele>422</ele>
        <time>2019-09-28T07:27:58Z</time>
      </trkpt>
      <trkpt lat="44.20536" lon="5.03821">
        <ele>422</ele>
        <time>2019-09-28T07:27:59Z</time>
      </trkpt>
      <trkpt lat="44.20538" lon="5.03819">
        <ele>421</ele>
        <time>2019-09-28T07:28:00Z</time>
      </trkpt>
      <trkpt lat="44.20548" lon="5.03793">
        <ele>419</ele>
        <time>2019-09-28T07:28:09Z</time>
      </trkpt>
      <trkpt lat="44.2055" lon="5.03767">
        <ele>419</ele>
        <time>2019-09-28T07:28:17Z</time>
      </trkpt>
      <trkpt lat="44.20553" lon="5.0373">
        <ele>422</ele>
        <time>2019-09-28T07:28:28Z</time>
      </trkpt>
      <trkpt lat="44.20566" lon="5.03703">
        <ele>424</ele>
        <time>2019-09-28T07:28:39Z</time>
      </trkpt>
      <trkpt lat="44.20584" lon="5.03688">
        <ele>425</ele>
        <time>2019-09-28T07:28:48Z</time>
      </trkpt>
      <trkpt lat="44.20601" lon="5.03676">
        <ele>423</ele>
        <time>2019-09-28T07:28:56Z</time>
      </trkpt>
      <trkpt lat="44.20623" lon="5.03663">
        <ele>423</ele>
        <time>2019-09-28T07:29:06Z</time>
      </trkpt>
      <trkpt lat="44.20642" lon="5.03641">
        <ele>422</ele>
        <time>2019-09-28T07:29:18Z</time>
      </trkpt>
      <trkpt lat="44.20673" lon="5.03629">
        <ele>420</ele>
        <time>2019-09-28T07:29:32Z</time>
      </trkpt>
      <trkpt lat="44.20703" lon="5.03631">
        <ele>417</ele>
        <time>2019-09-28T07:29:44Z</time>
      </trkpt>
      <trkpt lat="44.20718" lon="5.03632">
        <ele>416</ele>
        <time>2019-09-28T07:29:50Z</time>
      </trkpt>
      <trkpt lat="44.20731" lon="5.03629">
        <ele>415</ele>
        <time>2019-09-28T07:29:57Z</time>
      </trkpt>
      <trkpt lat="44.20762" lon="5.0362">
        <ele>410</ele>
        <time>2019-09-28T07:30:09Z</time>
      </trkpt>
      <trkpt lat="44.20778" lon="5.03618">
        <ele>408</ele>
        <time>2019-09-28T07:30:15Z</time>
      </trkpt>
      <trkpt lat="44.20783" lon="5.03618">
        <ele>408</ele>
        <time>2019-09-28T07:30:17Z</time>
      </trkpt>
      <trkpt lat="44.20785" lon="5.03619">
        <ele>408</ele>
        <time>2019-09-28T07:30:18Z</time>
      </trkpt>
      <trkpt lat="44.20787" lon="5.03618">
        <ele>408</ele>
        <time>2019-09-28T07:30:19Z</time>
      </trkpt>
      <trkpt lat="44.20789" lon="5.03618">
        <ele>408</ele>
        <time>2019-09-28T07:30:20Z</time>
      </trkpt>
      <trkpt lat="44.20791" lon="5.03618">
        <ele>408</ele>
        <time>2019-09-28T07:30:21Z</time>
      </trkpt>
      <trkpt lat="44.20794" lon="5.03618">
        <ele>408</ele>
        <time>2019-09-28T07:30:22Z</time>
      </trkpt>
      <trkpt lat="44.20796" lon="5.03618">
        <ele>407</ele>
        <time>2019-09-28T07:30:23Z</time>
      </trkpt>
      <trkpt lat="44.20799" lon="5.03618">
        <ele>407</ele>
        <time>2019-09-28T07:30:24Z</time>
      </trkpt>
      <trkpt lat="44.20801" lon="5.03619">
        <ele>407</ele>
        <time>2019-09-28T07:30:25Z</time>
      </trkpt>
      <trkpt lat="44.20824" lon="5.03621">
        <ele>405</ele>
        <time>2019-09-28T07:30:34Z</time>
      </trkpt>
      <trkpt lat="44.20858" lon="5.03621">
        <ele>402</ele>
        <time>2019-09-28T07:30:46Z</time>
      </trkpt>
      <trkpt lat="44.20883" lon="5.03617">
        <ele>401</ele>
        <time>2019-09-28T07:30:55Z</time>
      </trkpt>
      <trkpt lat="44.20912" lon="5.03611">
        <ele>399</ele>
        <time>2019-09-28T07:31:06Z</time>
      </trkpt>
      <trkpt lat="44.20941" lon="5.03603">
        <ele>397</ele>
        <time>2019-09-28T07:31:18Z</time>
      </trkpt>
      <trkpt lat="44.20958" lon="5.03604">
        <ele>398</ele>
        <time>2019-09-28T07:31:25Z</time>
      </trkpt>
      <trkpt lat="44.20977" lon="5.03599">
        <ele>399</ele>
        <time>2019-09-28T07:31:34Z</time>
      </trkpt>
      <trkpt lat="44.20994" lon="5.0359">
        <ele>398</ele>
        <time>2019-09-28T07:31:43Z</time>
      </trkpt>
      <trkpt lat="44.21016" lon="5.03578">
        <ele>397</ele>
        <time>2019-09-28T07:31:53Z</time>
      </trkpt>
      <trkpt lat="44.21025" lon="5.03572">
        <ele>396</ele>
        <time>2019-09-28T07:31:57Z</time>
      </trkpt>
      <trkpt lat="44.21045" lon="5.03561">
        <ele>392</ele>
        <time>2019-09-28T07:32:06Z</time>
      </trkpt>
      <trkpt lat="44.21069" lon="5.03548">
        <ele>390</ele>
        <time>2019-09-28T07:32:16Z</time>
      </trkpt>
      <trkpt lat="44.21096" lon="5.03533">
        <ele>388</ele>
        <time>2019-09-28T07:32:26Z</time>
      </trkpt>
      <trkpt lat="44.21129" lon="5.03518">
        <ele>383</ele>
        <time>2019-09-28T07:32:38Z</time>
      </trkpt>
      <trkpt lat="44.21148" lon="5.03527">
        <ele>382</ele>
        <time>2019-09-28T07:32:45Z</time>
      </trkpt>
      <trkpt lat="44.21169" lon="5.03546">
        <ele>381</ele>
        <time>2019-09-28T07:32:54Z</time>
      </trkpt>
      <trkpt lat="44.21192" lon="5.0357">
        <ele>376</ele>
        <time>2019-09-28T07:33:05Z</time>
      </trkpt>
      <trkpt lat="44.21212" lon="5.03583">
        <ele>371</ele>
        <time>2019-09-28T07:33:14Z</time>
      </trkpt>
      <trkpt lat="44.21236" lon="5.03579">
        <ele>368</ele>
        <time>2019-09-28T07:33:23Z</time>
      </trkpt>
      <trkpt lat="44.21257" lon="5.03564">
        <ele>367</ele>
        <time>2019-09-28T07:33:32Z</time>
      </trkpt>
      <trkpt lat="44.21276" lon="5.03543">
        <ele>363</ele>
        <time>2019-09-28T07:33:42Z</time>
      </trkpt>
      <trkpt lat="44.21292" lon="5.03525">
        <ele>362</ele>
        <time>2019-09-28T07:33:51Z</time>
      </trkpt>
      <trkpt lat="44.21303" lon="5.03508">
        <ele>360</ele>
        <time>2019-09-28T07:33:58Z</time>
      </trkpt>
      <trkpt lat="44.21304" lon="5.03505">
        <ele>360</ele>
        <time>2019-09-28T07:33:59Z</time>
      </trkpt>
      <trkpt lat="44.21304" lon="5.03502">
        <ele>360</ele>
        <time>2019-09-28T07:34:00Z</time>
      </trkpt>
      <trkpt lat="44.21301" lon="5.03488">
        <ele>361</ele>
        <time>2019-09-28T07:34:06Z</time>
      </trkpt>
      <trkpt lat="44.21298" lon="5.03479">
        <ele>361</ele>
        <time>2019-09-28T07:34:10Z</time>
      </trkpt>
      <trkpt lat="44.21299" lon="5.03474">
        <ele>361</ele>
        <time>2019-09-28T07:34:12Z</time>
      </trkpt>
      <trkpt lat="44.213" lon="5.03472">
        <ele>361</ele>
        <time>2019-09-28T07:34:13Z</time>
      </trkpt>
      <trkpt lat="44.21301" lon="5.03469">
        <ele>361</ele>
        <time>2019-09-28T07:34:14Z</time>
      </trkpt>
      <trkpt lat="44.21302" lon="5.03467">
        <ele>361</ele>
        <time>2019-09-28T07:34:15Z</time>
      </trkpt>
      <trkpt lat="44.21303" lon="5.03464">
        <ele>361</ele>
        <time>2019-09-28T07:34:16Z</time>
      </trkpt>
      <trkpt lat="44.21308" lon="5.03456">
        <ele>361</ele>
        <time>2019-09-28T07:34:20Z</time>
      </trkpt>
      <trkpt lat="44.21318" lon="5.03434">
        <ele>360</ele>
        <time>2019-09-28T07:34:29Z</time>
      </trkpt>
      <trkpt lat="44.21327" lon="5.03417">
        <ele>358</ele>
        <time>2019-09-28T07:34:37Z</time>
      </trkpt>
      <trkpt lat="44.21333" lon="5.03389">
        <ele>354</ele>
        <time>2019-09-28T07:34:45Z</time>
      </trkpt>
      <trkpt lat="44.2133" lon="5.03365">
        <ele>352</ele>
        <time>2019-09-28T07:34:54Z</time>
      </trkpt>
      <trkpt lat="44.21331" lon="5.03359">
        <ele>351</ele>
        <time>2019-09-28T07:34:56Z</time>
      </trkpt>
      <trkpt lat="44.21337" lon="5.0333">
        <ele>348</ele>
        <time>2019-09-28T07:35:05Z</time>
      </trkpt>
      <trkpt lat="44.21344" lon="5.03304">
        <ele>345</ele>
        <time>2019-09-28T07:35:13Z</time>
      </trkpt>
      <trkpt lat="44.2135" lon="5.03272">
        <ele>340</ele>
        <time>2019-09-28T07:35:23Z</time>
      </trkpt>
      <trkpt lat="44.21356" lon="5.03245">
        <ele>336</ele>
        <time>2019-09-28T07:35:32Z</time>
      </trkpt>
      <trkpt lat="44.21365" lon="5.03211">
        <ele>331</ele>
        <time>2019-09-28T07:35:42Z</time>
      </trkpt>
      <trkpt lat="44.21366" lon="5.03207">
        <ele>331</ele>
        <time>2019-09-28T07:35:43Z</time>
      </trkpt>
      <trkpt lat="44.21372" lon="5.03187">
        <ele>328</ele>
        <time>2019-09-28T07:35:50Z</time>
      </trkpt>
      <trkpt lat="44.21373" lon="5.03168">
        <ele>326</ele>
        <time>2019-09-28T07:35:57Z</time>
      </trkpt>
      <trkpt lat="44.21369" lon="5.03149">
        <ele>325</ele>
        <time>2019-09-28T07:36:04Z</time>
      </trkpt>
      <trkpt lat="44.21367" lon="5.03139">
        <ele>324</ele>
        <time>2019-09-28T07:36:08Z</time>
      </trkpt>
      <trkpt lat="44.21364" lon="5.03132">
        <ele>324</ele>
        <time>2019-09-28T07:36:11Z</time>
      </trkpt>
      <trkpt lat="44.21363" lon="5.0313">
        <ele>323</ele>
        <time>2019-09-28T07:36:12Z</time>
      </trkpt>
      <trkpt lat="44.21363" lon="5.03127">
        <ele>323</ele>
        <time>2019-09-28T07:36:13Z</time>
      </trkpt>
      <trkpt lat="44.21362" lon="5.03125">
        <ele>323</ele>
        <time>2019-09-28T07:36:14Z</time>
      </trkpt>
      <trkpt lat="44.21361" lon="5.03121">
        <ele>322</ele>
        <time>2019-09-28T07:36:15Z</time>
      </trkpt>
      <trkpt lat="44.2136" lon="5.03119">
        <ele>322</ele>
        <time>2019-09-28T07:36:16Z</time>
      </trkpt>
      <trkpt lat="44.21359" lon="5.03116">
        <ele>322</ele>
        <time>2019-09-28T07:36:17Z</time>
      </trkpt>
      <trkpt lat="44.21358" lon="5.03114">
        <ele>322</ele>
        <time>2019-09-28T07:36:18Z</time>
      </trkpt>
      <trkpt lat="44.21356" lon="5.03111">
        <ele>321</ele>
        <time>2019-09-28T07:36:19Z</time>
      </trkpt>
      <trkpt lat="44.21355" lon="5.03109">
        <ele>321</ele>
        <time>2019-09-28T07:36:20Z</time>
      </trkpt>
      <trkpt lat="44.21354" lon="5.03107">
        <ele>320</ele>
        <time>2019-09-28T07:36:21Z</time>
      </trkpt>
      <trkpt lat="44.21352" lon="5.03106">
        <ele>320</ele>
        <time>2019-09-28T07:36:22Z</time>
      </trkpt>
      <trkpt lat="44.21351" lon="5.03104">
        <ele>320</ele>
        <time>2019-09-28T07:36:23Z</time>
      </trkpt>
      <trkpt lat="44.21342" lon="5.03091">
        <ele>317</ele>
        <time>2019-09-28T07:36:30Z</time>
      </trkpt>
      <trkpt lat="44.21339" lon="5.03085">
        <ele>316</ele>
        <time>2019-09-28T07:36:33Z</time>
      </trkpt>
      <trkpt lat="44.21337" lon="5.03082">
        <ele>315</ele>
        <time>2019-09-28T07:36:35Z</time>
      </trkpt>
      <trkpt lat="44.21335" lon="5.03081">
        <ele>314</ele>
        <time>2019-09-28T07:36:36Z</time>
      </trkpt>
      <trkpt lat="44.21332" lon="5.03077">
        <ele>313</ele>
        <time>2019-09-28T07:36:39Z</time>
      </trkpt>
      <trkpt lat="44.21331" lon="5.03075">
        <ele>312</ele>
        <time>2019-09-28T07:36:40Z</time>
      </trkpt>
      <trkpt lat="44.2133" lon="5.03073">
        <ele>311</ele>
        <time>2019-09-28T07:36:41Z</time>
      </trkpt>
      <trkpt lat="44.21327" lon="5.03067">
        <ele>309</ele>
        <time>2019-09-28T07:36:44Z</time>
      </trkpt>
      <trkpt lat="44.21325" lon="5.03066">
        <ele>309</ele>
        <time>2019-09-28T07:36:45Z</time>
      </trkpt>
      <trkpt lat="44.21324" lon="5.03064">
        <ele>308</ele>
        <time>2019-09-28T07:36:46Z</time>
      </trkpt>
      <trkpt lat="44.21321" lon="5.03063">
        <ele>308</ele>
        <time>2019-09-28T07:36:47Z</time>
      </trkpt>
      <trkpt lat="44.21319" lon="5.03062">
        <ele>307</ele>
        <time>2019-09-28T07:36:48Z</time>
      </trkpt>
      <trkpt lat="44.21309" lon="5.03058">
        <ele>307</ele>
        <time>2019-09-28T07:36:53Z</time>
      </trkpt>
      <trkpt lat="44.21307" lon="5.03057">
        <ele>307</ele>
        <time>2019-09-28T07:36:54Z</time>
      </trkpt>
      <trkpt lat="44.21305" lon="5.03056">
        <ele>306</ele>
        <time>2019-09-28T07:36:55Z</time>
      </trkpt>
      <trkpt lat="44.21304" lon="5.03054">
        <ele>306</ele>
        <time>2019-09-28T07:36:56Z</time>
      </trkpt>
      <trkpt lat="44.21304" lon="5.03052">
        <ele>305</ele>
        <time>2019-09-28T07:36:57Z</time>
      </trkpt>
      <trkpt lat="44.21305" lon="5.03051">
        <ele>305</ele>
        <time>2019-09-28T07:36:58Z</time>
      </trkpt>
      <trkpt lat="44.21318" lon="5.03043">
        <ele>302</ele>
        <time>2019-09-28T07:37:06Z</time>
      </trkpt>
      <trkpt lat="44.2132" lon="5.03042">
        <ele>301</ele>
        <time>2019-09-28T07:37:07Z</time>
      </trkpt>
      <trkpt lat="44.21322" lon="5.0304">
        <ele>301</ele>
        <time>2019-09-28T07:37:08Z</time>
      </trkpt>
      <trkpt lat="44.21323" lon="5.03038">
        <ele>301</ele>
        <time>2019-09-28T07:37:09Z</time>
      </trkpt>
      <trkpt lat="44.21325" lon="5.03037">
        <ele>300</ele>
        <time>2019-09-28T07:37:10Z</time>
      </trkpt>
      <trkpt lat="44.21327" lon="5.03037">
        <ele>300</ele>
        <time>2019-09-28T07:37:11Z</time>
      </trkpt>
      <trkpt lat="44.21328" lon="5.03037">
        <ele>300</ele>
        <time>2019-09-28T07:37:12Z</time>
      </trkpt>
      <trkpt lat="44.2133" lon="5.03037">
        <ele>300</ele>
        <time>2019-09-28T07:37:13Z</time>
      </trkpt>
      <trkpt lat="44.21332" lon="5.03037">
        <ele>300</ele>
        <time>2019-09-28T07:37:14Z</time>
      </trkpt>
      <trkpt lat="44.21334" lon="5.03038">
        <ele>300</ele>
        <time>2019-09-28T07:37:15Z</time>
      </trkpt>
      <trkpt lat="44.21336" lon="5.03038">
        <ele>301</ele>
        <time>2019-09-28T07:37:16Z</time>
      </trkpt>
      <trkpt lat="44.21338" lon="5.03038">
        <ele>301</ele>
        <time>2019-09-28T07:37:17Z</time>
      </trkpt>
      <trkpt lat="44.21339" lon="5.03039">
        <ele>301</ele>
        <time>2019-09-28T07:37:18Z</time>
      </trkpt>
      <trkpt lat="44.21341" lon="5.03039">
        <ele>301</ele>
        <time>2019-09-28T07:37:19Z</time>
      </trkpt>
      <trkpt lat="44.21343" lon="5.0304">
        <ele>301</ele>
        <time>2019-09-28T07:37:20Z</time>
      </trkpt>
      <trkpt lat="44.21344" lon="5.0304">
        <ele>301</ele>
        <time>2019-09-28T07:37:21Z</time>
      </trkpt>
      <trkpt lat="44.21346" lon="5.03041">
        <ele>302</ele>
        <time>2019-09-28T07:37:22Z</time>
      </trkpt>
      <trkpt lat="44.21348" lon="5.03042">
        <ele>302</ele>
        <time>2019-09-28T07:37:23Z</time>
      </trkpt>
      <trkpt lat="44.21349" lon="5.03042">
        <ele>302</ele>
        <time>2019-09-28T07:37:24Z</time>
      </trkpt>
      <trkpt lat="44.21351" lon="5.03043">
        <ele>302</ele>
        <time>2019-09-28T07:37:25Z</time>
      </trkpt>
      <trkpt lat="44.21352" lon="5.03044">
        <ele>302</ele>
        <time>2019-09-28T07:37:26Z</time>
      </trkpt>
      <trkpt lat="44.2137" lon="5.03053">
        <ele>305</ele>
        <time>2019-09-28T07:37:36Z</time>
      </trkpt>
      <trkpt lat="44.21387" lon="5.03065">
        <ele>308</ele>
        <time>2019-09-28T07:37:48Z</time>
      </trkpt>
      <trkpt lat="44.21399" lon="5.03073">
        <ele>312</ele>
        <time>2019-09-28T07:37:58Z</time>
      </trkpt>
      <trkpt lat="44.21412" lon="5.03082">
        <ele>316</ele>
        <time>2019-09-28T07:38:06Z</time>
      </trkpt>
      <trkpt lat="44.21421" lon="5.03089">
        <ele>317</ele>
        <time>2019-09-28T07:38:14Z</time>
      </trkpt>
      <trkpt lat="44.21437" lon="5.03096">
        <ele>316</ele>
        <time>2019-09-28T07:38:24Z</time>
      </trkpt>
      <trkpt lat="44.21439" lon="5.03097">
        <ele>315</ele>
        <time>2019-09-28T07:38:27Z</time>
      </trkpt>
      <trkpt lat="44.2144" lon="5.03096">
        <ele>315</ele>
        <time>2019-09-28T07:38:28Z</time>
      </trkpt>
      <trkpt lat="44.21441" lon="5.03094">
        <ele>315</ele>
        <time>2019-09-28T07:38:29Z</time>
      </trkpt>
      <trkpt lat="44.21441" lon="5.03092">
        <ele>315</ele>
        <time>2019-09-28T07:38:30Z</time>
      </trkpt>
      <trkpt lat="44.21441" lon="5.03089">
        <ele>315</ele>
        <time>2019-09-28T07:38:31Z</time>
      </trkpt>
      <trkpt lat="44.21441" lon="5.03087">
        <ele>315</ele>
        <time>2019-09-28T07:38:32Z</time>
      </trkpt>
      <trkpt lat="44.21439" lon="5.0306">
        <ele>315</ele>
        <time>2019-09-28T07:38:44Z</time>
      </trkpt>
      <trkpt lat="44.21437" lon="5.03041">
        <ele>314</ele>
        <time>2019-09-28T07:38:53Z</time>
      </trkpt>
      <trkpt lat="44.21435" lon="5.03014">
        <ele>314</ele>
        <time>2019-09-28T07:39:03Z</time>
      </trkpt>
      <trkpt lat="44.21432" lon="5.03002">
        <ele>315</ele>
        <time>2019-09-28T07:39:08Z</time>
      </trkpt>
      <trkpt lat="44.21428" lon="5.02997">
        <ele>316</ele>
        <time>2019-09-28T07:39:11Z</time>
      </trkpt>
      <trkpt lat="44.21427" lon="5.02996">
        <ele>316</ele>
        <time>2019-09-28T07:39:12Z</time>
      </trkpt>
      <trkpt lat="44.21425" lon="5.02994">
        <ele>317</ele>
        <time>2019-09-28T07:39:13Z</time>
      </trkpt>
      <trkpt lat="44.21424" lon="5.02994">
        <ele>317</ele>
        <time>2019-09-28T07:39:14Z</time>
      </trkpt>
      <trkpt lat="44.21423" lon="5.02994">
        <ele>317</ele>
        <time>2019-09-28T07:39:15Z</time>
      </trkpt>
      <trkpt lat="44.21416" lon="5.02992">
        <ele>319</ele>
        <time>2019-09-28T07:39:19Z</time>
      </trkpt>
      <trkpt lat="44.21415" lon="5.02991">
        <ele>318</ele>
        <time>2019-09-28T07:39:20Z</time>
      </trkpt>
      <trkpt lat="44.21397" lon="5.02975">
        <ele>317</ele>
        <time>2019-09-28T07:39:31Z</time>
      </trkpt>
      <trkpt lat="44.21389" lon="5.02948">
        <ele>318</ele>
        <time>2019-09-28T07:39:42Z</time>
      </trkpt>
      <trkpt lat="44.21383" lon="5.0292">
        <ele>319</ele>
        <time>2019-09-28T07:39:52Z</time>
      </trkpt>
      <trkpt lat="44.2138" lon="5.02914">
        <ele>319</ele>
        <time>2019-09-28T07:39:54Z</time>
      </trkpt>
      <trkpt lat="44.21364" lon="5.02892">
        <ele>318</ele>
        <time>2019-09-28T07:40:04Z</time>
      </trkpt>
      <trkpt lat="44.21361" lon="5.02881">
        <ele>319</ele>
        <time>2019-09-28T07:40:10Z</time>
      </trkpt>
      <trkpt lat="44.21362" lon="5.0288">
        <ele>319</ele>
        <time>2019-09-28T07:40:11Z</time>
      </trkpt>
      <trkpt lat="44.21363" lon="5.02879">
        <ele>319</ele>
        <time>2019-09-28T07:40:12Z</time>
      </trkpt>
      <trkpt lat="44.21364" lon="5.02878">
        <ele>320</ele>
        <time>2019-09-28T07:40:13Z</time>
      </trkpt>
      <trkpt lat="44.21365" lon="5.02878">
        <ele>320</ele>
        <time>2019-09-28T07:40:14Z</time>
      </trkpt>
      <trkpt lat="44.21367" lon="5.02878">
        <ele>320</ele>
        <time>2019-09-28T07:40:15Z</time>
      </trkpt>
      <trkpt lat="44.21368" lon="5.02878">
        <ele>320</ele>
        <time>2019-09-28T07:40:16Z</time>
      </trkpt>
      <trkpt lat="44.2137" lon="5.02878">
        <ele>321</ele>
        <time>2019-09-28T07:40:17Z</time>
      </trkpt>
      <trkpt lat="44.2139" lon="5.02881">
        <ele>324</ele>
        <time>2019-09-28T07:40:28Z</time>
      </trkpt>
      <trkpt lat="44.21413" lon="5.02888">
        <ele>328</ele>
        <time>2019-09-28T07:40:40Z</time>
      </trkpt>
      <trkpt lat="44.2143" lon="5.0288">
        <ele>328</ele>
        <time>2019-09-28T07:40:51Z</time>
      </trkpt>
      <trkpt lat="44.2143" lon="5.02858">
        <ele>330</ele>
        <time>2019-09-28T07:41:00Z</time>
      </trkpt>
      <trkpt lat="44.21426" lon="5.0285">
        <ele>332</ele>
        <time>2019-09-28T07:41:04Z</time>
      </trkpt>
      <trkpt lat="44.21425" lon="5.02848">
        <ele>332</ele>
        <time>2019-09-28T07:41:05Z</time>
      </trkpt>
      <trkpt lat="44.2142" lon="5.02832">
        <ele>335</ele>
        <time>2019-09-28T07:41:13Z</time>
      </trkpt>
      <trkpt lat="44.21419" lon="5.0283">
        <ele>335</ele>
        <time>2019-09-28T07:41:14Z</time>
      </trkpt>
      <trkpt lat="44.21419" lon="5.02827">
        <ele>335</ele>
        <time>2019-09-28T07:41:15Z</time>
      </trkpt>
      <trkpt lat="44.21418" lon="5.02824">
        <ele>336</ele>
        <time>2019-09-28T07:41:16Z</time>
      </trkpt>
      <trkpt lat="44.21418" lon="5.02821">
        <ele>336</ele>
        <time>2019-09-28T07:41:17Z</time>
      </trkpt>
      <trkpt lat="44.21412" lon="5.02794">
        <ele>338</ele>
        <time>2019-09-28T07:41:26Z</time>
      </trkpt>
      <trkpt lat="44.214" lon="5.02774">
        <ele>340</ele>
        <time>2019-09-28T07:41:35Z</time>
      </trkpt>
      <trkpt lat="44.21391" lon="5.02759">
        <ele>342</ele>
        <time>2019-09-28T07:41:43Z</time>
      </trkpt>
      <trkpt lat="44.21372" lon="5.02735">
        <ele>342</ele>
        <time>2019-09-28T07:41:56Z</time>
      </trkpt>
      <trkpt lat="44.21368" lon="5.02726">
        <ele>343</ele>
        <time>2019-09-28T07:42:00Z</time>
      </trkpt>
      <trkpt lat="44.21367" lon="5.02724">
        <ele>343</ele>
        <time>2019-09-28T07:42:01Z</time>
      </trkpt>
      <trkpt lat="44.21366" lon="5.02723">
        <ele>343</ele>
        <time>2019-09-28T07:42:02Z</time>
      </trkpt>
      <trkpt lat="44.21351" lon="5.027">
        <ele>345</ele>
        <time>2019-09-28T07:42:15Z</time>
      </trkpt>
      <trkpt lat="44.21344" lon="5.02691">
        <ele>346</ele>
        <time>2019-09-28T07:42:23Z</time>
      </trkpt>
      <trkpt lat="44.21343" lon="5.0269">
        <ele>346</ele>
        <time>2019-09-28T07:42:24Z</time>
      </trkpt>
      <trkpt lat="44.21341" lon="5.02681">
        <ele>348</ele>
        <time>2019-09-28T07:42:33Z</time>
      </trkpt>
      <trkpt lat="44.21347" lon="5.0267">
        <ele>352</ele>
        <time>2019-09-28T07:42:41Z</time>
      </trkpt>
      <trkpt lat="44.21348" lon="5.02669">
        <ele>353</ele>
        <time>2019-09-28T07:42:42Z</time>
      </trkpt>
      <trkpt lat="44.21358" lon="5.02667">
        <ele>356</ele>
        <time>2019-09-28T07:42:50Z</time>
      </trkpt>
      <trkpt lat="44.21368" lon="5.02662">
        <ele>359</ele>
        <time>2019-09-28T07:43:00Z</time>
      </trkpt>
      <trkpt lat="44.2137" lon="5.02662">
        <ele>359</ele>
        <time>2019-09-28T07:43:02Z</time>
      </trkpt>
      <trkpt lat="44.21372" lon="5.02661">
        <ele>360</ele>
        <time>2019-09-28T07:43:04Z</time>
      </trkpt>
      <trkpt lat="44.21385" lon="5.02656">
        <ele>363</ele>
        <time>2019-09-28T07:43:14Z</time>
      </trkpt>
      <trkpt lat="44.21394" lon="5.02659">
        <ele>365</ele>
        <time>2019-09-28T07:43:23Z</time>
      </trkpt>
      <trkpt lat="44.21402" lon="5.02654">
        <ele>368</ele>
        <time>2019-09-28T07:43:33Z</time>
      </trkpt>
      <trkpt lat="44.21413" lon="5.0265">
        <ele>373</ele>
        <time>2019-09-28T07:43:45Z</time>
      </trkpt>
      <trkpt lat="44.21415" lon="5.02649">
        <ele>374</ele>
        <time>2019-09-28T07:43:46Z</time>
      </trkpt>
      <trkpt lat="44.21419" lon="5.0265">
        <ele>375</ele>
        <time>2019-09-28T07:43:52Z</time>
      </trkpt>
      <trkpt lat="44.21427" lon="5.0265">
        <ele>377</ele>
        <time>2019-09-28T07:43:58Z</time>
      </trkpt>
      <trkpt lat="44.21432" lon="5.02655">
        <ele>378</ele>
        <time>2019-09-28T07:44:05Z</time>
      </trkpt>
      <trkpt lat="44.21439" lon="5.02653">
        <ele>380</ele>
        <time>2019-09-28T07:44:13Z</time>
      </trkpt>
      <trkpt lat="44.21446" lon="5.02648">
        <ele>384</ele>
        <time>2019-09-28T07:44:24Z</time>
      </trkpt>
      <trkpt lat="44.21447" lon="5.02649">
        <ele>384</ele>
        <time>2019-09-28T07:44:26Z</time>
      </trkpt>
      <trkpt lat="44.21449" lon="5.0265">
        <ele>384</ele>
        <time>2019-09-28T07:44:30Z</time>
      </trkpt>
      <trkpt lat="44.21453" lon="5.0265">
        <ele>385</ele>
        <time>2019-09-28T07:44:32Z</time>
      </trkpt>
      <trkpt lat="44.21458" lon="5.02649">
        <ele>387</ele>
        <time>2019-09-28T07:44:37Z</time>
      </trkpt>
      <trkpt lat="44.21466" lon="5.02653">
        <ele>387</ele>
        <time>2019-09-28T07:44:50Z</time>
      </trkpt>
      <trkpt lat="44.21467" lon="5.02653">
        <ele>388</ele>
        <time>2019-09-28T07:44:51Z</time>
      </trkpt>
      <trkpt lat="44.21468" lon="5.02653">
        <ele>388</ele>
        <time>2019-09-28T07:44:53Z</time>
      </trkpt>
      <trkpt lat="44.2147" lon="5.02649">
        <ele>390</ele>
        <time>2019-09-28T07:44:58Z</time>
      </trkpt>
      <trkpt lat="44.21474" lon="5.02641">
        <ele>394</ele>
        <time>2019-09-28T07:45:08Z</time>
      </trkpt>
      <trkpt lat="44.21475" lon="5.02637">
        <ele>396</ele>
        <time>2019-09-28T07:45:13Z</time>
      </trkpt>
      <trkpt lat="44.21479" lon="5.0263">
        <ele>399</ele>
        <time>2019-09-28T07:45:19Z</time>
      </trkpt>
      <trkpt lat="44.21483" lon="5.02624">
        <ele>402</ele>
        <time>2019-09-28T07:45:27Z</time>
      </trkpt>
      <trkpt lat="44.21485" lon="5.02621">
        <ele>404</ele>
        <time>2019-09-28T07:45:29Z</time>
      </trkpt>
      <trkpt lat="44.21489" lon="5.02612">
        <ele>408</ele>
        <time>2019-09-28T07:45:39Z</time>
      </trkpt>
      <trkpt lat="44.21496" lon="5.02613">
        <ele>410</ele>
        <time>2019-09-28T07:45:49Z</time>
      </trkpt>
      <trkpt lat="44.215" lon="5.02612">
        <ele>412</ele>
        <time>2019-09-28T07:45:58Z</time>
      </trkpt>
      <trkpt lat="44.21504" lon="5.02611">
        <ele>412</ele>
        <time>2019-09-28T07:46:08Z</time>
      </trkpt>
      <trkpt lat="44.21509" lon="5.02607">
        <ele>413</ele>
        <time>2019-09-28T07:46:18Z</time>
      </trkpt>
      <trkpt lat="44.21513" lon="5.02606">
        <ele>414</ele>
        <time>2019-09-28T07:46:22Z</time>
      </trkpt>
      <trkpt lat="44.21517" lon="5.02605">
        <ele>414</ele>
        <time>2019-09-28T07:46:32Z</time>
      </trkpt>
      <trkpt lat="44.21519" lon="5.02602">
        <ele>415</ele>
        <time>2019-09-28T07:46:38Z</time>
      </trkpt>
      <trkpt lat="44.21523" lon="5.02589">
        <ele>418</ele>
        <time>2019-09-28T07:46:48Z</time>
      </trkpt>
      <trkpt lat="44.21526" lon="5.02586">
        <ele>419</ele>
        <time>2019-09-28T07:46:58Z</time>
      </trkpt>
      <trkpt lat="44.21529" lon="5.02592">
        <ele>418</ele>
        <time>2019-09-28T07:47:07Z</time>
      </trkpt>
      <trkpt lat="44.2153" lon="5.02597">
        <ele>416</ele>
        <time>2019-09-28T07:47:15Z</time>
      </trkpt>
      <trkpt lat="44.21529" lon="5.02601">
        <ele>415</ele>
        <time>2019-09-28T07:47:27Z</time>
      </trkpt>
      <trkpt lat="44.21531" lon="5.02591">
        <ele>417</ele>
        <time>2019-09-28T07:47:40Z</time>
      </trkpt>
      <trkpt lat="44.21533" lon="5.02589">
        <ele>418</ele>
        <time>2019-09-28T07:47:51Z</time>
      </trkpt>
      <trkpt lat="44.21532" lon="5.02587">
        <ele>419</ele>
        <time>2019-09-28T07:48:09Z</time>
      </trkpt>
      <trkpt lat="44.21537" lon="5.02588">
        <ele>417</ele>
        <time>2019-09-28T07:48:21Z</time>
      </trkpt>
      <trkpt lat="44.21542" lon="5.02588">
        <ele>416</ele>
        <time>2019-09-28T07:48:34Z</time>
      </trkpt>
      <trkpt lat="44.21543" lon="5.02589">
        <ele>416</ele>
        <time>2019-09-28T07:48:35Z</time>
      </trkpt>
      <trkpt lat="44.21549" lon="5.02594">
        <ele>413</ele>
        <time>2019-09-28T07:48:40Z</time>
      </trkpt>
      <trkpt lat="44.2156" lon="5.02596">
        <ele>409</ele>
        <time>2019-09-28T07:48:48Z</time>
      </trkpt>
      <trkpt lat="44.21565" lon="5.02594">
        <ele>408</ele>
        <time>2019-09-28T07:48:56Z</time>
      </trkpt>
      <trkpt lat="44.2157" lon="5.026">
        <ele>404</ele>
        <time>2019-09-28T07:49:05Z</time>
      </trkpt>
      <trkpt lat="44.21576" lon="5.02604">
        <ele>401</ele>
        <time>2019-09-28T07:49:16Z</time>
      </trkpt>
      <trkpt lat="44.21579" lon="5.02604">
        <ele>400</ele>
        <time>2019-09-28T07:49:25Z</time>
      </trkpt>
      <trkpt lat="44.21581" lon="5.02605">
        <ele>399</ele>
        <time>2019-09-28T07:49:39Z</time>
      </trkpt>
      <trkpt lat="44.21583" lon="5.02606">
        <ele>398</ele>
        <time>2019-09-28T07:49:50Z</time>
      </trkpt>
      <trkpt lat="44.21589" lon="5.02607">
        <ele>395</ele>
        <time>2019-09-28T07:49:59Z</time>
      </trkpt>
      <trkpt lat="44.21594" lon="5.02607">
        <ele>393</ele>
        <time>2019-09-28T07:50:10Z</time>
      </trkpt>
      <trkpt lat="44.21598" lon="5.02612">
        <ele>391</ele>
        <time>2019-09-28T07:50:21Z</time>
      </trkpt>
      <trkpt lat="44.21599" lon="5.02615">
        <ele>389</ele>
        <time>2019-09-28T07:50:32Z</time>
      </trkpt>
      <trkpt lat="44.216" lon="5.02619">
        <ele>388</ele>
        <time>2019-09-28T07:50:42Z</time>
      </trkpt>
      <trkpt lat="44.21606" lon="5.02617">
        <ele>386</ele>
        <time>2019-09-28T07:50:54Z</time>
      </trkpt>
      <trkpt lat="44.21607" lon="5.02623">
        <ele>384</ele>
        <time>2019-09-28T07:51:03Z</time>
      </trkpt>
      <trkpt lat="44.21616" lon="5.02623">
        <ele>381</ele>
        <time>2019-09-28T07:51:12Z</time>
      </trkpt>
      <trkpt lat="44.21616" lon="5.02623">
        <ele>381</ele>
        <time>2019-09-28T07:51:13Z</time>
      </trkpt>
      <trkpt lat="44.21621" lon="5.02622">
        <ele>379</ele>
        <time>2019-09-28T07:51:24Z</time>
      </trkpt>
      <trkpt lat="44.21629" lon="5.02626">
        <ele>375</ele>
        <time>2019-09-28T07:51:35Z</time>
      </trkpt>
      <trkpt lat="44.21634" lon="5.0263">
        <ele>373</ele>
        <time>2019-09-28T07:51:45Z</time>
      </trkpt>
      <trkpt lat="44.2164" lon="5.02628">
        <ele>371</ele>
        <time>2019-09-28T07:51:54Z</time>
      </trkpt>
      <trkpt lat="44.21647" lon="5.02626">
        <ele>370</ele>
        <time>2019-09-28T07:52:04Z</time>
      </trkpt>
      <trkpt lat="44.21652" lon="5.02629">
        <ele>368</ele>
        <time>2019-09-28T07:52:13Z</time>
      </trkpt>
      <trkpt lat="44.21661" lon="5.02635">
        <ele>364</ele>
        <time>2019-09-28T07:52:21Z</time>
      </trkpt>
      <trkpt lat="44.21672" lon="5.02638">
        <ele>361</ele>
        <time>2019-09-28T07:52:31Z</time>
      </trkpt>
      <trkpt lat="44.21677" lon="5.02638">
        <ele>359</ele>
        <time>2019-09-28T07:52:34Z</time>
      </trkpt>
      <trkpt lat="44.21687" lon="5.02639">
        <ele>356</ele>
        <time>2019-09-28T07:52:41Z</time>
      </trkpt>
      <trkpt lat="44.21694" lon="5.02641">
        <ele>354</ele>
        <time>2019-09-28T07:52:49Z</time>
      </trkpt>
      <trkpt lat="44.21697" lon="5.02642">
        <ele>352</ele>
        <time>2019-09-28T07:52:53Z</time>
      </trkpt>
      <trkpt lat="44.21697" lon="5.02643">
        <ele>352</ele>
        <time>2019-09-28T07:52:54Z</time>
      </trkpt>
      <trkpt lat="44.21707" lon="5.02647">
        <ele>348</ele>
        <time>2019-09-28T07:53:02Z</time>
      </trkpt>
      <trkpt lat="44.21713" lon="5.02645">
        <ele>347</ele>
        <time>2019-09-28T07:53:07Z</time>
      </trkpt>
      <trkpt lat="44.21721" lon="5.02647">
        <ele>344</ele>
        <time>2019-09-28T07:53:16Z</time>
      </trkpt>
      <trkpt lat="44.21725" lon="5.02649">
        <ele>343</ele>
        <time>2019-09-28T07:53:19Z</time>
      </trkpt>
      <trkpt lat="44.21731" lon="5.02655">
        <ele>340</ele>
        <time>2019-09-28T07:53:29Z</time>
      </trkpt>
      <trkpt lat="44.21732" lon="5.02655">
        <ele>340</ele>
        <time>2019-09-28T07:53:30Z</time>
      </trkpt>
      <trkpt lat="44.21739" lon="5.02658">
        <ele>338</ele>
        <time>2019-09-28T07:53:37Z</time>
      </trkpt>
      <trkpt lat="44.21747" lon="5.02662">
        <ele>336</ele>
        <time>2019-09-28T07:53:43Z</time>
      </trkpt>
      <trkpt lat="44.21751" lon="5.02663">
        <ele>335</ele>
        <time>2019-09-28T07:53:46Z</time>
      </trkpt>
      <trkpt lat="44.21752" lon="5.02664">
        <ele>335</ele>
        <time>2019-09-28T07:53:47Z</time>
      </trkpt>
      <trkpt lat="44.21756" lon="5.02663">
        <ele>334</ele>
        <time>2019-09-28T07:53:50Z</time>
      </trkpt>
      <trkpt lat="44.21765" lon="5.02666">
        <ele>332</ele>
        <time>2019-09-28T07:53:57Z</time>
      </trkpt>
      <trkpt lat="44.21773" lon="5.02667">
        <ele>330</ele>
        <time>2019-09-28T07:54:09Z</time>
      </trkpt>
      <trkpt lat="44.21775" lon="5.02672">
        <ele>328</ele>
        <time>2019-09-28T07:54:19Z</time>
      </trkpt>
      <trkpt lat="44.2178" lon="5.02666">
        <ele>328</ele>
        <time>2019-09-28T07:54:26Z</time>
      </trkpt>
      <trkpt lat="44.21775" lon="5.02654">
        <ele>328</ele>
        <time>2019-09-28T07:54:34Z</time>
      </trkpt>
      <trkpt lat="44.21769" lon="5.02632">
        <ele>327</ele>
        <time>2019-09-28T07:54:43Z</time>
      </trkpt>
      <trkpt lat="44.21767" lon="5.02616">
        <ele>324</ele>
        <time>2019-09-28T07:54:50Z</time>
      </trkpt>
      <trkpt lat="44.21766" lon="5.0261">
        <ele>322</ele>
        <time>2019-09-28T07:54:52Z</time>
      </trkpt>
      <trkpt lat="44.21767" lon="5.02597">
        <ele>319</ele>
        <time>2019-09-28T07:54:56Z</time>
      </trkpt>
      <trkpt lat="44.21767" lon="5.02594">
        <ele>319</ele>
        <time>2019-09-28T07:54:57Z</time>
      </trkpt>
      <trkpt lat="44.21767" lon="5.02577">
        <ele>316</ele>
        <time>2019-09-28T07:55:04Z</time>
      </trkpt>
      <trkpt lat="44.21768" lon="5.02574">
        <ele>316</ele>
        <time>2019-09-28T07:55:05Z</time>
      </trkpt>
      <trkpt lat="44.21768" lon="5.02572">
        <ele>315</ele>
        <time>2019-09-28T07:55:06Z</time>
      </trkpt>
      <trkpt lat="44.21769" lon="5.0257">
        <ele>315</ele>
        <time>2019-09-28T07:55:07Z</time>
      </trkpt>
      <trkpt lat="44.2177" lon="5.02567">
        <ele>314</ele>
        <time>2019-09-28T07:55:08Z</time>
      </trkpt>
      <trkpt lat="44.21771" lon="5.02564">
        <ele>313</ele>
        <time>2019-09-28T07:55:09Z</time>
      </trkpt>
      <trkpt lat="44.21772" lon="5.02561">
        <ele>312</ele>
        <time>2019-09-28T07:55:10Z</time>
      </trkpt>
      <trkpt lat="44.21778" lon="5.0254">
        <ele>309</ele>
        <time>2019-09-28T07:55:17Z</time>
      </trkpt>
      <trkpt lat="44.21779" lon="5.02526">
        <ele>307</ele>
        <time>2019-09-28T07:55:22Z</time>
      </trkpt>
      <trkpt lat="44.21779" lon="5.02523">
        <ele>307</ele>
        <time>2019-09-28T07:55:23Z</time>
      </trkpt>
      <trkpt lat="44.21779" lon="5.0252">
        <ele>307</ele>
        <time>2019-09-28T07:55:24Z</time>
      </trkpt>
      <trkpt lat="44.21779" lon="5.02517">
        <ele>307</ele>
        <time>2019-09-28T07:55:25Z</time>
      </trkpt>
      <trkpt lat="44.21779" lon="5.02516">
        <ele>307</ele>
        <time>2019-09-28T07:55:26Z</time>
      </trkpt>
      <trkpt lat="44.21771" lon="5.025">
        <ele>307</ele>
        <time>2019-09-28T07:55:36Z</time>
      </trkpt>
      <trkpt lat="44.21764" lon="5.02488">
        <ele>308</ele>
        <time>2019-09-28T07:55:44Z</time>
      </trkpt>
      <trkpt lat="44.21755" lon="5.02475">
        <ele>308</ele>
        <time>2019-09-28T07:55:51Z</time>
      </trkpt>
      <trkpt lat="44.21747" lon="5.02457">
        <ele>306</ele>
        <time>2019-09-28T07:55:59Z</time>
      </trkpt>
      <trkpt lat="44.21746" lon="5.02448">
        <ele>303</ele>
        <time>2019-09-28T07:56:04Z</time>
      </trkpt>
      <trkpt lat="44.21743" lon="5.02434">
        <ele>299</ele>
        <time>2019-09-28T07:56:12Z</time>
      </trkpt>
      <trkpt lat="44.21742" lon="5.02431">
        <ele>298</ele>
        <time>2019-09-28T07:56:13Z</time>
      </trkpt>
      <trkpt lat="44.21742" lon="5.02429">
        <ele>297</ele>
        <time>2019-09-28T07:56:14Z</time>
      </trkpt>
      <trkpt lat="44.21741" lon="5.02427">
        <ele>296</ele>
        <time>2019-09-28T07:56:15Z</time>
      </trkpt>
      <trkpt lat="44.21741" lon="5.02424">
        <ele>295</ele>
        <time>2019-09-28T07:56:16Z</time>
      </trkpt>
      <trkpt lat="44.2174" lon="5.02421">
        <ele>294</ele>
        <time>2019-09-28T07:56:17Z</time>
      </trkpt>
      <trkpt lat="44.21739" lon="5.02419">
        <ele>293</ele>
        <time>2019-09-28T07:56:18Z</time>
      </trkpt>
      <trkpt lat="44.21733" lon="5.02389">
        <ele>283</ele>
        <time>2019-09-28T07:56:26Z</time>
      </trkpt>
      <trkpt lat="44.21731" lon="5.02382">
        <ele>281</ele>
        <time>2019-09-28T07:56:28Z</time>
      </trkpt>
      <trkpt lat="44.21729" lon="5.0238">
        <ele>281</ele>
        <time>2019-09-28T07:56:29Z</time>
      </trkpt>
      <trkpt lat="44.21727" lon="5.02378">
        <ele>281</ele>
        <time>2019-09-28T07:56:30Z</time>
      </trkpt>
      <trkpt lat="44.21725" lon="5.02377">
        <ele>281</ele>
        <time>2019-09-28T07:56:31Z</time>
      </trkpt>
      <trkpt lat="44.21723" lon="5.02376">
        <ele>281</ele>
        <time>2019-09-28T07:56:32Z</time>
      </trkpt>
      <trkpt lat="44.21722" lon="5.02375">
        <ele>281</ele>
        <time>2019-09-28T07:56:33Z</time>
      </trkpt>
      <trkpt lat="44.2172" lon="5.02373">
        <ele>281</ele>
        <time>2019-09-28T07:56:34Z</time>
      </trkpt>
      <trkpt lat="44.21713" lon="5.02371">
        <ele>281</ele>
        <time>2019-09-28T07:56:38Z</time>
      </trkpt>
      <trkpt lat="44.21711" lon="5.0237">
        <ele>281</ele>
        <time>2019-09-28T07:56:39Z</time>
      </trkpt>
      <trkpt lat="44.21709" lon="5.02369">
        <ele>281</ele>
        <time>2019-09-28T07:56:40Z</time>
      </trkpt>
      <trkpt lat="44.21701" lon="5.02365">
        <ele>281</ele>
        <time>2019-09-28T07:56:45Z</time>
      </trkpt>
      <trkpt lat="44.21698" lon="5.02363">
        <ele>281</ele>
        <time>2019-09-28T07:56:47Z</time>
      </trkpt>
      <trkpt lat="44.21691" lon="5.02362">
        <ele>282</ele>
        <time>2019-09-28T07:56:51Z</time>
      </trkpt>
      <trkpt lat="44.2169" lon="5.02361">
        <ele>282</ele>
        <time>2019-09-28T07:56:52Z</time>
      </trkpt>
      <trkpt lat="44.21679" lon="5.02348">
        <ele>281</ele>
        <time>2019-09-28T07:57:00Z</time>
      </trkpt>
      <trkpt lat="44.21676" lon="5.02344">
        <ele>280</ele>
        <time>2019-09-28T07:57:02Z</time>
      </trkpt>
      <trkpt lat="44.21665" lon="5.02328">
        <ele>278</ele>
        <time>2019-09-28T07:57:11Z</time>
      </trkpt>
      <trkpt lat="44.2165" lon="5.02308">
        <ele>276</ele>
        <time>2019-09-28T07:57:19Z</time>
      </trkpt>
      <trkpt lat="44.21641" lon="5.02302">
        <ele>276</ele>
        <time>2019-09-28T07:57:24Z</time>
      </trkpt>
      <trkpt lat="44.21627" lon="5.02289">
        <ele>276</ele>
        <time>2019-09-28T07:57:32Z</time>
      </trkpt>
      <trkpt lat="44.21625" lon="5.02287">
        <ele>276</ele>
        <time>2019-09-28T07:57:33Z</time>
      </trkpt>
      <trkpt lat="44.21624" lon="5.02286">
        <ele>276</ele>
        <time>2019-09-28T07:57:34Z</time>
      </trkpt>
      <trkpt lat="44.21622" lon="5.02284">
        <ele>276</ele>
        <time>2019-09-28T07:57:35Z</time>
      </trkpt>
      <trkpt lat="44.21621" lon="5.02282">
        <ele>276</ele>
        <time>2019-09-28T07:57:36Z</time>
      </trkpt>
      <trkpt lat="44.2162" lon="5.0228">
        <ele>275</ele>
        <time>2019-09-28T07:57:37Z</time>
      </trkpt>
      <trkpt lat="44.21618" lon="5.02278">
        <ele>275</ele>
        <time>2019-09-28T07:57:38Z</time>
      </trkpt>
      <trkpt lat="44.21617" lon="5.02277">
        <ele>275</ele>
        <time>2019-09-28T07:57:39Z</time>
      </trkpt>
      <trkpt lat="44.21615" lon="5.02275">
        <ele>275</ele>
        <time>2019-09-28T07:57:40Z</time>
      </trkpt>
      <trkpt lat="44.21614" lon="5.02273">
        <ele>275</ele>
        <time>2019-09-28T07:57:41Z</time>
      </trkpt>
      <trkpt lat="44.21613" lon="5.02272">
        <ele>274</ele>
        <time>2019-09-28T07:57:42Z</time>
      </trkpt>
      <trkpt lat="44.21599" lon="5.02259">
        <ele>274</ele>
        <time>2019-09-28T07:57:50Z</time>
      </trkpt>
      <trkpt lat="44.21597" lon="5.02259">
        <ele>274</ele>
        <time>2019-09-28T07:57:51Z</time>
      </trkpt>
      <trkpt lat="44.21594" lon="5.02258">
        <ele>275</ele>
        <time>2019-09-28T07:57:52Z</time>
      </trkpt>
      <trkpt lat="44.21592" lon="5.02258">
        <ele>275</ele>
        <time>2019-09-28T07:57:53Z</time>
      </trkpt>
      <trkpt lat="44.2159" lon="5.02258">
        <ele>276</ele>
        <time>2019-09-28T07:57:54Z</time>
      </trkpt>
      <trkpt lat="44.21588" lon="5.02259">
        <ele>276</ele>
        <time>2019-09-28T07:57:55Z</time>
      </trkpt>
      <trkpt lat="44.21586" lon="5.02259">
        <ele>277</ele>
        <time>2019-09-28T07:57:56Z</time>
      </trkpt>
      <trkpt lat="44.21584" lon="5.02259">
        <ele>277</ele>
        <time>2019-09-28T07:57:57Z</time>
      </trkpt>
      <trkpt lat="44.21578" lon="5.02262">
        <ele>278</ele>
        <time>2019-09-28T07:58:01Z</time>
      </trkpt>
      <trkpt lat="44.21577" lon="5.02262">
        <ele>279</ele>
        <time>2019-09-28T07:58:02Z</time>
      </trkpt>
      <trkpt lat="44.21576" lon="5.02262">
        <ele>279</ele>
        <time>2019-09-28T07:58:03Z</time>
      </trkpt>
      <trkpt lat="44.21574" lon="5.02263">
        <ele>279</ele>
        <time>2019-09-28T07:58:04Z</time>
      </trkpt>
      <trkpt lat="44.21572" lon="5.02263">
        <ele>280</ele>
        <time>2019-09-28T07:58:05Z</time>
      </trkpt>
      <trkpt lat="44.21563" lon="5.02266">
        <ele>282</ele>
        <time>2019-09-28T07:58:10Z</time>
      </trkpt>
      <trkpt lat="44.21561" lon="5.02265">
        <ele>282</ele>
        <time>2019-09-28T07:58:11Z</time>
      </trkpt>
      <trkpt lat="44.21559" lon="5.02265">
        <ele>283</ele>
        <time>2019-09-28T07:58:12Z</time>
      </trkpt>
      <trkpt lat="44.21556" lon="5.02265">
        <ele>283</ele>
        <time>2019-09-28T07:58:13Z</time>
      </trkpt>
      <trkpt lat="44.21553" lon="5.02264">
        <ele>283</ele>
        <time>2019-09-28T07:58:14Z</time>
      </trkpt>
      <trkpt lat="44.2155" lon="5.02263">
        <ele>283</ele>
        <time>2019-09-28T07:58:15Z</time>
      </trkpt>
      <trkpt lat="44.21546" lon="5.02262">
        <ele>282</ele>
        <time>2019-09-28T07:58:17Z</time>
      </trkpt>
      <trkpt lat="44.21544" lon="5.02263">
        <ele>282</ele>
        <time>2019-09-28T07:58:18Z</time>
      </trkpt>
      <trkpt lat="44.21541" lon="5.02262">
        <ele>282</ele>
        <time>2019-09-28T07:58:19Z</time>
      </trkpt>
      <trkpt lat="44.21538" lon="5.0226">
        <ele>281</ele>
        <time>2019-09-28T07:58:20Z</time>
      </trkpt>
      <trkpt lat="44.21535" lon="5.02259">
        <ele>280</ele>
        <time>2019-09-28T07:58:21Z</time>
      </trkpt>
      <trkpt lat="44.21532" lon="5.02257">
        <ele>280</ele>
        <time>2019-09-28T07:58:22Z</time>
      </trkpt>
      <trkpt lat="44.21529" lon="5.02256">
        <ele>279</ele>
        <time>2019-09-28T07:58:23Z</time>
      </trkpt>
      <trkpt lat="44.21527" lon="5.02255">
        <ele>279</ele>
        <time>2019-09-28T07:58:24Z</time>
      </trkpt>
      <trkpt lat="44.21524" lon="5.02253">
        <ele>278</ele>
        <time>2019-09-28T07:58:25Z</time>
      </trkpt>
      <trkpt lat="44.21522" lon="5.02251">
        <ele>277</ele>
        <time>2019-09-28T07:58:26Z</time>
      </trkpt>
      <trkpt lat="44.21519" lon="5.02248">
        <ele>276</ele>
        <time>2019-09-28T07:58:27Z</time>
      </trkpt>
      <trkpt lat="44.21517" lon="5.02246">
        <ele>275</ele>
        <time>2019-09-28T07:58:28Z</time>
      </trkpt>
      <trkpt lat="44.21515" lon="5.02243">
        <ele>275</ele>
        <time>2019-09-28T07:58:29Z</time>
      </trkpt>
      <trkpt lat="44.21513" lon="5.02241">
        <ele>274</ele>
        <time>2019-09-28T07:58:30Z</time>
      </trkpt>
      <trkpt lat="44.21511" lon="5.02238">
        <ele>273</ele>
        <time>2019-09-28T07:58:31Z</time>
      </trkpt>
      <trkpt lat="44.21509" lon="5.02236">
        <ele>272</ele>
        <time>2019-09-28T07:58:32Z</time>
      </trkpt>
      <trkpt lat="44.21508" lon="5.02234">
        <ele>272</ele>
        <time>2019-09-28T07:58:33Z</time>
      </trkpt>
      <trkpt lat="44.21506" lon="5.02232">
        <ele>271</ele>
        <time>2019-09-28T07:58:34Z</time>
      </trkpt>
      <trkpt lat="44.21503" lon="5.02227">
        <ele>270</ele>
        <time>2019-09-28T07:58:37Z</time>
      </trkpt>
      <trkpt lat="44.21502" lon="5.02226">
        <ele>270</ele>
        <time>2019-09-28T07:58:38Z</time>
      </trkpt>
      <trkpt lat="44.21501" lon="5.02224">
        <ele>269</ele>
        <time>2019-09-28T07:58:39Z</time>
      </trkpt>
      <trkpt lat="44.21499" lon="5.02222">
        <ele>269</ele>
        <time>2019-09-28T07:58:40Z</time>
      </trkpt>
      <trkpt lat="44.21497" lon="5.0222">
        <ele>268</ele>
        <time>2019-09-28T07:58:41Z</time>
      </trkpt>
      <trkpt lat="44.21495" lon="5.02218">
        <ele>268</ele>
        <time>2019-09-28T07:58:42Z</time>
      </trkpt>
      <trkpt lat="44.21493" lon="5.02217">
        <ele>267</ele>
        <time>2019-09-28T07:58:43Z</time>
      </trkpt>
      <trkpt lat="44.21491" lon="5.02215">
        <ele>267</ele>
        <time>2019-09-28T07:58:44Z</time>
      </trkpt>
      <trkpt lat="44.2149" lon="5.02214">
        <ele>267</ele>
        <time>2019-09-28T07:58:45Z</time>
      </trkpt>
      <trkpt lat="44.21488" lon="5.02214">
        <ele>266</ele>
        <time>2019-09-28T07:58:46Z</time>
      </trkpt>
      <trkpt lat="44.2147" lon="5.02211">
        <ele>267</ele>
        <time>2019-09-28T07:58:55Z</time>
      </trkpt>
      <trkpt lat="44.21452" lon="5.02222">
        <ele>270</ele>
        <time>2019-09-28T07:59:05Z</time>
      </trkpt>
      <trkpt lat="44.21449" lon="5.02224">
        <ele>270</ele>
        <time>2019-09-28T07:59:07Z</time>
      </trkpt>
      <trkpt lat="44.21434" lon="5.02233">
        <ele>269</ele>
        <time>2019-09-28T07:59:16Z</time>
      </trkpt>
      <trkpt lat="44.21418" lon="5.0225">
        <ele>269</ele>
        <time>2019-09-28T07:59:24Z</time>
      </trkpt>
      <trkpt lat="44.21415" lon="5.02251">
        <ele>269</ele>
        <time>2019-09-28T07:59:26Z</time>
      </trkpt>
      <trkpt lat="44.21413" lon="5.02252">
        <ele>268</ele>
        <time>2019-09-28T07:59:27Z</time>
      </trkpt>
      <trkpt lat="44.21412" lon="5.02253">
        <ele>268</ele>
        <time>2019-09-28T07:59:28Z</time>
      </trkpt>
      <trkpt lat="44.21411" lon="5.02254">
        <ele>267</ele>
        <time>2019-09-28T07:59:29Z</time>
      </trkpt>
      <trkpt lat="44.21409" lon="5.02255">
        <ele>267</ele>
        <time>2019-09-28T07:59:30Z</time>
      </trkpt>
      <trkpt lat="44.21408" lon="5.02255">
        <ele>266</ele>
        <time>2019-09-28T07:59:31Z</time>
      </trkpt>
      <trkpt lat="44.21394" lon="5.02257">
        <ele>261</ele>
        <time>2019-09-28T07:59:38Z</time>
      </trkpt>
      <trkpt lat="44.21385" lon="5.02255">
        <ele>258</ele>
        <time>2019-09-28T07:59:42Z</time>
      </trkpt>
      <trkpt lat="44.21384" lon="5.02256">
        <ele>257</ele>
        <time>2019-09-28T07:59:43Z</time>
      </trkpt>
      <trkpt lat="44.21382" lon="5.02255">
        <ele>257</ele>
        <time>2019-09-28T07:59:44Z</time>
      </trkpt>
      <trkpt lat="44.2138" lon="5.02254">
        <ele>256</ele>
        <time>2019-09-28T07:59:45Z</time>
      </trkpt>
      <trkpt lat="44.21378" lon="5.02253">
        <ele>255</ele>
        <time>2019-09-28T07:59:46Z</time>
      </trkpt>
      <trkpt lat="44.21376" lon="5.02251">
        <ele>254</ele>
        <time>2019-09-28T07:59:47Z</time>
      </trkpt>
      <trkpt lat="44.21374" lon="5.0225">
        <ele>253</ele>
        <time>2019-09-28T07:59:48Z</time>
      </trkpt>
      <trkpt lat="44.21372" lon="5.0225">
        <ele>253</ele>
        <time>2019-09-28T07:59:49Z</time>
      </trkpt>
      <trkpt lat="44.2137" lon="5.0225">
        <ele>252</ele>
        <time>2019-09-28T07:59:50Z</time>
      </trkpt>
      <trkpt lat="44.21368" lon="5.02249">
        <ele>252</ele>
        <time>2019-09-28T07:59:51Z</time>
      </trkpt>
      <trkpt lat="44.21366" lon="5.02248">
        <ele>251</ele>
        <time>2019-09-28T07:59:52Z</time>
      </trkpt>
      <trkpt lat="44.21365" lon="5.02247">
        <ele>251</ele>
        <time>2019-09-28T07:59:53Z</time>
      </trkpt>
      <trkpt lat="44.21363" lon="5.02246">
        <ele>250</ele>
        <time>2019-09-28T07:59:54Z</time>
      </trkpt>
      <trkpt lat="44.21362" lon="5.02245">
        <ele>250</ele>
        <time>2019-09-28T07:59:55Z</time>
      </trkpt>
      <trkpt lat="44.2136" lon="5.02243">
        <ele>250</ele>
        <time>2019-09-28T07:59:56Z</time>
      </trkpt>
      <trkpt lat="44.21359" lon="5.02242">
        <ele>250</ele>
        <time>2019-09-28T07:59:57Z</time>
      </trkpt>
      <trkpt lat="44.21357" lon="5.0224">
        <ele>249</ele>
        <time>2019-09-28T07:59:58Z</time>
      </trkpt>
      <trkpt lat="44.21356" lon="5.02239">
        <ele>249</ele>
        <time>2019-09-28T07:59:59Z</time>
      </trkpt>
      <trkpt lat="44.21355" lon="5.02237">
        <ele>249</ele>
        <time>2019-09-28T08:00:00Z</time>
      </trkpt>
      <trkpt lat="44.21354" lon="5.02236">
        <ele>249</ele>
        <time>2019-09-28T08:00:01Z</time>
      </trkpt>
      <trkpt lat="44.21353" lon="5.02234">
        <ele>249</ele>
        <time>2019-09-28T08:00:02Z</time>
      </trkpt>
      <trkpt lat="44.21346" lon="5.02223">
        <ele>247</ele>
        <time>2019-09-28T08:00:09Z</time>
      </trkpt>
      <trkpt lat="44.21337" lon="5.02212">
        <ele>245</ele>
        <time>2019-09-28T08:00:16Z</time>
      </trkpt>
      <trkpt lat="44.21318" lon="5.02182">
        <ele>238</ele>
        <time>2019-09-28T08:00:27Z</time>
      </trkpt>
      <trkpt lat="44.21308" lon="5.02172">
        <ele>235</ele>
        <time>2019-09-28T08:00:32Z</time>
      </trkpt>
      <trkpt lat="44.21306" lon="5.0217">
        <ele>234</ele>
        <time>2019-09-28T08:00:33Z</time>
      </trkpt>
      <trkpt lat="44.21305" lon="5.02168">
        <ele>234</ele>
        <time>2019-09-28T08:00:34Z</time>
      </trkpt>
      <trkpt lat="44.21303" lon="5.02167">
        <ele>234</ele>
        <time>2019-09-28T08:00:35Z</time>
      </trkpt>
      <trkpt lat="44.21302" lon="5.02165">
        <ele>234</ele>
        <time>2019-09-28T08:00:36Z</time>
      </trkpt>
      <trkpt lat="44.213" lon="5.02164">
        <ele>234</ele>
        <time>2019-09-28T08:00:37Z</time>
      </trkpt>
      <trkpt lat="44.21298" lon="5.02163">
        <ele>234</ele>
        <time>2019-09-28T08:00:38Z</time>
      </trkpt>
      <trkpt lat="44.21289" lon="5.02154">
        <ele>234</ele>
        <time>2019-09-28T08:05:23Z</time>
      </trkpt>
      <trkpt lat="44.21279" lon="5.02156">
        <ele>236</ele>
        <time>2019-09-28T08:05:32Z</time>
      </trkpt>
      <trkpt lat="44.21278" lon="5.02156">
        <ele>237</ele>
        <time>2019-09-28T08:05:33Z</time>
      </trkpt>
      <trkpt lat="44.21267" lon="5.02153">
        <ele>239</ele>
        <time>2019-09-28T08:05:45Z</time>
      </trkpt>
      <trkpt lat="44.21259" lon="5.02153">
        <ele>243</ele>
        <time>2019-09-28T08:05:54Z</time>
      </trkpt>
      <trkpt lat="44.21258" lon="5.02154">
        <ele>243</ele>
        <time>2019-09-28T08:05:55Z</time>
      </trkpt>
      <trkpt lat="44.21256" lon="5.02154">
        <ele>244</ele>
        <time>2019-09-28T08:05:56Z</time>
      </trkpt>
      <trkpt lat="44.21239" lon="5.02157">
        <ele>249</ele>
        <time>2019-09-28T08:06:08Z</time>
      </trkpt>
      <trkpt lat="44.21227" lon="5.0216">
        <ele>252</ele>
        <time>2019-09-28T08:06:15Z</time>
      </trkpt>
      <trkpt lat="44.21211" lon="5.0217">
        <ele>257</ele>
        <time>2019-09-28T08:06:27Z</time>
      </trkpt>
      <trkpt lat="44.21204" lon="5.02171">
        <ele>258</ele>
        <time>2019-09-28T08:06:32Z</time>
      </trkpt>
      <trkpt lat="44.21177" lon="5.0217">
        <ele>257</ele>
        <time>2019-09-28T08:06:45Z</time>
      </trkpt>
      <trkpt lat="44.21175" lon="5.0217">
        <ele>256</ele>
        <time>2019-09-28T08:06:46Z</time>
      </trkpt>
      <trkpt lat="44.21173" lon="5.02169">
        <ele>256</ele>
        <time>2019-09-28T08:06:47Z</time>
      </trkpt>
      <trkpt lat="44.21149" lon="5.02169">
        <ele>256</ele>
        <time>2019-09-28T08:06:59Z</time>
      </trkpt>
      <trkpt lat="44.21124" lon="5.02171">
        <ele>256</ele>
        <time>2019-09-28T08:07:12Z</time>
      </trkpt>
      <trkpt lat="44.21114" lon="5.02174">
        <ele>257</ele>
        <time>2019-09-28T08:07:17Z</time>
      </trkpt>
      <trkpt lat="44.2109" lon="5.02175">
        <ele>256</ele>
        <time>2019-09-28T08:07:29Z</time>
      </trkpt>
      <trkpt lat="44.21058" lon="5.02178">
        <ele>256</ele>
        <time>2019-09-28T08:07:42Z</time>
      </trkpt>
      <trkpt lat="44.21031" lon="5.02176">
        <ele>254</ele>
        <time>2019-09-28T08:07:54Z</time>
      </trkpt>
      <trkpt lat="44.21009" lon="5.02172">
        <ele>252</ele>
        <time>2019-09-28T08:08:04Z</time>
      </trkpt>
      <trkpt lat="44.20994" lon="5.02168">
        <ele>250</ele>
        <time>2019-09-28T08:08:13Z</time>
      </trkpt>
      <trkpt lat="44.20966" lon="5.02157">
        <ele>245</ele>
        <time>2019-09-28T08:08:25Z</time>
      </trkpt>
      <trkpt lat="44.20943" lon="5.02151">
        <ele>243</ele>
        <time>2019-09-28T08:08:35Z</time>
      </trkpt>
      <trkpt lat="44.20939" lon="5.02149">
        <ele>242</ele>
        <time>2019-09-28T08:08:37Z</time>
      </trkpt>
      <trkpt lat="44.20936" lon="5.02149">
        <ele>242</ele>
        <time>2019-09-28T08:08:38Z</time>
      </trkpt>
      <trkpt lat="44.20919" lon="5.02145">
        <ele>241</ele>
        <time>2019-09-28T08:08:45Z</time>
      </trkpt>
      <trkpt lat="44.20906" lon="5.02147">
        <ele>242</ele>
        <time>2019-09-28T08:08:52Z</time>
      </trkpt>
      <trkpt lat="44.20889" lon="5.0215">
        <ele>242</ele>
        <time>2019-09-28T08:09:01Z</time>
      </trkpt>
      <trkpt lat="44.20866" lon="5.02154">
        <ele>242</ele>
        <time>2019-09-28T08:09:10Z</time>
      </trkpt>
      <trkpt lat="44.2084" lon="5.02163">
        <ele>240</ele>
        <time>2019-09-28T08:09:22Z</time>
      </trkpt>
      <trkpt lat="44.2082" lon="5.02178">
        <ele>238</ele>
        <time>2019-09-28T08:09:32Z</time>
      </trkpt>
      <trkpt lat="44.20805" lon="5.0219">
        <ele>235</ele>
        <time>2019-09-28T08:09:39Z</time>
      </trkpt>
      <trkpt lat="44.20803" lon="5.02192">
        <ele>235</ele>
        <time>2019-09-28T08:09:40Z</time>
      </trkpt>
      <trkpt lat="44.20802" lon="5.02194">
        <ele>235</ele>
        <time>2019-09-28T08:09:41Z</time>
      </trkpt>
      <trkpt lat="44.208" lon="5.02196">
        <ele>234</ele>
        <time>2019-09-28T08:09:42Z</time>
      </trkpt>
      <trkpt lat="44.20799" lon="5.02199">
        <ele>234</ele>
        <time>2019-09-28T08:09:43Z</time>
      </trkpt>
      <trkpt lat="44.20798" lon="5.02203">
        <ele>234</ele>
        <time>2019-09-28T08:09:44Z</time>
      </trkpt>
      <trkpt lat="44.20785" lon="5.02245">
        <ele>235</ele>
        <time>2019-09-28T08:09:57Z</time>
      </trkpt>
      <trkpt lat="44.20788" lon="5.0227">
        <ele>239</ele>
        <time>2019-09-28T08:10:05Z</time>
      </trkpt>
      <trkpt lat="44.20789" lon="5.02274">
        <ele>240</ele>
        <time>2019-09-28T08:10:06Z</time>
      </trkpt>
      <trkpt lat="44.20789" lon="5.0229">
        <ele>243</ele>
        <time>2019-09-28T08:10:12Z</time>
      </trkpt>
      <trkpt lat="44.20789" lon="5.02293">
        <ele>243</ele>
        <time>2019-09-28T08:10:13Z</time>
      </trkpt>
      <trkpt lat="44.20787" lon="5.02295">
        <ele>243</ele>
        <time>2019-09-28T08:10:14Z</time>
      </trkpt>
      <trkpt lat="44.20777" lon="5.02318">
        <ele>239</ele>
        <time>2019-09-28T08:10:24Z</time>
      </trkpt>
      <trkpt lat="44.20771" lon="5.02348">
        <ele>235</ele>
        <time>2019-09-28T08:10:35Z</time>
      </trkpt>
      <trkpt lat="44.20769" lon="5.02356">
        <ele>234</ele>
        <time>2019-09-28T08:10:38Z</time>
      </trkpt>
      <trkpt lat="44.20769" lon="5.02358">
        <ele>234</ele>
        <time>2019-09-28T08:10:39Z</time>
      </trkpt>
      <trkpt lat="44.20769" lon="5.0236">
        <ele>234</ele>
        <time>2019-09-28T08:10:40Z</time>
      </trkpt>
      <trkpt lat="44.2077" lon="5.02362">
        <ele>233</ele>
        <time>2019-09-28T08:10:41Z</time>
      </trkpt>
      <trkpt lat="44.2077" lon="5.02364">
        <ele>233</ele>
        <time>2019-09-28T08:10:42Z</time>
      </trkpt>
      <trkpt lat="44.20771" lon="5.02366">
        <ele>233</ele>
        <time>2019-09-28T08:10:43Z</time>
      </trkpt>
      <trkpt lat="44.2078" lon="5.02384">
        <ele>233</ele>
        <time>2019-09-28T08:10:53Z</time>
      </trkpt>
      <trkpt lat="44.20786" lon="5.02395">
        <ele>236</ele>
        <time>2019-09-28T08:11:21Z</time>
      </trkpt>
      <trkpt lat="44.20795" lon="5.0241">
        <ele>239</ele>
        <time>2019-09-28T08:11:38Z</time>
      </trkpt>
    </trkseg>
  </trk>
</gpx>